Darstellungsparameter: Aktuell verwendete Einstellungen:
Skalierung der Graphiken ... ?
xyx+y,   Skalierungsfaktor:      Skalierung: Modus: x, Faktor: 1
Darstellungszeitraum ... ?
Vom - - bis: - -   Zeitraum: 26.12.2003 - 25.06.2004
Min/Max/Avg-Anzeige ... ?
Zeige MMA aktuell
Zeige MMA Monat
Zeige MMA alles
Zeige --A aktuell
Zeige --A Monat
Zeige --A alles
Keine MMA-Anzeige
MMA:
Keine MMA-Graphiken
MMA-Basis: 26.12.2003 - 25.06.2004
Quicknavigation für Darstellung... ?
Tage:      1T, 2T, 3T, 5T -1T -2T -3T -5T +1T +2T +3T +5T
Wochen: 1W, 2W, 3W -1W -2W -3W +1W +2W +3W
Monate: 1M, 3M, 6M -1M -3M -6M +1M +3M +6M
Jahre:    1J, 3J, 5J, 10J -1J -3J -5J -10J +1J +3J +5J +10J
Nutze für die Darstellung ... ?
Originaldaten oder Mittelwerte auf ...
Stundenbasis Tagesbasis Wochenbasis
Monatsbasis Jahresbasis      Datenbasis: Original-Daten
Darstellen als:
Statistik (Auto) Statistik J:M      Darstellung:
Zur Graphik,    zurück zur Übersicht aller Sensoren.
 
Tabellarische Datenbersicht: ?
 
Sensor: Nr:Datum:Temp:Abs-Feuchte:Windchill:Wind:
Aussen-T/F 1 26-12-2003 00:03:01 5.4 C 5.44 g/m*3 5.4 C 0 km/h
2 26-12-2003 00:15:01 5.5 C 5.48 g/m*3 5.5 C 0 km/h
3 26-12-2003 00:27:01 5.5 C 5.48 g/m*3 5.5 C 0 km/h
4 26-12-2003 00:38:01 5.5 C 5.41 g/m*3 5.5 C 0 km/h
5 26-12-2003 00:50:01 5.5 C 5.41 g/m*3 5.5 C 0 km/h
6 26-12-2003 01:02:00 5.5 C 5.48 g/m*3 5.5 C 0 km/h
7 26-12-2003 01:14:00 5.5 C 5.41 g/m*3 5.5 C 0 km/h
8 26-12-2003 01:26:00 5.6 C 5.44 g/m*3 5.6 C 0 km/h
9 26-12-2003 01:38:01 5.6 C 5.44 g/m*3 5.6 C 0 km/h
10 26-12-2003 01:50:01 5.6 C 5.44 g/m*3 5.6 C 0 km/h
11 26-12-2003 02:02:00 5.6 C 5.44 g/m*3 5.6 C 0 km/h
12 26-12-2003 02:14:00 5.5 C 5.41 g/m*3 5.5 C 0 km/h
13 26-12-2003 02:26:00 5.5 C 5.41 g/m*3 5.5 C 0 km/h
14 26-12-2003 02:38:01 5.5 C 5.41 g/m*3 5.5 C 0 km/h
15 26-12-2003 02:50:01 5.4 C 5.44 g/m*3 5.4 C 0 km/h
16 26-12-2003 03:02:00 5.3 C 5.41 g/m*3 5.3 C 0 km/h
17 26-12-2003 03:14:00 5.4 C 5.44 g/m*3 5.4 C 0 km/h
18 26-12-2003 03:26:00 5.5 C 5.41 g/m*3 5.5 C 0 km/h
19 26-12-2003 03:38:00 5.3 C 5.34 g/m*3 5.3 C 0 km/h
20 26-12-2003 03:50:00 5.2 C 5.3 g/m*3 5.2 C 0 km/h
21 26-12-2003 04:03:01 5.2 C 5.3 g/m*3 5.2 C 0 km/h
22 26-12-2003 04:15:01 5.3 C 5.27 g/m*3 5.3 C 0 km/h
23 26-12-2003 04:27:01 5.1 C 5.27 g/m*3 5.1 C 0 km/h
24 26-12-2003 04:38:01 5 C 5.3 g/m*3 5 C 0 km/h
25 26-12-2003 04:50:01 5 C 5.37 g/m*3 5 C 0 km/h
Sensor: Nr:Datum:Temp:Abs-Feuchte:Windchill:Wind:
Aussen-T/F 26 26-12-2003 05:02:00 5 C 5.37 g/m*3 5 C 0 km/h
27 26-12-2003 05:14:00 5.3 C 5.48 g/m*3 5.3 C 0 km/h
28 26-12-2003 05:26:00 5.5 C 5.41 g/m*3 5.5 C 0 km/h
29 26-12-2003 05:38:00 5.6 C 5.3 g/m*3 5.6 C 0 km/h
30 26-12-2003 05:50:00 5.7 C 5.34 g/m*3 5.7 C 0 km/h
31 26-12-2003 06:03:01 5.7 C 5.34 g/m*3 5.7 C 0 km/h
32 26-12-2003 06:15:01 5.7 C 5.34 g/m*3 5.7 C 0 km/h
33 26-12-2003 06:27:01 5.7 C 5.41 g/m*3 5.7 C 0 km/h
34 26-12-2003 06:38:01 5.6 C 5.37 g/m*3 5.6 C 0 km/h
35 26-12-2003 06:50:01 5.5 C 5.41 g/m*3 5.5 C 0 km/h
36 26-12-2003 07:02:00 5.5 C 5.41 g/m*3 5.5 C 0 km/h
37 26-12-2003 07:14:00 5.5 C 5.34 g/m*3 5.5 C 0 km/h
38 26-12-2003 07:26:00 5.5 C 5.34 g/m*3 5.5 C 0 km/h
39 26-12-2003 07:38:00 5.5 C 5.34 g/m*3 5.5 C 0 km/h
40 26-12-2003 07:50:01 5.5 C 5.34 g/m*3 5.5 C 0 km/h
41 26-12-2003 08:02:00 5.5 C 5.27 g/m*3 5.5 C 0 km/h
42 26-12-2003 08:14:00 5.5 C 5.27 g/m*3 5.5 C 0 km/h
43 26-12-2003 08:26:00 5.6 C 5.3 g/m*3 5.6 C 0 km/h
44 26-12-2003 08:38:00 5.5 C 5.27 g/m*3 5.5 C 0 km/h
45 26-12-2003 08:50:00 5.5 C 5.27 g/m*3 5.5 C 0 km/h
46 26-12-2003 09:03:01 5.6 C 5.23 g/m*3 5.6 C 0 km/h
47 26-12-2003 09:15:01 5.6 C 5.23 g/m*3 5.6 C 0 km/h
48 26-12-2003 09:27:01 5.7 C 5.27 g/m*3 5.7 C 0 km/h
49 26-12-2003 09:38:01 5.7 C 5.19 g/m*3 5.7 C 0 km/h
50 26-12-2003 09:50:01 5.7 C 5.19 g/m*3 5.7 C 0 km/h
Sensor: Nr:Datum:Temp:Abs-Feuchte:Windchill:Wind:
Aussen-T/F 51 26-12-2003 10:02:00 5.7 C 5.19 g/m*3 5.7 C 0 km/h
52 26-12-2003 10:14:00 5.7 C 5.12 g/m*3 5.7 C 0 km/h
53 26-12-2003 10:26:00 5.7 C 5.12 g/m*3 5.7 C 0 km/h
54 26-12-2003 10:38:01 5.8 C 5.16 g/m*3 5.8 C 0 km/h
55 26-12-2003 10:50:01 5.8 C 5.16 g/m*3 5.8 C 0 km/h
56 26-12-2003 11:02:00 5.9 C 5.12 g/m*3 5.9 C 0 km/h
57 26-12-2003 11:14:00 6 C 5.01 g/m*3 6 C 0 km/h
58 26-12-2003 11:38:12 6 C 5.08 g/m*3 6 C 0 km/h
59 26-12-2003 11:50:12 6 C 5.08 g/m*3 6 C 0 km/h
60 26-12-2003 12:02:12 6.2 C 5 g/m*3 6.2 C 0 km/h
61 26-12-2003 12:15:00 6.2 C 5 g/m*3 6.2 C 0 km/h
62 26-12-2003 12:27:00 6.4 C 4.99 g/m*3 6.4 C 0 km/h
63 26-12-2003 12:38:02 6.4 C 4.99 g/m*3 6.4 C 0 km/h
64 26-12-2003 12:50:02 6.5 C 5.02 g/m*3 6.5 C 0 km/h
65 26-12-2003 13:02:00 6.5 C 4.95 g/m*3 6.5 C 0 km/h
66 26-12-2003 13:14:00 6.7 C 5.01 g/m*3 6.7 C 0 km/h
67 26-12-2003 13:26:00 6.7 C 5.01 g/m*3 6.7 C 0 km/h
68 26-12-2003 13:38:00 6.7 C 5.01 g/m*3 6.7 C 0 km/h
69 26-12-2003 13:50:00 6.7 C 4.94 g/m*3 6.7 C 0 km/h
70 26-12-2003 14:02:01 6.7 C 4.94 g/m*3 6.7 C 0 km/h
71 26-12-2003 14:14:01 6.6 C 4.98 g/m*3 6.6 C 0 km/h
72 26-12-2003 14:26:01 6.8 C 5.05 g/m*3 6.8 C 0 km/h
73 26-12-2003 14:38:00 6.4 C 4.84 g/m*3 6.4 C 0 km/h
74 26-12-2003 14:50:00 6.5 C 4.87 g/m*3 6.5 C 0 km/h
75 26-12-2003 15:02:00 6.4 C 4.92 g/m*3 6.4 C 0 km/h
Sensor: Nr:Datum:Temp:Abs-Feuchte:Windchill:Wind:
Aussen-T/F 76 26-12-2003 15:14:00 6.2 C 4.85 g/m*3 6.2 C 0 km/h
77 26-12-2003 15:26:00 6.1 C 4.82 g/m*3 6.1 C 0 km/h
78 26-12-2003 15:38:00 6 C 4.79 g/m*3 6 C 0 km/h
79 26-12-2003 15:50:00 5.8 C 4.8 g/m*3 5.8 C 0 km/h
80 26-12-2003 16:03:01 5.6 C 4.74 g/m*3 5.6 C 0 km/h
81 26-12-2003 16:15:01 5.4 C 4.74 g/m*3 5.4 C 0 km/h
82 26-12-2003 16:27:01 5.2 C 4.75 g/m*3 5.2 C 0 km/h
83 26-12-2003 16:38:01 5.1 C 4.65 g/m*3 5.1 C 0 km/h
84 26-12-2003 16:50:01 4.9 C 4.73 g/m*3 4.9 C 0 km/h
85 26-12-2003 17:02:00 4.9 C 4.66 g/m*3 4.9 C 0 km/h
86 26-12-2003 17:14:00 4.7 C 4.66 g/m*3 4.7 C 0 km/h
87 26-12-2003 17:26:01 4.4 C 4.7 g/m*3 4.4 C 0 km/h
88 26-12-2003 17:38:00 4.3 C 4.67 g/m*3 4.3 C 0 km/h
89 26-12-2003 17:50:00 4.3 C 4.74 g/m*3 4.3 C 0 km/h
90 26-12-2003 18:03:00 4.1 C 4.67 g/m*3 4.1 C 0 km/h
91 26-12-2003 18:15:01 4.1 C 4.67 g/m*3 4.1 C 0 km/h
92 26-12-2003 18:27:01 4 C 4.64 g/m*3 4 C 0 km/h
93 26-12-2003 18:38:01 4 C 4.7 g/m*3 4 C 0 km/h
94 26-12-2003 18:50:01 3.9 C 4.8 g/m*3 3.9 C 0 km/h
95 26-12-2003 19:02:00 3.9 C 4.8 g/m*3 3.9 C 0 km/h
96 26-12-2003 19:14:00 3.9 C 4.8 g/m*3 3.9 C 0 km/h
97 26-12-2003 19:26:01 3.9 C 4.74 g/m*3 3.9 C 0 km/h
98 26-12-2003 19:38:00 4.1 C 4.67 g/m*3 4.1 C 0 km/h
99 26-12-2003 19:50:00 4.8 C 4.69 g/m*3 4.8 C 0 km/h
100 26-12-2003 20:03:01 5.8 C 4.73 g/m*3 5.8 C 0 km/h
Sensor: Nr:Datum:Temp:Abs-Feuchte:Windchill:Wind:
Aussen-T/F 101 26-12-2003 20:15:01 6.4 C 4.62 g/m*3 6.4 C 0 km/h
102 26-12-2003 20:27:01 6.9 C 4.7 g/m*3 6.9 C 0 km/h
103 26-12-2003 20:38:00 6.8 C 4.74 g/m*3 6.8 C 0 km/h
104 26-12-2003 20:50:01 6.8 C 4.82 g/m*3 6.8 C 0 km/h
105 26-12-2003 21:02:00 6.7 C 4.79 g/m*3 6.7 C 0 km/h
106 26-12-2003 21:14:00 6.7 C 4.86 g/m*3 6.7 C 0 km/h
107 26-12-2003 21:26:00 6.8 C 4.97 g/m*3 6.8 C 0 km/h
108 26-12-2003 21:38:01 6.5 C 4.95 g/m*3 6.5 C 0 km/h
109 26-12-2003 21:50:01 6.5 C 5.02 g/m*3 6.5 C 0 km/h
110 26-12-2003 22:02:00 6.5 C 5.02 g/m*3 6.5 C 0 km/h
111 26-12-2003 22:14:00 6.5 C 5.1 g/m*3 6.5 C 0 km/h
112 26-12-2003 22:26:00 6.8 C 5.35 g/m*3 6.8 C 0 km/h
113 26-12-2003 22:38:00 6.7 C 5.32 g/m*3 6.7 C 0 km/h
114 26-12-2003 22:50:00 6.8 C 5.35 g/m*3 6.8 C 0 km/h
115 26-12-2003 23:03:01 7 C 5.35 g/m*3 7 C 0 km/h
116 26-12-2003 23:15:01 7 C 5.35 g/m*3 7 C 0 km/h
117 26-12-2003 23:27:01 7.3 C 5.45 g/m*3 7.3 C 0 km/h
118 26-12-2003 23:38:01 7.3 C 5.45 g/m*3 7.3 C 0 km/h
119 26-12-2003 23:50:01 7.4 C 5.49 g/m*3 7.4 C 0 km/h
120 27-12-2003 00:02:00 7.4 C 5.41 g/m*3 7.4 C 0 km/h
121 27-12-2003 00:14:00 7.5 C 5.36 g/m*3 7.5 C 0 km/h
122 27-12-2003 00:26:00 7.5 C 5.36 g/m*3 7.5 C 0 km/h
123 27-12-2003 00:38:01 7.5 C 5.36 g/m*3 7.5 C 0 km/h
124 27-12-2003 00:50:01 7.5 C 5.36 g/m*3 7.5 C 0 km/h
125 27-12-2003 01:02:00 7.6 C 5.4 g/m*3 7.6 C 0 km/h
Sensor: Nr:Datum:Temp:Abs-Feuchte:Windchill:Wind:
Aussen-T/F 126 27-12-2003 01:14:00 7.6 C 5.4 g/m*3 7.6 C 0 km/h
127 27-12-2003 01:26:01 7.8 C 5.47 g/m*3 7.8 C 0 km/h
128 27-12-2003 01:38:00 7.9 C 5.59 g/m*3 7.9 C 0 km/h
129 27-12-2003 01:50:00 8.1 C 5.49 g/m*3 8.1 C 0 km/h
130 27-12-2003 02:03:01 8.1 C 5.57 g/m*3 8.1 C 0 km/h
131 27-12-2003 02:15:01 8.4 C 5.6 g/m*3 8.4 C 0 km/h
132 27-12-2003 02:27:01 8.4 C 5.6 g/m*3 8.4 C 0 km/h
133 27-12-2003 02:38:01 8.4 C 5.6 g/m*3 8.4 C 0 km/h
134 27-12-2003 02:50:01 8.5 C 5.64 g/m*3 8.5 C 0 km/h
135 27-12-2003 03:02:00 8.4 C 5.68 g/m*3 8.4 C 0 km/h
136 27-12-2003 03:14:00 8.4 C 5.6 g/m*3 8.4 C 0 km/h
137 27-12-2003 03:26:00 8.4 C 5.6 g/m*3 8.4 C 0 km/h
138 27-12-2003 03:38:01 8.5 C 5.64 g/m*3 8.5 C 0 km/h
139 27-12-2003 03:50:01 8.6 C 5.67 g/m*3 8.6 C 0 km/h
140 27-12-2003 04:02:00 8.5 C 5.64 g/m*3 8.5 C 0 km/h
141 27-12-2003 04:14:00 8.6 C 5.67 g/m*3 8.6 C 0 km/h
142 27-12-2003 04:26:00 8.6 C 5.59 g/m*3 8.6 C 0 km/h
143 27-12-2003 04:38:00 8.5 C 5.64 g/m*3 8.5 C 0 km/h
144 27-12-2003 04:50:00 8.6 C 5.59 g/m*3 8.6 C 0 km/h
145 27-12-2003 05:03:01 8.7 C 5.62 g/m*3 8.7 C 0 km/h
146 27-12-2003 05:15:01 8.7 C 5.62 g/m*3 8.7 C 0 km/h
147 27-12-2003 05:27:01 8.6 C 5.59 g/m*3 8.6 C 0 km/h
148 27-12-2003 05:38:01 8.7 C 5.53 g/m*3 8.7 C 0 km/h
149 27-12-2003 05:50:01 8.8 C 5.57 g/m*3 8.8 C 0 km/h
150 27-12-2003 06:02:00 8.9 C 5.61 g/m*3 8.9 C 0 km/h
Sensor: Nr:Datum:Temp:Abs-Feuchte:Windchill:Wind:
Aussen-T/F 151 27-12-2003 06:14:00 8.8 C 5.48 g/m*3 8.8 C 0 km/h
152 27-12-2003 06:26:00 8.8 C 5.48 g/m*3 8.8 C 0 km/h
153 27-12-2003 06:38:00 8.8 C 5.48 g/m*3 8.8 C 0 km/h
154 27-12-2003 06:50:00 8.8 C 5.48 g/m*3 8.8 C 0 km/h
155 27-12-2003 07:03:01 8.8 C 5.48 g/m*3 8.8 C 0 km/h
156 27-12-2003 07:15:01 8.8 C 5.48 g/m*3 8.8 C 0 km/h
157 27-12-2003 07:27:01 8.8 C 5.48 g/m*3 8.8 C 0 km/h
158 27-12-2003 07:38:01 8.5 C 5.46 g/m*3 8.5 C 0 km/h
159 27-12-2003 07:50:01 8.7 C 5.53 g/m*3 8.7 C 0 km/h
160 27-12-2003 08:02:00 8.8 C 5.57 g/m*3 8.8 C 0 km/h
161 27-12-2003 08:14:00 8.8 C 5.57 g/m*3 8.8 C 0 km/h
162 27-12-2003 08:26:00 8.8 C 5.66 g/m*3 8.8 C 0 km/h
163 27-12-2003 08:38:01 8.9 C 5.69 g/m*3 8.9 C 0 km/h
164 27-12-2003 08:50:01 8.7 C 5.71 g/m*3 8.7 C 0 km/h
165 27-12-2003 09:02:00 8.4 C 5.77 g/m*3 8.4 C 0 km/h
166 27-12-2003 09:14:00 8.3 C 5.82 g/m*3 8.3 C 0 km/h
167 27-12-2003 09:26:00 8.1 C 5.82 g/m*3 8.1 C 0 km/h
168 27-12-2003 09:38:00 7.7 C 5.92 g/m*3 7.7 C 0 km/h
169 27-12-2003 09:50:00 7.1 C 5.77 g/m*3 7.1 C 0 km/h
170 27-12-2003 10:03:01 6.6 C 5.74 g/m*3 6.6 C 0 km/h
171 27-12-2003 10:15:01 6.5 C 5.85 g/m*3 6.5 C 0 km/h
172 27-12-2003 10:27:01 6.4 C 5.89 g/m*3 6.4 C 0 km/h
173 27-12-2003 10:38:00 6.4 C 5.89 g/m*3 6.4 C 0 km/h
174 27-12-2003 10:50:00 6.4 C 5.89 g/m*3 6.4 C 0 km/h
175 27-12-2003 11:02:00 6.4 C 5.89 g/m*3 6.4 C 0 km/h
Sensor: Nr:Datum:Temp:Abs-Feuchte:Windchill:Wind:
Aussen-T/F 176 27-12-2003 11:14:00 6.6 C 5.89 g/m*3 6.6 C 0 km/h
177 27-12-2003 11:26:01 6.9 C 5.85 g/m*3 6.9 C 0 km/h
178 27-12-2003 11:38:00 7 C 5.66 g/m*3 7 C 0 km/h
179 27-12-2003 11:50:00 7 C 5.42 g/m*3 7 C 0 km/h
180 27-12-2003 12:03:00 7 C 5.5 g/m*3 7 C 0 km/h
181 27-12-2003 12:15:01 7 C 5.35 g/m*3 7 C 0 km/h
182 27-12-2003 12:27:01 7 C 5.27 g/m*3 7 C 0 km/h
183 27-12-2003 12:38:00 7 C 5.27 g/m*3 7 C 0 km/h
184 27-12-2003 12:50:00 6.9 C 5.39 g/m*3 6.9 C 0 km/h
185 27-12-2003 13:02:00 7 C 5.35 g/m*3 7 C 0 km/h
186 27-12-2003 13:14:00 7.2 C 5.34 g/m*3 7.2 C 0 km/h
187 27-12-2003 13:26:00 7.1 C 5.23 g/m*3 7.1 C 0 km/h
188 27-12-2003 13:38:00 7.1 C 5.23 g/m*3 7.1 C 0 km/h
189 27-12-2003 13:50:00 7 C 5.19 g/m*3 7 C 0 km/h
190 27-12-2003 14:03:00 6.8 C 5.2 g/m*3 6.8 C 0 km/h
191 27-12-2003 14:15:00 6.9 C 5.23 g/m*3 6.9 C 0 km/h
192 27-12-2003 14:27:01 6.9 C 5.23 g/m*3 6.9 C 0 km/h
193 27-12-2003 14:38:25 7 C 5.27 g/m*3 7 C 0 km/h
194 27-12-2003 14:50:25 7 C 5.27 g/m*3 7 C 0 km/h
195 27-12-2003 14:57:01 7 C 5.27 g/m*3 7 C 0 km/h
196 27-12-2003 15:09:00 6.9 C 5.31 g/m*3 6.9 C 0 km/h
197 27-12-2003 15:21:00 6.9 C 5.31 g/m*3 6.9 C 0 km/h
198 27-12-2003 15:33:00 6.9 C 5.23 g/m*3 6.9 C 0 km/h
199 27-12-2003 15:45:00 7 C 5.19 g/m*3 7 C 0 km/h
200 27-12-2003 15:57:01 6.8 C 5.2 g/m*3 6.8 C 0 km/h
Sensor: Nr:Datum:Temp:Abs-Feuchte:Windchill:Wind:
Aussen-T/F 201 27-12-2003 16:09:00 6.7 C 5.17 g/m*3 6.7 C 0 km/h
202 27-12-2003 16:21:00 6.5 C 5.17 g/m*3 6.5 C 0 km/h
203 27-12-2003 16:33:00 6.8 C 5.2 g/m*3 6.8 C 0 km/h
204 27-12-2003 16:45:00 6.3 C 5.4 g/m*3 6.3 C 0 km/h
205 27-12-2003 16:57:00 6 C 5.52 g/m*3 6 C 0 km/h
206 27-12-2003 17:10:01 5.9 C 5.34 g/m*3 5.9 C 0 km/h
207 27-12-2003 17:22:01 6.2 C 5.29 g/m*3 6.2 C 0 km/h
208 27-12-2003 17:33:01 6.4 C 5.29 g/m*3 6.4 C 0 km/h
209 27-12-2003 17:45:01 6.1 C 5.19 g/m*3 6.1 C 0 km/h
210 27-12-2003 17:57:01 5.9 C 5.26 g/m*3 5.9 C 0 km/h
211 27-12-2003 18:09:00 5.6 C 5.16 g/m*3 5.6 C 0 km/h
212 27-12-2003 18:21:00 5.2 C 5.1 g/m*3 5.2 C 0 km/h
213 27-12-2003 18:33:01 5.2 C 5.1 g/m*3 5.2 C 0 km/h
214 27-12-2003 18:45:01 5.1 C 4.99 g/m*3 5.1 C 0 km/h
215 27-12-2003 18:57:01 5.1 C 4.99 g/m*3 5.1 C 0 km/h
216 27-12-2003 19:09:00 5.2 C 4.96 g/m*3 5.2 C 0 km/h
217 27-12-2003 19:21:00 5.1 C 4.99 g/m*3 5.1 C 0 km/h
218 27-12-2003 19:33:00 4.8 C 5.16 g/m*3 4.8 C 0 km/h
219 27-12-2003 19:45:00 4.9 C 5.2 g/m*3 4.9 C 0 km/h
220 27-12-2003 19:57:00 4.8 C 5.1 g/m*3 4.8 C 0 km/h
221 27-12-2003 20:10:01 4.9 C 5.2 g/m*3 4.9 C 0 km/h
222 27-12-2003 20:22:01 4.8 C 5.16 g/m*3 4.8 C 0 km/h
223 27-12-2003 20:33:00 5 C 5.1 g/m*3 5 C 0 km/h
224 27-12-2003 20:45:01 5.3 C 5.06 g/m*3 5.3 C 0 km/h
225 27-12-2003 20:57:01 5.3 C 4.99 g/m*3 5.3 C 0 km/h
Sensor: Nr:Datum:Temp:Abs-Feuchte:Windchill:Wind:
Aussen-T/F 226 27-12-2003 21:09:00 5.2 C 4.96 g/m*3 5.2 C 0 km/h
227 27-12-2003 21:21:00 5.4 C 5.02 g/m*3 5.4 C 0 km/h
228 27-12-2003 21:33:00 5.7 C 5.05 g/m*3 5.7 C 0 km/h
229 27-12-2003 21:45:01 5.6 C 5.09 g/m*3 5.6 C 0 km/h
230 27-12-2003 21:57:01 5.7 C 5.12 g/m*3 5.7 C 0 km/h
231 27-12-2003 22:09:00 5.8 C 5.16 g/m*3 5.8 C 0 km/h
232 27-12-2003 22:21:00 5.9 C 5.19 g/m*3 5.9 C 0 km/h
233 27-12-2003 22:33:00 5.7 C 5.19 g/m*3 5.7 C 0 km/h
234 27-12-2003 22:45:00 5.6 C 5.16 g/m*3 5.6 C 0 km/h
235 27-12-2003 22:57:00 5.4 C 5.16 g/m*3 5.4 C 0 km/h
236 27-12-2003 23:10:01 5.3 C 5.2 g/m*3 5.3 C 0 km/h
237 27-12-2003 23:22:01 5.3 C 5.2 g/m*3 5.3 C 0 km/h
238 27-12-2003 23:33:01 5.3 C 5.2 g/m*3 5.3 C 0 km/h
239 27-12-2003 23:45:01 5.3 C 5.27 g/m*3 5.3 C 0 km/h
240 27-12-2003 23:57:01 5.3 C 5.27 g/m*3 5.3 C 0 km/h
241 28-12-2003 00:09:00 5.4 C 5.37 g/m*3 5.4 C 0 km/h
242 28-12-2003 00:21:01 5.6 C 5.37 g/m*3 5.6 C 0 km/h
243 28-12-2003 00:33:00 5.4 C 5.37 g/m*3 5.4 C 0 km/h
244 28-12-2003 00:45:00 5.3 C 5.34 g/m*3 5.3 C 0 km/h
245 28-12-2003 00:57:00 5.6 C 5.44 g/m*3 5.6 C 0 km/h
246 28-12-2003 01:10:01 5.6 C 5.44 g/m*3 5.6 C 0 km/h
247 28-12-2003 01:22:01 5.8 C 5.59 g/m*3 5.8 C 0 km/h
248 28-12-2003 01:33:01 5.7 C 5.62 g/m*3 5.7 C 0 km/h
249 28-12-2003 01:45:01 5.9 C 5.77 g/m*3 5.9 C 0 km/h
250 28-12-2003 01:57:01 5.8 C 5.8 g/m*3 5.8 C 0 km/h
Sensor: Nr:Datum:Temp:Abs-Feuchte:Windchill:Wind:
Aussen-T/F 251 28-12-2003 02:09:00 5.9 C 5.84 g/m*3 5.9 C 0 km/h
252 28-12-2003 02:21:00 5.9 C 5.84 g/m*3 5.9 C 0 km/h
253 28-12-2003 02:33:00 5.7 C 5.84 g/m*3 5.7 C 0 km/h
254 28-12-2003 02:45:00 5.7 C 5.91 g/m*3 5.7 C 0 km/h
255 28-12-2003 02:57:00 5.6 C 5.87 g/m*3 5.6 C 0 km/h
256 28-12-2003 03:10:01 5.6 C 5.87 g/m*3 5.6 C 0 km/h
257 28-12-2003 03:22:01 5.7 C 5.91 g/m*3 5.7 C 0 km/h
258 28-12-2003 03:33:00 6.3 C 5.92 g/m*3 6.3 C 0 km/h
259 28-12-2003 03:45:01 7 C 5.89 g/m*3 7 C 0 km/h
260 28-12-2003 03:57:01 6.9 C 5.85 g/m*3 6.9 C 0 km/h
261 28-12-2003 04:09:00 7.2 C 5.73 g/m*3 7.2 C 0 km/h
262 28-12-2003 04:21:00 7.1 C 5.77 g/m*3 7.1 C 0 km/h
263 28-12-2003 04:33:00 7.6 C 5.72 g/m*3 7.6 C 0 km/h
264 28-12-2003 04:45:00 7.7 C 5.76 g/m*3 7.7 C 0 km/h
265 28-12-2003 04:57:00 7.4 C 5.88 g/m*3 7.4 C 0 km/h
266 28-12-2003 05:10:01 7.1 C 6.01 g/m*3 7.1 C 0 km/h
267 28-12-2003 05:22:01 6.9 C 6.16 g/m*3 6.9 C 0 km/h
268 28-12-2003 05:33:01 6.8 C 6.19 g/m*3 6.8 C 0 km/h
269 28-12-2003 05:45:01 6.9 C 6.16 g/m*3 6.9 C 0 km/h
270 28-12-2003 05:57:01 7 C 6.12 g/m*3 7 C 0 km/h
271 28-12-2003 06:09:00 6.9 C 6.24 g/m*3 6.9 C 0 km/h
272 28-12-2003 06:21:00 7 C 6.12 g/m*3 7 C 0 km/h
273 28-12-2003 06:33:01 6.9 C 6.31 g/m*3 6.9 C 0 km/h
274 28-12-2003 06:45:01 6.8 C 6.35 g/m*3 6.8 C 0 km/h
275 28-12-2003 06:57:01 6.7 C 6.31 g/m*3 6.7 C 0 km/h
Sensor: Nr:Datum:Temp:Abs-Feuchte:Windchill:Wind:
Aussen-T/F 276 28-12-2003 07:09:00 6.5 C 6.3 g/m*3 6.5 C 0 km/h
277 28-12-2003 07:21:00 6.4 C 6.26 g/m*3 6.4 C 0 km/h
278 28-12-2003 07:33:00 6.5 C 6.37 g/m*3 6.5 C 0 km/h
279 28-12-2003 07:45:00 6.5 C 6.3 g/m*3 6.5 C 0 km/h
280 28-12-2003 07:57:00 6.5 C 6.3 g/m*3 6.5 C 0 km/h
281 28-12-2003 08:10:01 6.5 C 6.37 g/m*3 6.5 C 0 km/h
282 28-12-2003 08:22:01 6.8 C 6.42 g/m*3 6.8 C 0 km/h
283 28-12-2003 08:33:01 6.7 C 6.31 g/m*3 6.7 C 0 km/h
284 28-12-2003 08:45:01 7.1 C 6.4 g/m*3 7.1 C 0 km/h
285 28-12-2003 08:57:01 7.6 C 6.36 g/m*3 7.6 C 0 km/h
286 28-12-2003 09:09:00 7.6 C 6.28 g/m*3 7.6 C 0 km/h
287 28-12-2003 09:21:00 7.7 C 6.24 g/m*3 7.7 C 0 km/h
288 28-12-2003 09:33:00 7.8 C 6.2 g/m*3 7.8 C 0 km/h
289 28-12-2003 09:45:00 7.6 C 6.2 g/m*3 7.6 C 0 km/h
290 28-12-2003 09:57:00 7.9 C 6.16 g/m*3 7.9 C 0 km/h
291 28-12-2003 10:10:01 8 C 6.12 g/m*3 8 C 0 km/h
292 28-12-2003 10:22:01 8.1 C 6.16 g/m*3 8.1 C 0 km/h
293 28-12-2003 10:33:01 8.5 C 6.23 g/m*3 8.5 C 0 km/h
294 28-12-2003 10:45:01 8.2 C 6.36 g/m*3 8.2 C 0 km/h
295 28-12-2003 10:57:01 8.2 C 6.45 g/m*3 8.2 C 0 km/h
296 28-12-2003 11:09:00 8.2 C 6.45 g/m*3 8.2 C 0 km/h
297 28-12-2003 11:21:00 8.3 C 6.49 g/m*3 8.3 C 0 km/h
298 28-12-2003 11:33:00 8.7 C 6.57 g/m*3 8.7 C 0 km/h
299 28-12-2003 11:45:00 9.1 C 6.48 g/m*3 9.1 C 0 km/h
300 28-12-2003 11:57:00 9.7 C 6.36 g/m*3 9.7 C 0 km/h
Sensor: Nr:Datum:Temp:Abs-Feuchte:Windchill:Wind:
Aussen-T/F 301 28-12-2003 12:10:01 9.8 C 6.31 g/m*3 9.8 C 0 km/h
302 28-12-2003 12:22:01 10.1 C 6.24 g/m*3 10.1 C 0 km/h
303 28-12-2003 12:33:00 10.2 C 6.28 g/m*3 10.2 C 0 km/h
304 28-12-2003 12:45:01 10.3 C 6.32 g/m*3 10.3 C 0 km/h
305 28-12-2003 12:57:01 10.3 C 6.03 g/m*3 10.3 C 0 km/h
306 28-12-2003 13:09:00 10.4 C 6.17 g/m*3 10.4 C 0 km/h
307 28-12-2003 13:21:00 10.4 C 6.07 g/m*3 10.4 C 0 km/h
308 28-12-2003 13:33:00 10.6 C 5.95 g/m*3 10.6 C 0 km/h
309 28-12-2003 13:45:00 10.6 C 6.05 g/m*3 10.6 C 0 km/h
310 28-12-2003 13:57:00 10.9 C 5.77 g/m*3 10.9 C 0 km/h
311 28-12-2003 14:10:01 11.1 C 5.54 g/m*3 11.1 C 0 km/h
312 28-12-2003 14:22:01 11.2 C 5.47 g/m*3 11.2 C 0 km/h
313 28-12-2003 14:33:01 11.2 C 5.47 g/m*3 11.2 C 0 km/h
314 28-12-2003 14:45:01 11.4 C 5.23 g/m*3 11.4 C 0 km/h
315 28-12-2003 14:57:01 11.4 C 5.23 g/m*3 11.4 C 0 km/h
316 28-12-2003 15:09:00 11.2 C 5.17 g/m*3 11.2 C 0 km/h
317 28-12-2003 15:21:00 8.4 C 6.11 g/m*3 8.4 C 0 km/h
318 28-12-2003 15:33:01 8.1 C 6.16 g/m*3 8.1 C 0 km/h
319 28-12-2003 15:45:01 8.2 C 6.11 g/m*3 8.2 C 0 km/h
320 28-12-2003 15:57:01 8.2 C 6.11 g/m*3 8.2 C 0 km/h
321 28-12-2003 16:09:00 8.5 C 5.98 g/m*3 8.5 C 0 km/h
322 28-12-2003 16:21:00 8.6 C 5.84 g/m*3 8.6 C 0 km/h
323 28-12-2003 16:33:00 8.1 C 5.82 g/m*3 8.1 C 0 km/h
324 28-12-2003 16:45:00 7.9 C 5.75 g/m*3 7.9 C 0 km/h
325 28-12-2003 16:57:00 7.8 C 5.63 g/m*3 7.8 C 0 km/h
Sensor: Nr:Datum:Temp:Abs-Feuchte:Windchill:Wind:
Aussen-T/F 326 28-12-2003 17:10:00 7.7 C 5.59 g/m*3 7.7 C 0 km/h
327 28-12-2003 17:22:01 7.2 C 5.65 g/m*3 7.2 C 0 km/h
328 28-12-2003 17:33:01 6.6 C 5.74 g/m*3 6.6 C 0 km/h
329 28-12-2003 17:45:01 6 C 5.01 g/m*3 6 C 0 km/h
330 28-12-2003 17:57:01 5.6 C 4.95 g/m*3 5.6 C 0 km/h
331 28-12-2003 18:09:00 5.5 C 4.85 g/m*3 5.5 C 0 km/h
332 28-12-2003 18:21:00 5.5 C 4.85 g/m*3 5.5 C 0 km/h
333 28-12-2003 18:33:00 5.5 C 4.85 g/m*3 5.5 C 0 km/h
334 28-12-2003 18:45:00 5.4 C 4.81 g/m*3 5.4 C 0 km/h
335 28-12-2003 18:57:00 5.5 C 4.78 g/m*3 5.5 C 0 km/h
336 28-12-2003 19:10:01 5.4 C 4.74 g/m*3 5.4 C 0 km/h
337 28-12-2003 19:22:01 5.4 C 4.67 g/m*3 5.4 C 0 km/h
338 28-12-2003 19:33:01 5.5 C 4.71 g/m*3 5.5 C 0 km/h
339 28-12-2003 19:45:01 5.5 C 4.71 g/m*3 5.5 C 0 km/h
340 28-12-2003 19:57:01 5.4 C 4.67 g/m*3 5.4 C 0 km/h
341 28-12-2003 20:09:00 5.3 C 4.71 g/m*3 5.3 C 0 km/h
342 28-12-2003 20:21:00 5.2 C 4.68 g/m*3 5.2 C 0 km/h
343 28-12-2003 20:33:00 5.2 C 4.68 g/m*3 5.2 C 0 km/h
344 28-12-2003 20:45:00 5.3 C 4.71 g/m*3 5.3 C 0 km/h
345 28-12-2003 20:57:00 5.2 C 4.68 g/m*3 5.2 C 0 km/h
346 28-12-2003 21:10:00 5.2 C 4.68 g/m*3 5.2 C 0 km/h
347 28-12-2003 21:22:00 5.2 C 4.61 g/m*3 5.2 C 0 km/h
348 28-12-2003 21:33:01 5.2 C 4.61 g/m*3 5.2 C 0 km/h
349 28-12-2003 21:45:01 5 C 4.69 g/m*3 5 C 0 km/h
350 28-12-2003 21:57:01 5.1 C 4.72 g/m*3 5.1 C 0 km/h
Sensor: Nr:Datum:Temp:Abs-Feuchte:Windchill:Wind:
Aussen-T/F 351 28-12-2003 22:09:00 5 C 4.62 g/m*3 5 C 0 km/h
352 28-12-2003 22:21:00 4.9 C 4.46 g/m*3 4.9 C 0 km/h
353 28-12-2003 22:33:00 4.8 C 4.09 g/m*3 4.8 C 0 km/h
354 28-12-2003 22:45:01 4.7 C 3.93 g/m*3 4.7 C 0 km/h
355 28-12-2003 22:57:01 4.7 C 4 g/m*3 4.7 C 0 km/h
356 28-12-2003 23:09:00 4.6 C 3.9 g/m*3 4.6 C 0 km/h
357 28-12-2003 23:21:00 4.5 C 3.94 g/m*3 4.5 C 0 km/h
358 28-12-2003 23:33:00 4.3 C 3.83 g/m*3 4.3 C 0 km/h
359 28-12-2003 23:45:00 4 C 3.62 g/m*3 4 C 0 km/h
360 28-12-2003 23:57:00 3.7 C 3.55 g/m*3 3.7 C 0 km/h
361 29-12-2003 00:10:01 3.6 C 3.71 g/m*3 3.6 C 0 km/h
362 29-12-2003 00:22:01 3.3 C 3.76 g/m*3 3.3 C 0 km/h
363 29-12-2003 00:33:00 3.7 C 3.8 g/m*3 3.7 C 0 km/h
364 29-12-2003 00:45:00 3.6 C 3.78 g/m*3 3.6 C 0 km/h
365 29-12-2003 00:57:01 3.4 C 3.79 g/m*3 3.4 C 0 km/h
366 29-12-2003 01:09:00 3.3 C 3.82 g/m*3 3.3 C 0 km/h
367 29-12-2003 01:21:00 3.1 C 3.77 g/m*3 3.1 C 0 km/h
368 29-12-2003 01:33:00 2.8 C 3.81 g/m*3 2.8 C 0 km/h
369 29-12-2003 01:45:00 2.6 C 3.82 g/m*3 2.6 C 0 km/h
370 29-12-2003 01:57:00 2.6 C 3.88 g/m*3 2.6 C 0 km/h
371 29-12-2003 02:10:01 2.7 C 3.85 g/m*3 2.7 C 0 km/h
372 29-12-2003 02:22:01 2.7 C 3.85 g/m*3 2.7 C 0 km/h
373 29-12-2003 02:33:01 2.9 C 3.9 g/m*3 2.9 C 0 km/h
374 29-12-2003 02:45:01 2.9 C 3.84 g/m*3 2.9 C 0 km/h
375 29-12-2003 02:57:01 3 C 3.81 g/m*3 3 C 0 km/h
Sensor: Nr:Datum:Temp:Abs-Feuchte:Windchill:Wind:
Aussen-T/F 376 29-12-2003 03:09:00 3 C 3.86 g/m*3 3 C 0 km/h
377 29-12-2003 03:21:00 3 C 3.92 g/m*3 3 C 0 km/h
378 29-12-2003 03:33:01 2.9 C 3.96 g/m*3 2.9 C 0 km/h
379 29-12-2003 03:45:01 2.9 C 4.02 g/m*3 2.9 C 0 km/h
380 29-12-2003 03:57:01 2.8 C 3.99 g/m*3 2.8 C 0 km/h
381 29-12-2003 04:09:00 2.7 C 4.02 g/m*3 2.7 C 0 km/h
382 29-12-2003 04:21:00 2.7 C 4.08 g/m*3 2.7 C 0 km/h
383 29-12-2003 04:33:00 2.5 C 4.02 g/m*3 2.5 C 0 km/h
384 29-12-2003 04:45:00 2.5 C 4.02 g/m*3 2.5 C 0 km/h
385 29-12-2003 04:57:00 2.6 C 4.05 g/m*3 2.6 C 0 km/h
386 29-12-2003 05:10:01 3.1 C 4.07 g/m*3 3.1 C 0 km/h
387 29-12-2003 05:22:01 3.1 C 3.95 g/m*3 3.1 C 0 km/h
388 29-12-2003 05:33:01 2.6 C 3.94 g/m*3 2.6 C 0 km/h
389 29-12-2003 05:45:01 2.7 C 4.02 g/m*3 2.7 C 0 km/h
390 29-12-2003 05:57:01 3.1 C 3.95 g/m*3 3.1 C 0 km/h
391 29-12-2003 06:09:00 3.2 C 3.98 g/m*3 3.2 C 0 km/h
392 29-12-2003 06:21:00 2.9 C 3.96 g/m*3 2.9 C 0 km/h
393 29-12-2003 06:33:00 2.7 C 3.9 g/m*3 2.7 C 0 km/h
394 29-12-2003 06:45:00 2.5 C 3.91 g/m*3 2.5 C 0 km/h
395 29-12-2003 06:57:00 2.5 C 3.91 g/m*3 2.5 C 0 km/h
396 29-12-2003 07:10:01 2.6 C 3.99 g/m*3 2.6 C 0 km/h
397 29-12-2003 07:22:01 2.6 C 3.94 g/m*3 2.6 C 0 km/h
398 29-12-2003 07:33:01 2.3 C 3.86 g/m*3 2.3 C 0 km/h
399 29-12-2003 07:45:01 2.1 C 3.86 g/m*3 2.1 C 0 km/h
400 29-12-2003 07:57:01 2.3 C 3.86 g/m*3 2.3 C 0 km/h
Sensor: Nr:Datum:Temp:Abs-Feuchte:Windchill:Wind:
Aussen-T/F 401 29-12-2003 08:09:00 2.3 C 3.8 g/m*3 2.3 C 0 km/h
402 29-12-2003 08:21:00 2 C 3.72 g/m*3 2 C 0 km/h
403 29-12-2003 08:33:01 1.8 C 3.84 g/m*3 1.8 C 0 km/h
404 29-12-2003 08:45:01 2.1 C 3.86 g/m*3 2.1 C 0 km/h
405 29-12-2003 08:57:01 2.2 C 3.83 g/m*3 2.2 C 0 km/h
406 29-12-2003 09:09:00 2.3 C 3.74 g/m*3 2.3 C 0 km/h
407 29-12-2003 09:21:00 2.3 C 3.74 g/m*3 2.3 C 0 km/h
408 29-12-2003 09:33:00 2.5 C 3.79 g/m*3 2.5 C 0 km/h
409 29-12-2003 09:45:00 2.7 C 3.79 g/m*3 2.7 C 0 km/h
410 29-12-2003 09:57:00 2.8 C 3.75 g/m*3 2.8 C 0 km/h
411 29-12-2003 10:10:00 2.6 C 3.76 g/m*3 2.6 C 0 km/h
412 29-12-2003 10:22:00 2.4 C 3.77 g/m*3 2.4 C 0 km/h
413 29-12-2003 10:33:01 2.5 C 3.74 g/m*3 2.5 C 0 km/h
414 29-12-2003 10:45:01 2.7 C 3.73 g/m*3 2.7 C 0 km/h
415 29-12-2003 10:57:01 2.6 C 3.7 g/m*3 2.6 C 0 km/h
416 29-12-2003 11:09:01 2.7 C 3.73 g/m*3 2.7 C 0 km/h
417 29-12-2003 11:21:01 2.7 C 3.67 g/m*3 2.7 C 0 km/h
418 29-12-2003 11:33:35 2.6 C 3.65 g/m*3 2.6 C 0 km/h
419 29-12-2003 11:45:35 2.5 C 3.68 g/m*3 2.5 C 0 km/h
420 29-12-2003 11:57:00 2.4 C 3.77 g/m*3 2.4 C 0 km/h
421 29-12-2003 12:10:00 3.1 C 3.77 g/m*3 3.1 C 0 km/h
422 29-12-2003 12:22:00 3.5 C 3.75 g/m*3 3.5 C 0 km/h
423 29-12-2003 12:33:09 3.7 C 3.68 g/m*3 3.7 C 0 km/h
424 29-12-2003 12:45:01 3.7 C 3.61 g/m*3 3.7 C 0 km/h
425 29-12-2003 12:57:01 3.7 C 3.61 g/m*3 3.7 C 0 km/h
Sensor: Nr:Datum:Temp:Abs-Feuchte:Windchill:Wind:
Aussen-T/F 426 29-12-2003 13:09:00 3.9 C 3.73 g/m*3 3.9 C 0 km/h
427 29-12-2003 13:21:00 3.8 C 3.58 g/m*3 3.8 C 0 km/h
428 29-12-2003 13:33:01 3.8 C 3.58 g/m*3 3.8 C 0 km/h
429 29-12-2003 13:45:01 3.6 C 3.59 g/m*3 3.6 C 0 km/h
430 29-12-2003 13:57:01 3.3 C 3.64 g/m*3 3.3 C 0 km/h
431 29-12-2003 14:09:00 3.2 C 3.62 g/m*3 3.2 C 0 km/h
432 29-12-2003 14:21:00 3.2 C 3.56 g/m*3 3.2 C 0 km/h
433 29-12-2003 14:33:00 3 C 3.51 g/m*3 3 C 0 km/h
434 29-12-2003 14:45:00 2.7 C 3.61 g/m*3 2.7 C 0 km/h
435 29-12-2003 14:57:00 2.5 C 3.62 g/m*3 2.5 C 0 km/h
436 29-12-2003 15:10:00 2.3 C 3.69 g/m*3 2.3 C 0 km/h
437 29-12-2003 15:22:01 2.2 C 3.66 g/m*3 2.2 C 0 km/h
438 29-12-2003 15:33:00 2.1 C 3.75 g/m*3 2.1 C 0 km/h
439 29-12-2003 15:45:01 1.9 C 3.75 g/m*3 1.9 C 0 km/h
440 29-12-2003 15:57:01 1.6 C 3.79 g/m*3 1.6 C 0 km/h
441 29-12-2003 16:09:00 1.4 C 3.79 g/m*3 1.4 C 0 km/h
442 29-12-2003 16:21:00 1.2 C 3.68 g/m*3 1.2 C 0 km/h
443 29-12-2003 16:33:00 1 C 3.74 g/m*3 1 C 0 km/h
444 29-12-2003 16:45:00 1 C 3.74 g/m*3 1 C 0 km/h
445 29-12-2003 16:57:00 0.9 C 3.76 g/m*3 0.9 C 0 km/h
446 29-12-2003 17:10:01 1.1 C 3.81 g/m*3 1.1 C 0 km/h
447 29-12-2003 17:22:01 1.2 C 3.84 g/m*3 1.2 C 0 km/h
448 29-12-2003 17:33:00 1.4 C 3.84 g/m*3 1.4 C 0 km/h
449 29-12-2003 17:45:00 1.4 C 3.84 g/m*3 1.4 C 0 km/h
450 29-12-2003 17:57:00 1.3 C 3.81 g/m*3 1.3 C 0 km/h
Sensor: Nr:Datum:Temp:Abs-Feuchte:Windchill:Wind:
Aussen-T/F 451 29-12-2003 18:09:00 1.3 C 3.87 g/m*3 1.3 C 0 km/h
452 29-12-2003 18:21:00 1 C 3.79 g/m*3 1 C 0 km/h
453 29-12-2003 18:33:00 0.7 C 3.81 g/m*3 0.7 C 0 km/h
454 29-12-2003 18:45:00 0.4 C 3.74 g/m*3 0.4 C 0 km/h
455 29-12-2003 18:57:00 0.2 C 3.73 g/m*3 0.2 C 0 km/h
456 29-12-2003 19:10:00 0.1 C 3.76 g/m*3 0.1 C 0 km/h
457 29-12-2003 19:22:01 0 C 3.73 g/m*3 0 C 0 km/h
458 29-12-2003 19:33:00 -0.1 C 3.75 g/m*3 -0.1 C 0 km/h
459 29-12-2003 19:45:00 0 C 3.78 g/m*3 0 C 0 km/h
460 29-12-2003 19:57:00 0 C 3.78 g/m*3 0 C 0 km/h
461 29-12-2003 20:09:00 -0.1 C 3.75 g/m*3 -0.1 C 0 km/h
462 29-12-2003 20:21:00 -0.2 C 3.73 g/m*3 -0.2 C 0 km/h
463 29-12-2003 20:33:00 -0.3 C 3.65 g/m*3 -0.3 C 0 km/h
464 29-12-2003 20:45:00 -0.5 C 3.65 g/m*3 -0.5 C 0 km/h
465 29-12-2003 20:57:00 -0.6 C 3.67 g/m*3 -0.6 C 0 km/h
466 29-12-2003 21:10:00 -0.9 C 3.6 g/m*3 -0.9 C 0 km/h
467 29-12-2003 21:22:01 -0.9 C 3.6 g/m*3 -0.9 C 0 km/h
468 29-12-2003 21:33:01 -1 C 3.57 g/m*3 -1 C 0 km/h
469 29-12-2003 21:45:01 -1.1 C 3.55 g/m*3 -1.1 C 0 km/h
470 29-12-2003 21:57:01 -0.9 C 3.64 g/m*3 -0.9 C 0 km/h
471 29-12-2003 22:09:00 -1.1 C 3.59 g/m*3 -1.1 C 0 km/h
472 29-12-2003 22:21:00 -1.2 C 3.57 g/m*3 -1.2 C 0 km/h
473 29-12-2003 22:33:00 -1.3 C 3.54 g/m*3 -1.3 C 0 km/h
474 29-12-2003 22:45:00 -1.2 C 3.61 g/m*3 -1.2 C 0 km/h
475 29-12-2003 22:57:00 -1.4 C 3.56 g/m*3 -1.4 C 0 km/h
Sensor: Nr:Datum:Temp:Abs-Feuchte:Windchill:Wind:
Aussen-T/F 476 29-12-2003 23:10:00 -1.5 C 3.54 g/m*3 -1.5 C 0 km/h
477 29-12-2003 23:22:00 -1.3 C 3.59 g/m*3 -1.3 C 0 km/h
478 29-12-2003 23:33:01 -1.3 C 3.63 g/m*3 -1.3 C 0 km/h
479 29-12-2003 23:45:01 -1.4 C 3.6 g/m*3 -1.4 C 0 km/h
480 29-12-2003 23:57:01 -1.4 C 3.56 g/m*3 -1.4 C 0 km/h
481 30-12-2003 00:09:00 -1.4 C 3.56 g/m*3 -1.4 C 0 km/h
482 30-12-2003 00:21:00 -1.3 C 3.59 g/m*3 -1.3 C 0 km/h
483 30-12-2003 00:33:01 -1.2 C 3.66 g/m*3 -1.2 C 0 km/h
484 30-12-2003 00:45:01 -1.1 C 3.68 g/m*3 -1.1 C 0 km/h
485 30-12-2003 00:57:01 -1.1 C 3.68 g/m*3 -1.1 C 0 km/h
486 30-12-2003 01:09:00 -1.1 C 3.68 g/m*3 -1.1 C 0 km/h
487 30-12-2003 01:21:00 -1.1 C 3.68 g/m*3 -1.1 C 0 km/h
488 30-12-2003 01:33:01 -1.1 C 3.68 g/m*3 -1.1 C 0 km/h
489 30-12-2003 01:45:01 -1.2 C 3.61 g/m*3 -1.2 C 0 km/h
490 30-12-2003 01:57:01 -1.2 C 3.61 g/m*3 -1.2 C 0 km/h
491 30-12-2003 02:09:00 -1.1 C 3.64 g/m*3 -1.1 C 0 km/h
492 30-12-2003 02:21:00 -1.1 C 3.68 g/m*3 -1.1 C 0 km/h
493 30-12-2003 02:33:00 -1.2 C 3.66 g/m*3 -1.2 C 0 km/h
494 30-12-2003 02:45:00 -1.3 C 3.63 g/m*3 -1.3 C 0 km/h
495 30-12-2003 02:57:00 -1.3 C 3.63 g/m*3 -1.3 C 0 km/h
496 30-12-2003 03:10:01 -1.4 C 3.6 g/m*3 -1.4 C 0 km/h
497 30-12-2003 03:22:01 -1.5 C 3.58 g/m*3 -1.5 C 0 km/h
498 30-12-2003 03:33:01 -1.6 C 3.55 g/m*3 -1.6 C 0 km/h
499 30-12-2003 03:45:01 -1.7 C 3.53 g/m*3 -1.7 C 0 km/h
500 30-12-2003 03:57:01 -1.7 C 3.57 g/m*3 -1.7 C 0 km/h
Sensor: Nr:Datum:Temp:Abs-Feuchte:Windchill:Wind:
Aussen-T/F 501 30-12-2003 04:09:00 -1.8 C 3.55 g/m*3 -1.8 C 0 km/h
502 30-12-2003 04:21:00 -1.8 C 3.55 g/m*3 -1.8 C 0 km/h
503 30-12-2003 04:33:00 -2 C 3.5 g/m*3 -2 C 0 km/h
504 30-12-2003 04:45:00 -2 C 3.5 g/m*3 -2 C 0 km/h
505 30-12-2003 04:57:00 -2.1 C 3.47 g/m*3 -2.1 C 0 km/h
506 30-12-2003 05:10:01 -2 C 3.5 g/m*3 -2 C 0 km/h
507 30-12-2003 05:22:01 -2.1 C 3.52 g/m*3 -2.1 C 0 km/h
508 30-12-2003 05:33:01 -2 C 3.54 g/m*3 -2 C 0 km/h
509 30-12-2003 05:45:01 -1.9 C 3.57 g/m*3 -1.9 C 0 km/h
510 30-12-2003 05:57:01 -2 C 3.54 g/m*3 -2 C 0 km/h
511 30-12-2003 06:09:00 -1.9 C 3.57 g/m*3 -1.9 C 0 km/h
512 30-12-2003 06:21:00 -2.1 C 3.52 g/m*3 -2.1 C 0 km/h
513 30-12-2003 06:33:01 -2.2 C 3.49 g/m*3 -2.2 C 0 km/h
514 30-12-2003 06:45:01 -2.1 C 3.52 g/m*3 -2.1 C 0 km/h
515 30-12-2003 06:57:01 -2.3 C 3.47 g/m*3 -2.3 C 0 km/h
516 30-12-2003 07:09:00 -2.2 C 3.49 g/m*3 -2.2 C 0 km/h
517 30-12-2003 07:21:00 -2.4 C 3.44 g/m*3 -2.4 C 0 km/h
518 30-12-2003 07:33:00 -2.4 C 3.44 g/m*3 -2.4 C 0 km/h
519 30-12-2003 07:45:00 -2.6 C 3.39 g/m*3 -2.6 C 0 km/h
520 30-12-2003 07:57:00 -2.8 C 3.35 g/m*3 -2.8 C 0 km/h
521 30-12-2003 08:10:01 -2.8 C 3.35 g/m*3 -2.8 C 0 km/h
522 30-12-2003 08:22:01 -2.8 C 3.35 g/m*3 -2.8 C 0 km/h
523 30-12-2003 08:33:00 -2.8 C 3.35 g/m*3 -2.8 C 0 km/h
524 30-12-2003 08:45:01 -2.8 C 3.39 g/m*3 -2.8 C 0 km/h
525 30-12-2003 08:57:01 -2.7 C 3.41 g/m*3 -2.7 C 0 km/h
Sensor: Nr:Datum:Temp:Abs-Feuchte:Windchill:Wind:
Aussen-T/F 526 30-12-2003 09:09:00 -2.5 C 3.46 g/m*3 -2.5 C 0 km/h
527 30-12-2003 09:21:00 -2.2 C 3.53 g/m*3 -2.2 C 0 km/h
528 30-12-2003 09:33:00 -2.1 C 3.6 g/m*3 -2.1 C 0 km/h
529 30-12-2003 09:45:00 -1.8 C 3.68 g/m*3 -1.8 C 0 km/h
530 30-12-2003 09:57:00 -1.4 C 3.78 g/m*3 -1.4 C 0 km/h
531 30-12-2003 10:10:00 -1.2 C 3.79 g/m*3 -1.2 C 0 km/h
532 30-12-2003 10:22:00 -1 C 3.89 g/m*3 -1 C 0 km/h
533 30-12-2003 10:33:01 -0.7 C 3.92 g/m*3 -0.7 C 0 km/h
534 30-12-2003 10:45:01 -0.7 C 3.92 g/m*3 -0.7 C 0 km/h
535 30-12-2003 10:57:01 -0.7 C 3.92 g/m*3 -0.7 C 0 km/h
536 30-12-2003 11:09:00 -0.6 C 3.95 g/m*3 -0.6 C 0 km/h
537 30-12-2003 11:21:00 -0.6 C 3.95 g/m*3 -0.6 C 0 km/h
538 30-12-2003 11:33:01 -0.4 C 4.01 g/m*3 -0.4 C 0 km/h
539 30-12-2003 11:45:01 -0.4 C 4.01 g/m*3 -0.4 C 0 km/h
540 30-12-2003 11:57:01 -0.1 C 4.04 g/m*3 -0.1 C 0 km/h
541 30-12-2003 12:09:01 -0.2 C 3.97 g/m*3 -0.2 C 0 km/h
542 30-12-2003 12:21:01 -0.2 C 3.97 g/m*3 -0.2 C 0 km/h
543 30-12-2003 12:33:01 -0.3 C 3.94 g/m*3 -0.3 C 0 km/h
544 30-12-2003 12:45:01 -0.4 C 3.91 g/m*3 -0.4 C 0 km/h
545 30-12-2003 12:57:01 -0.5 C 3.88 g/m*3 -0.5 C 0 km/h
546 30-12-2003 13:10:01 -0.5 C 3.88 g/m*3 -0.5 C 0 km/h
547 30-12-2003 13:22:01 -0.4 C 3.96 g/m*3 -0.4 C 0 km/h
548 30-12-2003 13:33:00 -0.5 C 3.93 g/m*3 -0.5 C 0 km/h
549 30-12-2003 13:45:00 -0.4 C 3.96 g/m*3 -0.4 C 0 km/h
550 30-12-2003 13:57:00 -0.4 C 3.91 g/m*3 -0.4 C 0 km/h
Sensor: Nr:Datum:Temp:Abs-Feuchte:Windchill:Wind:
Aussen-T/F 551 30-12-2003 14:09:01 -0.5 C 3.88 g/m*3 -0.5 C 0 km/h
552 30-12-2003 14:21:01 -0.6 C 3.86 g/m*3 -0.6 C 0 km/h
553 30-12-2003 14:33:00 -0.5 C 3.88 g/m*3 -0.5 C 0 km/h
554 30-12-2003 14:45:01 -0.4 C 3.91 g/m*3 -0.4 C 0 km/h
555 30-12-2003 14:57:01 -0.5 C 3.88 g/m*3 -0.5 C 0 km/h
556 30-12-2003 15:09:00 -0.4 C 3.91 g/m*3 -0.4 C 0 km/h
557 30-12-2003 15:21:00 -0.4 C 3.91 g/m*3 -0.4 C 0 km/h
558 30-12-2003 15:33:00 -0.4 C 3.86 g/m*3 -0.4 C 0 km/h
559 30-12-2003 15:45:01 -0.7 C 3.78 g/m*3 -0.7 C 0 km/h
560 30-12-2003 15:57:01 -0.4 C 3.86 g/m*3 -0.4 C 0 km/h
561 30-12-2003 16:09:00 -0.6 C 3.81 g/m*3 -0.6 C 0 km/h
562 30-12-2003 16:21:00 -0.6 C 3.81 g/m*3 -0.6 C 0 km/h
563 30-12-2003 16:33:00 -0.9 C 3.69 g/m*3 -0.9 C 0 km/h
564 30-12-2003 16:45:00 -1 C 3.66 g/m*3 -1 C 0 km/h
565 30-12-2003 16:57:00 -1.2 C 3.61 g/m*3 -1.2 C 0 km/h
566 30-12-2003 17:09:01 -1.2 C 3.66 g/m*3 -1.2 C 0 km/h
567 30-12-2003 17:21:01 -1.6 C 3.55 g/m*3 -1.6 C 0 km/h
568 30-12-2003 17:33:00 -1.5 C 3.58 g/m*3 -1.5 C 0 km/h
569 30-12-2003 17:45:00 -1.7 C 3.57 g/m*3 -1.7 C 0 km/h
570 30-12-2003 17:57:01 -1.9 C 3.52 g/m*3 -1.9 C 0 km/h
571 30-12-2003 18:09:00 -2 C 3.5 g/m*3 -2 C 0 km/h
572 30-12-2003 18:21:00 -1.9 C 3.57 g/m*3 -1.9 C 0 km/h
573 30-12-2003 18:33:00 -2 C 3.54 g/m*3 -2 C 0 km/h
574 30-12-2003 18:45:00 -2 C 3.54 g/m*3 -2 C 0 km/h
575 30-12-2003 18:57:00 -2.2 C 3.49 g/m*3 -2.2 C 0 km/h
Sensor: Nr:Datum:Temp:Abs-Feuchte:Windchill:Wind:
Aussen-T/F 576 30-12-2003 19:10:00 -2.2 C 3.49 g/m*3 -2.2 C 0 km/h
577 30-12-2003 19:22:01 -2.5 C 3.42 g/m*3 -2.5 C 0 km/h
578 30-12-2003 19:33:00 -2.4 C 3.44 g/m*3 -2.4 C 0 km/h
579 30-12-2003 19:45:01 -2.6 C 3.39 g/m*3 -2.6 C 0 km/h
580 30-12-2003 19:57:01 -2.5 C 3.42 g/m*3 -2.5 C 0 km/h
581 30-12-2003 20:09:00 -2.6 C 3.39 g/m*3 -2.6 C 0 km/h
582 30-12-2003 20:21:00 -2.6 C 3.39 g/m*3 -2.6 C 0 km/h
583 30-12-2003 20:33:01 -2.7 C 3.37 g/m*3 -2.7 C 0 km/h
584 30-12-2003 20:45:01 -2.9 C 3.32 g/m*3 -2.9 C 0 km/h
585 30-12-2003 20:57:01 -2.7 C 3.41 g/m*3 -2.7 C 0 km/h
586 30-12-2003 21:09:00 -2.8 C 3.39 g/m*3 -2.8 C 0 km/h
587 30-12-2003 21:21:00 -3 C 3.34 g/m*3 -3 C 0 km/h
588 30-12-2003 21:33:00 -3.1 C 3.32 g/m*3 -3.1 C 0 km/h
589 30-12-2003 21:45:00 -3.2 C 3.29 g/m*3 -3.2 C 0 km/h
590 30-12-2003 21:57:00 -3.4 C 3.25 g/m*3 -3.4 C 0 km/h
591 30-12-2003 22:10:01 -3.5 C 3.22 g/m*3 -3.5 C 0 km/h
592 30-12-2003 22:22:01 -3.4 C 3.25 g/m*3 -3.4 C 0 km/h
593 30-12-2003 22:33:01 -3.5 C 3.22 g/m*3 -3.5 C 0 km/h
594 30-12-2003 22:45:01 -3.6 C 3.2 g/m*3 -3.6 C 0 km/h
595 30-12-2003 22:57:01 -3.5 C 3.22 g/m*3 -3.5 C 0 km/h
596 30-12-2003 23:09:00 -3.4 C 3.28 g/m*3 -3.4 C 0 km/h
597 30-12-2003 23:21:00 -3.3 C 3.31 g/m*3 -3.3 C 0 km/h
598 30-12-2003 23:33:00 -3.3 C 3.31 g/m*3 -3.3 C 0 km/h
599 30-12-2003 23:45:00 -3.1 C 3.35 g/m*3 -3.1 C 0 km/h
600 30-12-2003 23:57:00 -3 C 3.42 g/m*3 -3 C 0 km/h
Sensor: Nr:Datum:Temp:Abs-Feuchte:Windchill:Wind:
Aussen-T/F 601 31-12-2003 00:11:29 -3 C 3.42 g/m*3 -3 C 0 km/h
602 31-12-2003 00:23:29 -2.5 C 3.54 g/m*3 -2.5 C 0 km/h
603 31-12-2003 00:35:29 -2.4 C 3.57 g/m*3 -2.4 C 0 km/h
604 31-12-2003 00:47:29 -2.5 C 3.54 g/m*3 -2.5 C 0 km/h
605 31-12-2003 00:59:29 -2.4 C 3.57 g/m*3 -2.4 C 0 km/h
606 31-12-2003 01:11:29 -2.4 C 3.57 g/m*3 -2.4 C 0 km/h
607 31-12-2003 01:23:29 -2.4 C 3.57 g/m*3 -2.4 C 0 km/h
608 31-12-2003 01:35:29 -2.2 C 3.62 g/m*3 -2.2 C 0 km/h
609 31-12-2003 01:47:29 -2.2 C 3.62 g/m*3 -2.2 C 0 km/h
610 31-12-2003 01:59:29 -2.1 C 3.64 g/m*3 -2.1 C 0 km/h
611 31-12-2003 02:11:29 -1.8 C 3.72 g/m*3 -1.8 C 0 km/h
612 31-12-2003 02:23:29 -1.8 C 3.72 g/m*3 -1.8 C 0 km/h
613 31-12-2003 02:35:29 -2 C 3.67 g/m*3 -2 C 0 km/h
614 31-12-2003 02:47:29 -1.9 C 3.69 g/m*3 -1.9 C 0 km/h
615 31-12-2003 02:59:29 -1.9 C 3.69 g/m*3 -1.9 C 0 km/h
616 31-12-2003 03:11:29 -1.9 C 3.69 g/m*3 -1.9 C 0 km/h
617 31-12-2003 03:23:29 -2 C 3.63 g/m*3 -2 C 0 km/h
618 31-12-2003 03:35:29 -2.1 C 3.6 g/m*3 -2.1 C 0 km/h
619 31-12-2003 03:47:29 -2 C 3.63 g/m*3 -2 C 0 km/h
620 31-12-2003 03:59:29 -1.9 C 3.65 g/m*3 -1.9 C 0 km/h
621 31-12-2003 04:11:29 -1.9 C 3.65 g/m*3 -1.9 C 0 km/h
622 31-12-2003 04:23:29 -1.9 C 3.65 g/m*3 -1.9 C 0 km/h
623 31-12-2003 04:35:29 -2 C 3.58 g/m*3 -2 C 0 km/h
624 31-12-2003 04:47:29 -2.1 C 3.56 g/m*3 -2.1 C 0 km/h
625 31-12-2003 04:59:29 -2.2 C 3.53 g/m*3 -2.2 C 0 km/h
Sensor: Nr:Datum:Temp:Abs-Feuchte:Windchill:Wind:
Aussen-T/F 626 31-12-2003 05:11:29 -2.4 C 3.48 g/m*3 -2.4 C 0 km/h
627 31-12-2003 05:23:29 -2.7 C 3.37 g/m*3 -2.7 C 0 km/h
628 31-12-2003 05:35:29 -2.8 C 3.35 g/m*3 -2.8 C 0 km/h
629 31-12-2003 05:47:29 -2.8 C 3.35 g/m*3 -2.8 C 0 km/h
630 31-12-2003 05:59:29 -2.8 C 3.35 g/m*3 -2.8 C 0 km/h
631 31-12-2003 06:11:29 -3 C 3.3 g/m*3 -3 C 0 km/h
632 31-12-2003 06:23:29 -3 C 3.34 g/m*3 -3 C 0 km/h
633 31-12-2003 06:35:29 -2.7 C 3.41 g/m*3 -2.7 C 0 km/h
634 31-12-2003 06:47:29 -2.7 C 3.41 g/m*3 -2.7 C 0 km/h
635 31-12-2003 06:59:29 -2.4 C 3.48 g/m*3 -2.4 C 0 km/h
636 31-12-2003 07:11:29 -2.3 C 3.47 g/m*3 -2.3 C 0 km/h
637 31-12-2003 07:23:29 -2.2 C 3.45 g/m*3 -2.2 C 0 km/h
638 31-12-2003 07:35:29 -2.5 C 3.34 g/m*3 -2.5 C 0 km/h
639 31-12-2003 07:47:29 -2.6 C 3.35 g/m*3 -2.6 C 0 km/h
640 31-12-2003 07:59:29 -2.6 C 3.35 g/m*3 -2.6 C 0 km/h
641 31-12-2003 08:11:29 -2.6 C 3.35 g/m*3 -2.6 C 0 km/h
642 31-12-2003 08:23:29 -2.8 C 3.31 g/m*3 -2.8 C 0 km/h
643 31-12-2003 08:35:29 -2.8 C 3.31 g/m*3 -2.8 C 0 km/h
644 31-12-2003 08:47:01 -2.8 C 3.31 g/m*3 -2.8 C 0 km/h
645 31-12-2003 08:59:01 -2.8 C 3.31 g/m*3 -2.8 C 0 km/h
646 31-12-2003 09:11:00 -2.7 C 3.33 g/m*3 -2.7 C 0 km/h
647 31-12-2003 09:23:00 -2.7 C 3.33 g/m*3 -2.7 C 0 km/h
648 31-12-2003 09:35:01 -2.4 C 3.44 g/m*3 -2.4 C 0 km/h
649 31-12-2003 09:47:01 -2.4 C 3.4 g/m*3 -2.4 C 0 km/h
650 31-12-2003 09:59:01 -2 C 3.54 g/m*3 -2 C 0 km/h
Sensor: Nr:Datum:Temp:Abs-Feuchte:Windchill:Wind:
Aussen-T/F 651 31-12-2003 10:11:01 -1.7 C 3.62 g/m*3 -1.7 C 0 km/h
652 31-12-2003 10:23:01 -1.6 C 3.64 g/m*3 -1.6 C 0 km/h
653 31-12-2003 10:35:00 -1.3 C 3.72 g/m*3 -1.3 C 0 km/h
654 31-12-2003 10:47:00 -1 C 3.75 g/m*3 -1 C 0 km/h
655 31-12-2003 10:59:00 -0.7 C 3.83 g/m*3 -0.7 C 0 km/h
656 31-12-2003 11:11:59 -0.5 C 3.88 g/m*3 -0.5 C 0 km/h
657 31-12-2003 11:23:59 -0.3 C 3.8 g/m*3 -0.3 C 0 km/h
658 31-12-2003 11:35:01 0 C 3.83 g/m*3 0 C 0 km/h
659 31-12-2003 11:47:01 0.1 C 3.76 g/m*3 0.1 C 0 km/h
660 31-12-2003 11:59:01 0.3 C 3.76 g/m*3 0.3 C 0 km/h
661 31-12-2003 12:11:02 0.4 C 3.79 g/m*3 0.4 C 0 km/h
662 31-12-2003 12:23:02 0.6 C 3.79 g/m*3 0.6 C 0 km/h
663 31-12-2003 12:35:01 0.8 C 3.89 g/m*3 0.8 C 0 km/h
664 31-12-2003 12:47:01 1 C 3.89 g/m*3 1 C 0 km/h
665 31-12-2003 12:59:01 1.2 C 3.95 g/m*3 1.2 C 0 km/h
666 31-12-2003 13:11:59 1.3 C 3.97 g/m*3 1.3 C 0 km/h
667 31-12-2003 13:23:59 1.4 C 4 g/m*3 1.4 C 0 km/h
668 31-12-2003 13:35:01 1.5 C 4.03 g/m*3 1.5 C 0 km/h
669 31-12-2003 13:47:01 1.7 C 4.14 g/m*3 1.7 C 0 km/h
670 31-12-2003 13:59:01 1.8 C 4.11 g/m*3 1.8 C 0 km/h
671 31-12-2003 14:11:01 1.9 C 4.08 g/m*3 1.9 C 0 km/h
672 31-12-2003 14:23:01 2 C 4.06 g/m*3 2 C 0 km/h
673 31-12-2003 14:35:01 2 C 3.89 g/m*3 2 C 0 km/h
674 31-12-2003 14:47:01 2 C 3.89 g/m*3 2 C 0 km/h
675 31-12-2003 14:59:01 1.9 C 3.86 g/m*3 1.9 C 0 km/h
Sensor: Nr:Datum:Temp:Abs-Feuchte:Windchill:Wind:
Aussen-T/F 676 31-12-2003 15:11:01 1.8 C 3.89 g/m*3 1.8 C 0 km/h
677 31-12-2003 15:23:01 1.7 C 3.92 g/m*3 1.7 C 0 km/h
678 31-12-2003 15:35:01 1.7 C 3.92 g/m*3 1.7 C 0 km/h
679 31-12-2003 15:47:01 1.7 C 3.92 g/m*3 1.7 C 0 km/h
680 31-12-2003 15:59:01 1.6 C 3.89 g/m*3 1.6 C 0 km/h
681 31-12-2003 16:11:58 1.4 C 3.84 g/m*3 1.4 C 0 km/h
682 31-12-2003 16:23:58 1.2 C 3.79 g/m*3 1.2 C 0 km/h
683 31-12-2003 16:35:00 1.1 C 3.76 g/m*3 1.1 C 0 km/h
684 31-12-2003 16:47:00 1.1 C 3.71 g/m*3 1.1 C 0 km/h
685 31-12-2003 16:59:00 1.2 C 3.63 g/m*3 1.2 C 0 km/h
686 31-12-2003 17:11:01 1.1 C 3.61 g/m*3 1.1 C 0 km/h
687 31-12-2003 17:23:01 1.2 C 3.47 g/m*3 1.2 C 0 km/h
688 31-12-2003 17:35:00 1.1 C 3.4 g/m*3 1.1 C 0 km/h
689 31-12-2003 17:47:00 1.2 C 3.37 g/m*3 1.2 C 0 km/h
690 31-12-2003 17:59:00 0.9 C 3.4 g/m*3 0.9 C 0 km/h
691 31-12-2003 18:11:58 0.7 C 3.36 g/m*3 0.7 C 0 km/h
692 31-12-2003 18:23:58 0.5 C 3.41 g/m*3 0.5 C 0 km/h
693 31-12-2003 18:35:01 0.5 C 3.41 g/m*3 0.5 C 0 km/h
694 31-12-2003 18:47:01 0.5 C 3.41 g/m*3 0.5 C 0 km/h
695 31-12-2003 18:59:01 0.3 C 3.41 g/m*3 0.3 C 0 km/h
696 31-12-2003 19:11:01 0.4 C 3.34 g/m*3 0.4 C 0 km/h
697 31-12-2003 19:23:01 0.2 C 3.24 g/m*3 0.2 C 0 km/h
698 31-12-2003 19:35:00 -0.2 C 3.2 g/m*3 -0.2 C 0 km/h
699 31-12-2003 19:47:00 -0.6 C 3.21 g/m*3 -0.6 C 0 km/h
700 31-12-2003 19:59:00 -1 C 3.16 g/m*3 -1 C 0 km/h
Sensor: Nr:Datum:Temp:Abs-Feuchte:Windchill:Wind:
Aussen-T/F 701 31-12-2003 20:11:58 -1.2 C 3.21 g/m*3 -1.2 C 0 km/h
702 31-12-2003 20:23:58 -1.4 C 3.21 g/m*3 -1.4 C 0 km/h
703 31-12-2003 20:35:01 -1.5 C 3.23 g/m*3 -1.5 C 0 km/h
704 31-12-2003 20:47:01 -1.6 C 3.25 g/m*3 -1.6 C 0 km/h
705 31-12-2003 20:59:01 -1.8 C 3.12 g/m*3 -1.8 C 0 km/h
706 31-12-2003 21:11:01 -2 C 3.12 g/m*3 -2 C 0 km/h
707 31-12-2003 21:23:01 -2.3 C 3.1 g/m*3 -2.3 C 0 km/h
708 31-12-2003 21:35:01 -2.3 C 3.14 g/m*3 -2.3 C 0 km/h
709 31-12-2003 21:47:01 -2.3 C 3.14 g/m*3 -2.3 C 0 km/h
710 31-12-2003 21:59:01 -2.4 C 3.11 g/m*3 -2.4 C 0 km/h
711 31-12-2003 22:11:01 -2.6 C 3.11 g/m*3 -2.6 C 0 km/h
712 31-12-2003 22:23:01 -2.7 C 3.09 g/m*3 -2.7 C 0 km/h
713 31-12-2003 22:35:00 -2.8 C 3.11 g/m*3 -2.8 C 0 km/h
714 31-12-2003 22:47:00 -2.8 C 3.11 g/m*3 -2.8 C 0 km/h
715 31-12-2003 22:59:00 -2.8 C 3.07 g/m*3 -2.8 C 0 km/h
716 31-12-2003 23:11:58 -3 C 3.06 g/m*3 -3 C 0 km/h
717 31-12-2003 23:23:58 -3.3 C 2.96 g/m*3 -3.3 C 0 km/h
718 01-01-2004 02:35:55 -4.7 C 2.82 g/m*3 -4.7 C 0 km/h
719 01-01-2004 02:47:55 -4.8 C 2.8 g/m*3 -4.8 C 0 km/h
720 01-01-2004 02:59:55 -4.9 C 2.74 g/m*3 -4.9 C 0 km/h
721 01-01-2004 03:09:55 -5.1 C 2.7 g/m*3 -5.1 C 0 km/h
722 01-01-2004 03:21:55 -4.9 C 2.78 g/m*3 -4.9 C 0 km/h
723 01-01-2004 03:32:01 -5.1 C 2.74 g/m*3 -5.1 C 0 km/h
724 01-01-2004 03:44:01 -5.2 C 2.72 g/m*3 -5.2 C 0 km/h
725 01-01-2004 03:56:01 -5.2 C 2.72 g/m*3 -5.2 C 0 km/h
Sensor: Nr:Datum:Temp:Abs-Feuchte:Windchill:Wind:
Aussen-T/F 726 01-01-2004 04:08:00 -5.4 C 2.68 g/m*3 -5.4 C 0 km/h
727 01-01-2004 04:20:00 -5.4 C 2.68 g/m*3 -5.4 C 0 km/h
728 01-01-2004 04:30:55 -5.4 C 2.68 g/m*3 -5.4 C 0 km/h
729 01-01-2004 04:42:55 -5.5 C 2.66 g/m*3 -5.5 C 0 km/h
730 01-01-2004 04:54:55 -5.7 C 2.62 g/m*3 -5.7 C 0 km/h
731 01-01-2004 05:03:55 -5.7 C 2.62 g/m*3 -5.7 C 0 km/h
732 01-01-2004 05:15:55 -5.7 C 2.62 g/m*3 -5.7 C 0 km/h
733 01-01-2004 05:27:55 -5.8 C 2.6 g/m*3 -5.8 C 0 km/h
734 01-01-2004 05:37:55 -5.7 C 2.62 g/m*3 -5.7 C 0 km/h
735 01-01-2004 05:49:55 -5.8 C 2.6 g/m*3 -5.8 C 0 km/h
736 01-01-2004 05:58:55 -5.9 C 2.58 g/m*3 -5.9 C 0 km/h
737 01-01-2004 06:10:55 -6 C 2.57 g/m*3 -6 C 0 km/h
738 01-01-2004 06:22:55 -6 C 2.57 g/m*3 -6 C 0 km/h
739 01-01-2004 06:32:55 -5.9 C 2.58 g/m*3 -5.9 C 0 km/h
740 01-01-2004 06:44:55 -5.9 C 2.58 g/m*3 -5.9 C 0 km/h
741 01-01-2004 06:56:55 -5.9 C 2.58 g/m*3 -5.9 C 0 km/h
742 01-01-2004 07:05:55 -5.9 C 2.58 g/m*3 -5.9 C 0 km/h
743 01-01-2004 07:17:55 -5.8 C 2.6 g/m*3 -5.8 C 0 km/h
744 01-01-2004 07:29:55 -5.8 C 2.6 g/m*3 -5.8 C 0 km/h
745 01-01-2004 07:38:55 -5.8 C 2.6 g/m*3 -5.8 C 0 km/h
746 01-01-2004 07:50:55 -5.7 C 2.62 g/m*3 -5.7 C 0 km/h
747 01-01-2004 08:00:55 -5.6 C 2.64 g/m*3 -5.6 C 0 km/h
748 01-01-2004 08:12:55 -5.4 C 2.71 g/m*3 -5.4 C 0 km/h
749 01-01-2004 08:24:55 -5.4 C 2.71 g/m*3 -5.4 C 0 km/h
750 01-01-2004 08:33:55 -5.3 C 2.73 g/m*3 -5.3 C 0 km/h
Sensor: Nr:Datum:Temp:Abs-Feuchte:Windchill:Wind:
Aussen-T/F 751 01-01-2004 08:45:55 -5.1 C 2.77 g/m*3 -5.1 C 0 km/h
752 01-01-2004 08:57:55 -5 C 2.79 g/m*3 -5 C 0 km/h
753 01-01-2004 09:06:55 -4.8 C 2.8 g/m*3 -4.8 C 0 km/h
754 01-01-2004 09:18:55 -4.7 C 2.82 g/m*3 -4.7 C 0 km/h
755 01-01-2004 09:30:55 -4.5 C 2.86 g/m*3 -4.5 C 0 km/h
756 01-01-2004 09:40:55 -4.3 C 2.86 g/m*3 -4.3 C 0 km/h
757 01-01-2004 09:52:55 -4 C 2.93 g/m*3 -4 C 0 km/h
758 01-01-2004 10:01:55 -3.9 C 2.91 g/m*3 -3.9 C 0 km/h
759 01-01-2004 10:13:55 -3.7 C 2.92 g/m*3 -3.7 C 0 km/h
760 01-01-2004 10:25:55 -3.5 C 2.96 g/m*3 -3.5 C 0 km/h
761 01-01-2004 10:34:55 -3.2 C 3.02 g/m*3 -3.2 C 0 km/h
762 01-01-2004 10:46:55 -3 C 3.02 g/m*3 -3 C 0 km/h
763 01-01-2004 10:58:55 -2.5 C 3.13 g/m*3 -2.5 C 0 km/h
764 01-01-2004 11:08:55 -2.4 C 3.16 g/m*3 -2.4 C 0 km/h
765 01-01-2004 11:20:55 -2.3 C 3.14 g/m*3 -2.3 C 0 km/h
766 01-01-2004 11:29:55 -2 C 3.25 g/m*3 -2 C 0 km/h
767 01-01-2004 11:41:55 -1.7 C 3.31 g/m*3 -1.7 C 0 km/h
768 01-01-2004 11:53:55 -1.3 C 3.45 g/m*3 -1.3 C 0 km/h
769 01-01-2004 12:01:55 -1 C 3.53 g/m*3 -1 C 0 km/h
770 01-01-2004 12:13:55 -1 C 3.48 g/m*3 -1 C 0 km/h
771 01-01-2004 12:25:55 -0.7 C 3.55 g/m*3 -0.7 C 0 km/h
772 01-01-2004 12:34:55 -0.5 C 3.6 g/m*3 -0.5 C 0 km/h
773 01-01-2004 12:46:55 -0.4 C 3.63 g/m*3 -0.4 C 0 km/h
774 01-01-2004 12:58:55 -0.2 C 3.58 g/m*3 -0.2 C 0 km/h
775 01-01-2004 13:08:55 0.1 C 3.61 g/m*3 0.1 C 0 km/h
Sensor: Nr:Datum:Temp:Abs-Feuchte:Windchill:Wind:
Aussen-T/F 776 01-01-2004 13:20:55 0.3 C 3.56 g/m*3 0.3 C 0 km/h
777 01-01-2004 13:29:55 0.3 C 3.56 g/m*3 0.3 C 0 km/h
778 01-01-2004 13:41:55 0.4 C 3.49 g/m*3 0.4 C 0 km/h
779 01-01-2004 13:53:55 0.4 C 3.54 g/m*3 0.4 C 0 km/h
780 01-01-2004 14:03:55 0.2 C 3.49 g/m*3 0.2 C 0 km/h
781 01-01-2004 14:15:55 0.1 C 3.51 g/m*3 0.1 C 0 km/h
782 01-01-2004 14:27:55 0.1 C 3.51 g/m*3 0.1 C 0 km/h
783 01-01-2004 14:36:55 0 C 3.49 g/m*3 0 C 0 km/h
784 01-01-2004 14:48:55 0 C 3.54 g/m*3 0 C 0 km/h
785 01-01-2004 15:00:55 0 C 3.49 g/m*3 0 C 0 km/h
786 01-01-2004 15:09:56 0.1 C 3.56 g/m*3 0.1 C 0 km/h
787 01-01-2004 15:21:56 0 C 3.54 g/m*3 0 C 0 km/h
788 01-01-2004 15:31:55 0 C 3.54 g/m*3 0 C 0 km/h
789 01-01-2004 15:43:55 0 C 3.54 g/m*3 0 C 0 km/h
790 01-01-2004 15:55:55 0.1 C 3.56 g/m*3 0.1 C 0 km/h
791 01-01-2004 16:04:55 0.1 C 3.56 g/m*3 0.1 C 0 km/h
792 01-01-2004 16:16:55 0 C 3.54 g/m*3 0 C 0 km/h
793 01-01-2004 16:28:55 -0.1 C 3.51 g/m*3 -0.1 C 0 km/h
794 01-01-2004 16:38:55 -0.2 C 3.49 g/m*3 -0.2 C 0 km/h
795 01-01-2004 16:50:55 -0.2 C 3.49 g/m*3 -0.2 C 0 km/h
796 01-01-2004 16:59:55 -0.1 C 3.51 g/m*3 -0.1 C 0 km/h
797 01-01-2004 17:11:56 -0.1 C 3.51 g/m*3 -0.1 C 0 km/h
798 01-01-2004 17:23:56 -0.1 C 3.51 g/m*3 -0.1 C 0 km/h
799 01-01-2004 17:33:55 -0.1 C 3.51 g/m*3 -0.1 C 0 km/h
800 01-01-2004 17:45:56 0 C 3.54 g/m*3 0 C 0 km/h
Sensor: Nr:Datum:Temp:Abs-Feuchte:Windchill:Wind:
Aussen-T/F 801 01-01-2004 17:57:56 0 C 3.54 g/m*3 0 C 0 km/h
802 01-01-2004 18:06:55 0.1 C 3.56 g/m*3 0.1 C 0 km/h
803 01-01-2004 18:18:55 0.1 C 3.56 g/m*3 0.1 C 0 km/h
804 01-01-2004 18:30:55 0.1 C 3.56 g/m*3 0.1 C 0 km/h
805 01-01-2004 18:40:55 0.1 C 3.51 g/m*3 0.1 C 0 km/h
806 01-01-2004 18:52:55 0.1 C 3.51 g/m*3 0.1 C 0 km/h
807 01-01-2004 19:01:55 0.1 C 3.51 g/m*3 0.1 C 0 km/h
808 01-01-2004 19:13:55 0.2 C 3.54 g/m*3 0.2 C 0 km/h
809 01-01-2004 19:25:55 0.1 C 3.56 g/m*3 0.1 C 0 km/h
810 01-01-2004 19:34:55 0 C 3.54 g/m*3 0 C 0 km/h
811 01-01-2004 19:46:55 -0.1 C 3.61 g/m*3 -0.1 C 0 km/h
812 01-01-2004 19:58:55 -0.2 C 3.63 g/m*3 -0.2 C 0 km/h
813 01-01-2004 20:08:55 -0.2 C 3.73 g/m*3 -0.2 C 0 km/h
814 01-01-2004 20:20:55 -0.3 C 3.75 g/m*3 -0.3 C 0 km/h
815 01-01-2004 22:44:07 0 C 3.88 g/m*3 0 C 0 km/h
816 01-01-2004 22:56:07 0 C 3.63 g/m*3 0 C 0 km/h
817 01-01-2004 23:08:07 0 C 3.39 g/m*3 0 C 0 km/h
818 01-01-2004 23:20:07 0 C 3.15 g/m*3 0 C 0 km/h
819 01-01-2004 23:32:07 0 C 2.91 g/m*3 0 C 0 km/h
820 01-01-2004 23:44:07 0 C 2.66 g/m*3 0 C 0 km/h
821 01-01-2004 23:56:07 0 C 0.97 g/m*3 0 C 0 km/h
822 02-01-2004 00:08:07 0 C 0.97 g/m*3 0 C 0 km/h
823 02-01-2004 00:20:07 0 C 0.97 g/m*3 0 C 0 km/h
824 02-01-2004 00:32:07 0 C 0.97 g/m*3 0 C 0 km/h
825 02-01-2004 00:44:07 0 C 0.97 g/m*3 0 C 0 km/h
Sensor: Nr:Datum:Temp:Abs-Feuchte:Windchill:Wind:
Aussen-T/F 826 02-01-2004 00:56:07 0 C 0.97 g/m*3 0 C 0 km/h
827 02-01-2004 01:08:07 0 C 0.97 g/m*3 0 C 0 km/h
828 02-01-2004 01:20:07 0 C 0.97 g/m*3 0 C 0 km/h
829 02-01-2004 01:32:07 0 C 0.97 g/m*3 0 C 0 km/h
830 02-01-2004 01:44:07 0 C 0.97 g/m*3 0 C 0 km/h
831 02-01-2004 01:56:07 0 C 0.97 g/m*3 0 C 0 km/h
832 02-01-2004 02:08:07 0 C 0.97 g/m*3 0 C 0 km/h
833 02-01-2004 02:20:07 0 C 0.97 g/m*3 0 C 0 km/h
834 02-01-2004 02:32:07 0 C 0.97 g/m*3 0 C 0 km/h
835 02-01-2004 02:44:07 0 C 0.97 g/m*3 0 C 0 km/h
836 02-01-2004 02:56:07 0 C 0.97 g/m*3 0 C 0 km/h
837 02-01-2004 03:08:07 0 C 0.97 g/m*3 0 C 0 km/h
838 02-01-2004 03:20:07 0 C 0.97 g/m*3 0 C 0 km/h
839 02-01-2004 03:32:07 0 C 0.97 g/m*3 0 C 0 km/h
840 02-01-2004 03:44:07 0 C 0.97 g/m*3 0 C 0 km/h
841 02-01-2004 03:56:07 0 C 0.97 g/m*3 0 C 0 km/h
842 02-01-2004 04:08:07 0 C 0.97 g/m*3 0 C 0 km/h
843 02-01-2004 04:20:07 0 C 0.97 g/m*3 0 C 0 km/h
844 02-01-2004 04:32:07 0 C 0.97 g/m*3 0 C 0 km/h
845 02-01-2004 04:44:07 0 C 0.97 g/m*3 0 C 0 km/h
846 02-01-2004 04:56:07 0 C 0.97 g/m*3 0 C 0 km/h
847 02-01-2004 05:08:07 0 C 0.97 g/m*3 0 C 0 km/h
848 02-01-2004 05:20:07 0 C 0.97 g/m*3 0 C 0 km/h
849 02-01-2004 05:32:07 0 C 0.97 g/m*3 0 C 0 km/h
850 02-01-2004 05:44:07 0 C 0.97 g/m*3 0 C 0 km/h
Sensor: Nr:Datum:Temp:Abs-Feuchte:Windchill:Wind:
Aussen-T/F 851 02-01-2004 05:56:07 0 C 0.97 g/m*3 0 C 0 km/h
852 02-01-2004 06:08:07 0 C 0.97 g/m*3 0 C 0 km/h
853 02-01-2004 06:20:07 0 C 0.97 g/m*3 0 C 0 km/h
854 02-01-2004 06:32:07 0 C 0.97 g/m*3 0 C 0 km/h
855 02-01-2004 06:44:07 0 C 0.97 g/m*3 0 C 0 km/h
856 02-01-2004 06:56:07 0 C 0.97 g/m*3 0 C 0 km/h
857 02-01-2004 07:08:07 0 C 0.97 g/m*3 0 C 0 km/h
858 02-01-2004 07:20:07 0 C 0.97 g/m*3 0 C 0 km/h
859 02-01-2004 07:32:07 0 C 0.97 g/m*3 0 C 0 km/h
860 02-01-2004 07:44:07 0 C 0.97 g/m*3 0 C 0 km/h
861 02-01-2004 07:56:07 0 C 0.97 g/m*3 0 C 0 km/h
862 02-01-2004 08:08:07 -1.9 C 0.85 g/m*3 -1.9 C 0 km/h
863 02-01-2004 08:20:07 -2.1 C 1.05 g/m*3 -2.1 C 0 km/h
864 02-01-2004 08:32:07 -2.3 C 1.24 g/m*3 -2.3 C 0 km/h
865 02-01-2004 08:44:07 -2.7 C 1.4 g/m*3 -2.7 C 0 km/h
866 02-01-2004 08:56:07 -2.9 C 2.77 g/m*3 -2.9 C 0 km/h
867 02-01-2004 09:08:07 -3.1 C 2.73 g/m*3 -3.1 C 0 km/h
868 02-01-2004 09:20:07 -3 C 2.75 g/m*3 -3 C 0 km/h
869 02-01-2004 09:32:07 -3.2 C 2.71 g/m*3 -3.2 C 0 km/h
870 02-01-2004 09:44:07 -3.2 C 2.75 g/m*3 -3.2 C 0 km/h
871 02-01-2004 09:56:07 -3 C 2.83 g/m*3 -3 C 0 km/h
872 02-01-2004 10:11:00 -2.7 C 2.89 g/m*3 -2.7 C 0 km/h
873 02-01-2004 10:23:00 -2.7 C 2.89 g/m*3 -2.7 C 0 km/h
874 02-01-2004 10:35:06 -2.6 C 2.83 g/m*3 -2.6 C 0 km/h
875 02-01-2004 10:47:33 -2.4 C 2.87 g/m*3 -2.4 C 0 km/h
Sensor: Nr:Datum:Temp:Abs-Feuchte:Windchill:Wind:
Aussen-T/F 876 02-01-2004 10:59:01 -2.1 C 2.93 g/m*3 -2.1 C 0 km/h
877 02-01-2004 11:11:01 -2.1 C 2.8 g/m*3 -2.1 C 0 km/h
878 02-01-2004 11:23:01 -2.2 C 2.74 g/m*3 -2.2 C 0 km/h
879 02-01-2004 11:35:01 -2.2 C 2.74 g/m*3 -2.2 C 0 km/h
880 02-01-2004 11:47:01 -2.1 C 2.8 g/m*3 -2.1 C 0 km/h
881 02-01-2004 11:59:01 -1.9 C 2.84 g/m*3 -1.9 C 0 km/h
882 02-01-2004 12:11:01 -1.7 C 2.84 g/m*3 -1.7 C 0 km/h
883 02-01-2004 12:23:01 -1.7 C 2.84 g/m*3 -1.7 C 0 km/h
884 02-01-2004 12:35:01 -1.7 C 2.8 g/m*3 -1.7 C 0 km/h
885 02-01-2004 12:47:01 -1.2 C 2.81 g/m*3 -1.2 C 0 km/h
886 02-01-2004 12:59:01 -1.3 C 2.74 g/m*3 -1.3 C 0 km/h
887 02-01-2004 13:11:59 -1.6 C 2.69 g/m*3 -1.6 C 0 km/h
888 02-01-2004 13:23:59 -1.6 C 2.69 g/m*3 -1.6 C 0 km/h
889 02-01-2004 13:35:51 -1.7 C 2.67 g/m*3 -1.7 C 0 km/h
890 02-01-2004 13:47:51 -1.7 C 2.67 g/m*3 -1.7 C 0 km/h
891 02-01-2004 15:14:53 -1.4 C 2.64 g/m*3 -1.4 C 0 km/h
892 02-01-2004 15:26:53 -1.4 C 2.64 g/m*3 -1.4 C 0 km/h
893 02-01-2004 15:40:28 -1.1 C 2.69 g/m*3 -1.1 C 0 km/h
894 02-01-2004 15:52:28 -0.9 C 2.78 g/m*3 -0.9 C 0 km/h
895 02-01-2004 16:04:28 -0.9 C 2.73 g/m*3 -0.9 C 0 km/h
896 02-01-2004 16:16:28 -1.2 C 2.67 g/m*3 -1.2 C 0 km/h
897 02-01-2004 16:28:28 -1.5 C 2.62 g/m*3 -1.5 C 0 km/h
898 02-01-2004 16:40:28 -1.7 C 2.63 g/m*3 -1.7 C 0 km/h
899 02-01-2004 16:52:28 -2 C 2.53 g/m*3 -2 C 0 km/h
900 02-01-2004 17:04:30 -2.4 C 2.5 g/m*3 -2.4 C 0 km/h
Sensor: Nr:Datum:Temp:Abs-Feuchte:Windchill:Wind:
Aussen-T/F 901 02-01-2004 17:16:30 -2.5 C 2.52 g/m*3 -2.5 C 0 km/h
902 02-01-2004 17:28:30 -2.5 C 2.52 g/m*3 -2.5 C 0 km/h
903 02-01-2004 17:40:30 -2.5 C 2.52 g/m*3 -2.5 C 0 km/h
904 02-01-2004 17:49:01 -2.9 C 2.49 g/m*3 -2.9 C 0 km/h
905 02-01-2004 18:01:01 -3.4 C 2.44 g/m*3 -3.4 C 0 km/h
906 02-01-2004 18:13:02 -3.5 C 2.46 g/m*3 -3.5 C 0 km/h
907 02-01-2004 18:25:02 -3.8 C 2.41 g/m*3 -3.8 C 0 km/h
908 02-01-2004 18:48:59 -4 C 2.41 g/m*3 -4 C 0 km/h
909 02-01-2004 19:00:59 -4.1 C 2.36 g/m*3 -4.1 C 0 km/h
910 02-01-2004 19:01:58 -4.1 C 2.36 g/m*3 -4.1 C 0 km/h
911 02-01-2004 19:13:58 -4.3 C 2.36 g/m*3 -4.3 C 0 km/h
912 02-01-2004 19:25:58 -4.5 C 2.33 g/m*3 -4.5 C 0 km/h
913 02-01-2004 19:37:01 -4.3 C 2.36 g/m*3 -4.3 C 0 km/h
914 02-01-2004 19:49:01 -4.5 C 2.33 g/m*3 -4.5 C 0 km/h
915 02-01-2004 20:01:01 -4.4 C 2.35 g/m*3 -4.4 C 0 km/h
916 02-01-2004 20:13:01 -4.5 C 2.33 g/m*3 -4.5 C 0 km/h
917 02-01-2004 20:25:01 -4.8 C 2.31 g/m*3 -4.8 C 0 km/h
918 02-01-2004 20:37:01 -4.9 C 2.33 g/m*3 -4.9 C 0 km/h
919 02-01-2004 20:49:01 -5.1 C 2.3 g/m*3 -5.1 C 0 km/h
920 02-01-2004 21:01:01 -5.1 C 2.37 g/m*3 -5.1 C 0 km/h
921 02-01-2004 21:13:01 -5.1 C 2.37 g/m*3 -5.1 C 0 km/h
922 02-01-2004 21:25:01 -5.3 C 2.33 g/m*3 -5.3 C 0 km/h
923 02-01-2004 21:37:00 -5.5 C 2.33 g/m*3 -5.5 C 0 km/h
924 02-01-2004 21:49:00 -5.7 C 2.3 g/m*3 -5.7 C 0 km/h
925 02-01-2004 22:01:00 -5.8 C 2.31 g/m*3 -5.8 C 0 km/h
Sensor: Nr:Datum:Temp:Abs-Feuchte:Windchill:Wind:
Aussen-T/F 926 02-01-2004 22:13:58 -5.9 C 2.33 g/m*3 -5.9 C 0 km/h
927 02-01-2004 22:25:58 -5.8 C 2.38 g/m*3 -5.8 C 0 km/h
928 02-01-2004 22:37:01 -5.8 C 2.38 g/m*3 -5.8 C 0 km/h
929 02-01-2004 22:49:01 -5.8 C 2.35 g/m*3 -5.8 C 0 km/h
930 02-01-2004 23:01:01 -5.4 C 2.41 g/m*3 -5.4 C 0 km/h
931 02-01-2004 23:13:01 -5.6 C 2.38 g/m*3 -5.6 C 0 km/h
932 02-01-2004 23:25:01 -6.2 C 2.25 g/m*3 -6.2 C 0 km/h
933 02-01-2004 23:37:00 -6.5 C 2.23 g/m*3 -6.5 C 0 km/h
934 02-01-2004 23:49:00 -6.6 C 2.24 g/m*3 -6.6 C 0 km/h
935 03-01-2004 00:01:00 -6.8 C 2.24 g/m*3 -6.8 C 0 km/h
936 03-01-2004 00:13:58 -7.1 C 2.16 g/m*3 -7.1 C 0 km/h
937 03-01-2004 00:25:58 -7.4 C 2.12 g/m*3 -7.4 C 0 km/h
938 03-01-2004 00:37:01 -7.5 C 2.13 g/m*3 -7.5 C 0 km/h
939 03-01-2004 00:49:01 -7.6 C 2.11 g/m*3 -7.6 C 0 km/h
940 03-01-2004 01:01:01 -7.6 C 2.11 g/m*3 -7.6 C 0 km/h
941 03-01-2004 01:13:00 -7.7 C 2.13 g/m*3 -7.7 C 0 km/h
942 03-01-2004 01:25:00 -7.7 C 2.13 g/m*3 -7.7 C 0 km/h
943 03-01-2004 01:37:01 -7.7 C 2.15 g/m*3 -7.7 C 0 km/h
944 03-01-2004 01:49:01 -7.8 C 2.14 g/m*3 -7.8 C 0 km/h
945 03-01-2004 02:01:01 -8.1 C 2.09 g/m*3 -8.1 C 0 km/h
946 03-01-2004 02:13:01 -8.2 C 2.05 g/m*3 -8.2 C 0 km/h
947 03-01-2004 02:25:01 -8.1 C 2.09 g/m*3 -8.1 C 0 km/h
948 03-01-2004 02:37:00 -8.2 C 2.07 g/m*3 -8.2 C 0 km/h
949 03-01-2004 02:49:00 -8.2 C 2.07 g/m*3 -8.2 C 0 km/h
950 03-01-2004 03:01:00 -8.2 C 2.1 g/m*3 -8.2 C 0 km/h
Sensor: Nr:Datum:Temp:Abs-Feuchte:Windchill:Wind:
Aussen-T/F 951 03-01-2004 03:14:00 -8.2 C 2.1 g/m*3 -8.2 C 0 km/h
952 03-01-2004 03:26:00 -8.5 C 2.06 g/m*3 -8.5 C 0 km/h
953 03-01-2004 03:38:00 -8.4 C 2.07 g/m*3 -8.4 C 0 km/h
954 03-01-2004 03:50:00 -8.5 C 2.06 g/m*3 -8.5 C 0 km/h
955 03-01-2004 04:02:01 -8.5 C 2.06 g/m*3 -8.5 C 0 km/h
956 03-01-2004 04:14:01 -8.5 C 2.06 g/m*3 -8.5 C 0 km/h
957 03-01-2004 04:26:01 -8.6 C 2.01 g/m*3 -8.6 C 0 km/h
958 03-01-2004 04:38:00 -8.7 C 2 g/m*3 -8.7 C 0 km/h
959 03-01-2004 04:50:00 -8.9 C 1.97 g/m*3 -8.9 C 0 km/h
960 03-01-2004 05:02:01 -9 C 1.95 g/m*3 -9 C 0 km/h
961 03-01-2004 05:14:01 -9.2 C 1.9 g/m*3 -9.2 C 0 km/h
962 03-01-2004 05:26:01 -9.1 C 1.94 g/m*3 -9.1 C 0 km/h
963 03-01-2004 05:38:00 -9.3 C 1.91 g/m*3 -9.3 C 0 km/h
964 03-01-2004 05:50:00 -9.4 C 1.87 g/m*3 -9.4 C 0 km/h
965 03-01-2004 06:02:01 -9.2 C 1.93 g/m*3 -9.2 C 0 km/h
966 03-01-2004 06:14:01 -9.2 C 1.93 g/m*3 -9.2 C 0 km/h
967 03-01-2004 06:26:01 -9.2 C 1.93 g/m*3 -9.2 C 0 km/h
968 03-01-2004 06:38:00 -9.3 C 1.91 g/m*3 -9.3 C 0 km/h
969 03-01-2004 06:50:00 -8.9 C 1.97 g/m*3 -8.9 C 0 km/h
970 03-01-2004 07:02:01 -8.6 C 2.01 g/m*3 -8.6 C 0 km/h
971 03-01-2004 07:14:01 -8.3 C 2.03 g/m*3 -8.3 C 0 km/h
972 03-01-2004 07:26:01 -8.3 C 2.03 g/m*3 -8.3 C 0 km/h
973 03-01-2004 07:38:00 -8.2 C 2.02 g/m*3 -8.2 C 0 km/h
974 03-01-2004 07:50:00 -8.1 C 2.04 g/m*3 -8.1 C 0 km/h
975 03-01-2004 08:02:00 -8.1 C 2.04 g/m*3 -8.1 C 0 km/h
Sensor: Nr:Datum:Temp:Abs-Feuchte:Windchill:Wind:
Aussen-T/F 976 03-01-2004 08:14:00 -7.9 C 2.07 g/m*3 -7.9 C 0 km/h
977 03-01-2004 08:26:00 -7.8 C 2.08 g/m*3 -7.8 C 0 km/h
978 03-01-2004 08:38:00 -7.7 C 2.1 g/m*3 -7.7 C 0 km/h
979 03-01-2004 08:50:00 -7.7 C 2.07 g/m*3 -7.7 C 0 km/h
980 03-01-2004 09:02:00 -7.7 C 2.07 g/m*3 -7.7 C 0 km/h
981 03-01-2004 09:14:00 -7.7 C 2.07 g/m*3 -7.7 C 0 km/h
982 03-01-2004 09:26:00 -7.4 C 2.12 g/m*3 -7.4 C 0 km/h
983 03-01-2004 09:38:19 -7.2 C 2.15 g/m*3 -7.2 C 0 km/h
984 03-01-2004 09:41:08 -7.2 C 2.15 g/m*3 -7.2 C 0 km/h
985 03-01-2004 10:57:07 -5.9 C 2.3 g/m*3 -5.9 C 0 km/h
986 03-01-2004 11:09:07 -5.6 C 2.35 g/m*3 -5.6 C 0 km/h
987 03-01-2004 11:21:22 -5.4 C 2.35 g/m*3 -5.4 C 0 km/h
988 03-01-2004 11:33:22 -5.2 C 2.35 g/m*3 -5.2 C 0 km/h
989 03-01-2004 11:45:22 -4.8 C 2.42 g/m*3 -4.8 C 0 km/h
990 03-01-2004 11:57:46 -4.6 C 2.42 g/m*3 -4.6 C 0 km/h
991 03-01-2004 12:09:46 -4.4 C 2.45 g/m*3 -4.4 C 0 km/h
992 03-01-2004 12:21:46 -4.2 C 2.49 g/m*3 -4.2 C 0 km/h
993 03-01-2004 12:33:46 -4 C 2.52 g/m*3 -4 C 0 km/h
994 03-01-2004 12:45:46 -3.6 C 2.6 g/m*3 -3.6 C 0 km/h
995 03-01-2004 12:57:01 -3.2 C 2.67 g/m*3 -3.2 C 0 km/h
996 03-01-2004 13:09:01 -3 C 2.71 g/m*3 -3 C 0 km/h
997 03-01-2004 13:21:01 -2.9 C 2.73 g/m*3 -2.9 C 0 km/h
998 03-01-2004 13:33:00 -2.8 C 2.75 g/m*3 -2.8 C 0 km/h
999 03-01-2004 13:45:00 -2.7 C 2.77 g/m*3 -2.7 C 0 km/h
1000 03-01-2004 13:57:00 -2.6 C 2.83 g/m*3 -2.6 C 0 km/h
Sensor: Nr:Datum:Temp:Abs-Feuchte:Windchill:Wind:
Aussen-T/F 1001 03-01-2004 14:09:59 -2.5 C 2.85 g/m*3 -2.5 C 0 km/h
1002 03-01-2004 14:21:59 -2.5 C 2.85 g/m*3 -2.5 C 0 km/h
1003 03-01-2004 14:33:01 -2.3 C 2.93 g/m*3 -2.3 C 0 km/h
1004 03-01-2004 14:45:01 -2.2 C 2.95 g/m*3 -2.2 C 0 km/h
1005 03-01-2004 14:57:01 -2.1 C 2.97 g/m*3 -2.1 C 0 km/h
1006 03-01-2004 15:09:00 -2.1 C 2.97 g/m*3 -2.1 C 0 km/h
1007 03-01-2004 15:21:00 -2.2 C 2.95 g/m*3 -2.2 C 0 km/h
1008 03-01-2004 15:33:01 -2.3 C 2.93 g/m*3 -2.3 C 0 km/h
1009 03-01-2004 15:45:01 -2.3 C 2.97 g/m*3 -2.3 C 0 km/h
1010 03-01-2004 15:57:01 -2.3 C 2.93 g/m*3 -2.3 C 0 km/h
1011 03-01-2004 16:09:01 -2.4 C 2.91 g/m*3 -2.4 C 0 km/h
1012 03-01-2004 16:21:01 -2.5 C 2.85 g/m*3 -2.5 C 0 km/h
1013 03-01-2004 16:33:00 -2.5 C 2.73 g/m*3 -2.5 C 0 km/h
1014 03-01-2004 16:45:00 -2.6 C 2.59 g/m*3 -2.6 C 0 km/h
1015 03-01-2004 16:57:00 -2.7 C 2.53 g/m*3 -2.7 C 0 km/h
1016 03-01-2004 17:09:59 -2.8 C 2.47 g/m*3 -2.8 C 0 km/h
1017 03-01-2004 17:21:59 -2.8 C 2.51 g/m*3 -2.8 C 0 km/h
1018 03-01-2004 17:33:01 -2.9 C 2.45 g/m*3 -2.9 C 0 km/h
1019 03-01-2004 17:45:01 -2.9 C 2.45 g/m*3 -2.9 C 0 km/h
1020 03-01-2004 17:57:01 -2.9 C 2.45 g/m*3 -2.9 C 0 km/h
1021 03-01-2004 18:09:01 -3 C 2.44 g/m*3 -3 C 0 km/h
1022 03-01-2004 18:21:01 -3 C 2.4 g/m*3 -3 C 0 km/h
1023 03-01-2004 18:33:00 -2.9 C 2.41 g/m*3 -2.9 C 0 km/h
1024 03-01-2004 18:45:00 -3 C 2.47 g/m*3 -3 C 0 km/h
1025 03-01-2004 18:57:00 -3 C 2.51 g/m*3 -3 C 0 km/h
Sensor: Nr:Datum:Temp:Abs-Feuchte:Windchill:Wind:
Aussen-T/F 1026 03-01-2004 19:09:58 -3.1 C 2.54 g/m*3 -3.1 C 0 km/h
1027 03-01-2004 19:21:58 -3.2 C 2.52 g/m*3 -3.2 C 0 km/h
1028 03-01-2004 19:33:01 -3.2 C 2.52 g/m*3 -3.2 C 0 km/h
1029 03-01-2004 19:45:01 -3.2 C 2.48 g/m*3 -3.2 C 0 km/h
1030 03-01-2004 19:57:01 -3.2 C 2.44 g/m*3 -3.2 C 0 km/h
1031 03-01-2004 20:09:01 -3.2 C 2.4 g/m*3 -3.2 C 0 km/h
1032 03-01-2004 20:21:01 -3.2 C 2.36 g/m*3 -3.2 C 0 km/h
1033 03-01-2004 20:33:01 -3.3 C 2.42 g/m*3 -3.3 C 0 km/h
1034 03-01-2004 20:45:01 -3.7 C 2.35 g/m*3 -3.7 C 0 km/h
1035 03-01-2004 20:57:01 -4 C 2.3 g/m*3 -4 C 0 km/h
1036 03-01-2004 21:09:01 -4.2 C 2.31 g/m*3 -4.2 C 0 km/h
1037 03-01-2004 21:21:01 -4.5 C 2.26 g/m*3 -4.5 C 0 km/h
1038 03-01-2004 21:33:00 -4.7 C 2.26 g/m*3 -4.7 C 0 km/h
1039 03-01-2004 21:45:00 -4.9 C 2.23 g/m*3 -4.9 C 0 km/h
1040 03-01-2004 21:57:00 -5.2 C 2.18 g/m*3 -5.2 C 0 km/h
1041 03-01-2004 22:09:59 -5.7 C 2.17 g/m*3 -5.7 C 0 km/h
1042 03-01-2004 22:21:59 -6 C 2.12 g/m*3 -6 C 0 km/h
1043 03-01-2004 22:33:01 -6.1 C 2.14 g/m*3 -6.1 C 0 km/h
1044 03-01-2004 22:45:01 -6.2 C 2.15 g/m*3 -6.2 C 0 km/h
1045 03-01-2004 22:57:01 -6.3 C 2.17 g/m*3 -6.3 C 0 km/h
1046 03-01-2004 23:09:00 -6.3 C 2.2 g/m*3 -6.3 C 0 km/h
1047 03-01-2004 23:21:00 -6.4 C 2.18 g/m*3 -6.4 C 0 km/h
1048 03-01-2004 23:33:01 -6.5 C 2.2 g/m*3 -6.5 C 0 km/h
1049 03-01-2004 23:45:01 -6.6 C 2.18 g/m*3 -6.6 C 0 km/h
1050 03-01-2004 23:57:01 -6.7 C 2.17 g/m*3 -6.7 C 0 km/h
Sensor: Nr:Datum:Temp:Abs-Feuchte:Windchill:Wind:
Aussen-T/F 1051 04-01-2004 00:09:01 -6.7 C 2.2 g/m*3 -6.7 C 0 km/h
1052 04-01-2004 00:21:01 -6.6 C 2.21 g/m*3 -6.6 C 0 km/h
1053 04-01-2004 00:33:01 -6.4 C 2.25 g/m*3 -6.4 C 0 km/h
1054 04-01-2004 00:45:01 -6.2 C 2.25 g/m*3 -6.2 C 0 km/h
1055 04-01-2004 00:57:01 -6.3 C 2.23 g/m*3 -6.3 C 0 km/h
1056 04-01-2004 01:09:01 -6.2 C 2.25 g/m*3 -6.2 C 0 km/h
1057 04-01-2004 01:21:01 -6.3 C 2.23 g/m*3 -6.3 C 0 km/h
1058 04-01-2004 01:33:00 -6.2 C 2.28 g/m*3 -6.2 C 0 km/h
1059 04-01-2004 01:45:00 -6 C 2.28 g/m*3 -6 C 0 km/h
1060 04-01-2004 01:57:00 -5.9 C 2.3 g/m*3 -5.9 C 0 km/h
1061 04-01-2004 02:09:58 -5.8 C 2.31 g/m*3 -5.8 C 0 km/h
1062 04-01-2004 02:21:58 -5.7 C 2.3 g/m*3 -5.7 C 0 km/h
1063 04-01-2004 02:33:01 -5.6 C 2.31 g/m*3 -5.6 C 0 km/h
1064 04-01-2004 02:45:01 -5.6 C 2.31 g/m*3 -5.6 C 0 km/h
1065 04-01-2004 02:57:01 -5.6 C 2.31 g/m*3 -5.6 C 0 km/h
1066 04-01-2004 03:09:00 -5.5 C 2.33 g/m*3 -5.5 C 0 km/h
1067 04-01-2004 03:21:00 -5.2 C 2.38 g/m*3 -5.2 C 0 km/h
1068 04-01-2004 03:33:00 -4.9 C 2.4 g/m*3 -4.9 C 0 km/h
1069 04-01-2004 03:45:00 -4.9 C 2.4 g/m*3 -4.9 C 0 km/h
1070 04-01-2004 03:57:00 -4.6 C 2.42 g/m*3 -4.6 C 0 km/h
1071 04-01-2004 04:09:01 -4.5 C 2.4 g/m*3 -4.5 C 0 km/h
1072 04-01-2004 04:21:01 -4.6 C 2.38 g/m*3 -4.6 C 0 km/h
1073 04-01-2004 04:33:01 -4.5 C 2.4 g/m*3 -4.5 C 0 km/h
1074 04-01-2004 04:45:01 -4.2 C 2.45 g/m*3 -4.2 C 0 km/h
1075 04-01-2004 04:57:01 -4.1 C 2.43 g/m*3 -4.1 C 0 km/h
Sensor: Nr:Datum:Temp:Abs-Feuchte:Windchill:Wind:
Aussen-T/F 1076 04-01-2004 05:09:00 -4.2 C 2.42 g/m*3 -4.2 C 0 km/h
1077 04-01-2004 05:21:00 -4.1 C 2.43 g/m*3 -4.1 C 0 km/h
1078 04-01-2004 05:33:00 -4 C 2.45 g/m*3 -4 C 0 km/h
1079 04-01-2004 05:45:00 -4 C 2.41 g/m*3 -4 C 0 km/h
1080 04-01-2004 05:57:00 -4 C 2.41 g/m*3 -4 C 0 km/h
1081 04-01-2004 06:09:01 -4 C 2.41 g/m*3 -4 C 0 km/h
1082 04-01-2004 06:21:01 -3.9 C 2.39 g/m*3 -3.9 C 0 km/h
1083 04-01-2004 06:33:01 -3.9 C 2.39 g/m*3 -3.9 C 0 km/h
1084 04-01-2004 06:45:01 -3.9 C 2.39 g/m*3 -3.9 C 0 km/h
1085 04-01-2004 06:57:01 -3.8 C 2.37 g/m*3 -3.8 C 0 km/h
1086 04-01-2004 07:09:00 -3.8 C 2.37 g/m*3 -3.8 C 0 km/h
1087 04-01-2004 07:21:00 -3.8 C 2.37 g/m*3 -3.8 C 0 km/h
1088 04-01-2004 07:33:00 -3.9 C 2.43 g/m*3 -3.9 C 0 km/h
1089 04-01-2004 07:45:00 -3.8 C 2.41 g/m*3 -3.8 C 0 km/h
1090 04-01-2004 07:57:00 -3.7 C 2.39 g/m*3 -3.7 C 0 km/h
1091 04-01-2004 08:09:01 -3.6 C 2.41 g/m*3 -3.6 C 0 km/h
1092 04-01-2004 08:21:01 -3.5 C 2.35 g/m*3 -3.5 C 0 km/h
1093 04-01-2004 08:33:01 -3.5 C 2.39 g/m*3 -3.5 C 0 km/h
1094 04-01-2004 08:45:01 -3.5 C 2.43 g/m*3 -3.5 C 0 km/h
1095 04-01-2004 08:57:01 -3.7 C 2.47 g/m*3 -3.7 C 0 km/h
1096 04-01-2004 09:09:00 -3.8 C 2.52 g/m*3 -3.8 C 0 km/h
1097 04-01-2004 09:21:00 -3.8 C 2.6 g/m*3 -3.8 C 0 km/h
1098 04-01-2004 09:33:21 -3.8 C 2.63 g/m*3 -3.8 C 0 km/h
1099 04-01-2004 09:45:21 -3.7 C 2.62 g/m*3 -3.7 C 0 km/h
1100 04-01-2004 09:53:00 -3.6 C 2.63 g/m*3 -3.6 C 0 km/h
Sensor: Nr:Datum:Temp:Abs-Feuchte:Windchill:Wind:
Aussen-T/F 1101 04-01-2004 10:05:01 -3.5 C 2.65 g/m*3 -3.5 C 0 km/h
1102 04-01-2004 10:17:01 -3.5 C 2.65 g/m*3 -3.5 C 0 km/h
1103 04-01-2004 10:29:01 -3.3 C 2.69 g/m*3 -3.3 C 0 km/h
1104 04-01-2004 10:41:01 -3.2 C 2.71 g/m*3 -3.2 C 0 km/h
1105 04-01-2004 10:53:01 -3.2 C 2.71 g/m*3 -3.2 C 0 km/h
1106 04-01-2004 11:05:00 -3.1 C 2.73 g/m*3 -3.1 C 0 km/h
1107 04-01-2004 11:17:00 -3 C 2.75 g/m*3 -3 C 0 km/h
1108 04-01-2004 11:29:00 -2.9 C 2.77 g/m*3 -2.9 C 0 km/h
1109 04-01-2004 11:41:00 -2.8 C 2.79 g/m*3 -2.8 C 0 km/h
1110 04-01-2004 11:53:00 -2.8 C 2.83 g/m*3 -2.8 C 0 km/h
1111 04-01-2004 12:04:00 0 C 3.44 g/m*3 0 C 0 km/h
1112 04-01-2004 12:09:00 -2.6 C 2.87 g/m*3 -2.6 C 0 km/h
1113 04-01-2004 12:14:00 -2.5 C 2.89 g/m*3 -2.5 C 0 km/h
1114 04-01-2004 12:19:00 -2.5 C 2.89 g/m*3 -2.5 C 0 km/h
1115 04-01-2004 12:24:00 -2.5 C 2.89 g/m*3 -2.5 C 0 km/h
1116 04-01-2004 12:29:00 -2.4 C 2.87 g/m*3 -2.4 C 0 km/h
1117 04-01-2004 12:34:01 -2.4 C 2.87 g/m*3 -2.4 C 0 km/h
1118 04-01-2004 12:39:01 -2.4 C 2.87 g/m*3 -2.4 C 0 km/h
1119 04-01-2004 12:44:01 -2.3 C 2.89 g/m*3 -2.3 C 0 km/h
1120 04-01-2004 12:49:01 -2.2 C 2.91 g/m*3 -2.2 C 0 km/h
1121 04-01-2004 12:54:01 -2.2 C 2.91 g/m*3 -2.2 C 0 km/h
1122 04-01-2004 12:59:01 -2.1 C 2.97 g/m*3 -2.1 C 0 km/h
1123 04-01-2004 13:08:01 -2.1 C 2.97 g/m*3 -2.1 C 0 km/h
1124 04-01-2004 13:20:01 -2.2 C 2.95 g/m*3 -2.2 C 0 km/h
1125 04-01-2004 13:32:00 -2.5 C 3.09 g/m*3 -2.5 C 0 km/h
Sensor: Nr:Datum:Temp:Abs-Feuchte:Windchill:Wind:
Aussen-T/F 1126 04-01-2004 13:44:00 -2.4 C 3.11 g/m*3 -2.4 C 0 km/h
1127 04-01-2004 13:56:00 -2.3 C 3.1 g/m*3 -2.3 C 0 km/h
1128 04-01-2004 14:08:58 -2.2 C 3.12 g/m*3 -2.2 C 0 km/h
1129 04-01-2004 14:20:58 -2.1 C 3.14 g/m*3 -2.1 C 0 km/h
1130 04-01-2004 14:32:01 -1.9 C 3.14 g/m*3 -1.9 C 0 km/h
1131 04-01-2004 14:44:01 -1.8 C 3.16 g/m*3 -1.8 C 0 km/h
1132 04-01-2004 14:56:01 -1.6 C 3.21 g/m*3 -1.6 C 0 km/h
1133 04-01-2004 15:08:01 -1.6 C 3.25 g/m*3 -1.6 C 0 km/h
1134 04-01-2004 15:20:01 -1.4 C 3.25 g/m*3 -1.4 C 0 km/h
1135 04-01-2004 15:32:01 -1.4 C 3.25 g/m*3 -1.4 C 0 km/h
1136 04-01-2004 15:44:01 -1.4 C 3.3 g/m*3 -1.4 C 0 km/h
1137 04-01-2004 15:56:01 -1.6 C 3.38 g/m*3 -1.6 C 0 km/h
1138 04-01-2004 16:08:01 -1.5 C 3.45 g/m*3 -1.5 C 0 km/h
1139 04-01-2004 16:20:01 -1.3 C 3.41 g/m*3 -1.3 C 0 km/h
1140 04-01-2004 16:32:00 -1 C 3.39 g/m*3 -1 C 0 km/h
1141 04-01-2004 16:44:00 -1 C 3.39 g/m*3 -1 C 0 km/h
1142 04-01-2004 16:56:00 -1.1 C 3.5 g/m*3 -1.1 C 0 km/h
1143 04-01-2004 17:08:59 -0.9 C 3.55 g/m*3 -0.9 C 0 km/h
1144 04-01-2004 17:20:59 -0.7 C 3.51 g/m*3 -0.7 C 0 km/h
1145 04-01-2004 17:32:01 -0.8 C 3.48 g/m*3 -0.8 C 0 km/h
1146 04-01-2004 17:44:01 -0.8 C 3.48 g/m*3 -0.8 C 0 km/h
1147 04-01-2004 17:56:01 -0.9 C 3.51 g/m*3 -0.9 C 0 km/h
1148 04-01-2004 18:08:01 -0.8 C 3.53 g/m*3 -0.8 C 0 km/h
1149 04-01-2004 18:20:01 -0.9 C 3.55 g/m*3 -0.9 C 0 km/h
1150 04-01-2004 18:32:00 -0.9 C 3.64 g/m*3 -0.9 C 0 km/h
Sensor: Nr:Datum:Temp:Abs-Feuchte:Windchill:Wind:
Aussen-T/F 1151 04-01-2004 18:44:00 -0.8 C 3.71 g/m*3 -0.8 C 0 km/h
1152 04-01-2004 18:56:00 -0.6 C 3.67 g/m*3 -0.6 C 0 km/h
1153 04-01-2004 19:08:59 -0.4 C 3.68 g/m*3 -0.4 C 0 km/h
1154 04-01-2004 19:20:59 -0.4 C 3.68 g/m*3 -0.4 C 0 km/h
1155 04-01-2004 19:32:01 -0.3 C 3.7 g/m*3 -0.3 C 0 km/h
1156 04-01-2004 19:44:01 -0.2 C 3.73 g/m*3 -0.2 C 0 km/h
1157 04-01-2004 19:56:01 -0.1 C 3.75 g/m*3 -0.1 C 0 km/h
1158 04-01-2004 20:08:01 0 C 3.78 g/m*3 0 C 0 km/h
1159 04-01-2004 20:20:01 0 C 3.78 g/m*3 0 C 0 km/h
1160 04-01-2004 20:32:00 0 C 3.78 g/m*3 0 C 0 km/h
1161 04-01-2004 20:44:00 0.1 C 3.81 g/m*3 0.1 C 0 km/h
1162 04-01-2004 20:56:00 0 C 3.73 g/m*3 0 C 0 km/h
1163 04-01-2004 21:08:58 0.1 C 3.76 g/m*3 0.1 C 0 km/h
1164 04-01-2004 21:20:58 0.1 C 3.76 g/m*3 0.1 C 0 km/h
1165 04-01-2004 21:32:01 0.1 C 3.76 g/m*3 0.1 C 0 km/h
1166 04-01-2004 21:44:01 0.1 C 3.81 g/m*3 0.1 C 0 km/h
1167 04-01-2004 21:56:01 0.1 C 3.81 g/m*3 0.1 C 0 km/h
1168 04-01-2004 22:08:01 0.1 C 3.81 g/m*3 0.1 C 0 km/h
1169 04-01-2004 22:20:01 0.2 C 3.78 g/m*3 0.2 C 0 km/h
1170 04-01-2004 22:32:00 0.2 C 3.78 g/m*3 0.2 C 0 km/h
1171 04-01-2004 22:44:00 0.2 C 3.78 g/m*3 0.2 C 0 km/h
1172 04-01-2004 22:56:00 0 C 3.83 g/m*3 0 C 0 km/h
1173 04-01-2004 23:08:58 -0.2 C 3.92 g/m*3 -0.2 C 0 km/h
1174 04-01-2004 23:20:58 0.1 C 3.95 g/m*3 0.1 C 0 km/h
1175 04-01-2004 23:32:01 0.2 C 3.93 g/m*3 0.2 C 0 km/h
Sensor: Nr:Datum:Temp:Abs-Feuchte:Windchill:Wind:
Aussen-T/F 1176 04-01-2004 23:44:01 0.2 C 3.98 g/m*3 0.2 C 0 km/h
1177 04-01-2004 23:56:01 0.4 C 3.98 g/m*3 0.4 C 0 km/h
1178 05-01-2004 00:08:01 0.3 C 3.96 g/m*3 0.3 C 0 km/h
1179 05-01-2004 00:20:01 0.1 C 4 g/m*3 0.1 C 0 km/h
1180 05-01-2004 00:32:00 0.3 C 4.01 g/m*3 0.3 C 0 km/h
1181 05-01-2004 00:44:00 0.3 C 3.96 g/m*3 0.3 C 0 km/h
1182 05-01-2004 00:56:00 0.4 C 3.93 g/m*3 0.4 C 0 km/h
1183 05-01-2004 01:08:59 0.4 C 3.93 g/m*3 0.4 C 0 km/h
1184 05-01-2004 01:20:59 0.4 C 3.93 g/m*3 0.4 C 0 km/h
1185 05-01-2004 01:32:01 0.5 C 3.96 g/m*3 0.5 C 0 km/h
1186 05-01-2004 01:44:01 0.5 C 3.96 g/m*3 0.5 C 0 km/h
1187 05-01-2004 01:56:01 0.5 C 3.96 g/m*3 0.5 C 0 km/h
1188 05-01-2004 02:08:01 0.5 C 3.96 g/m*3 0.5 C 0 km/h
1189 05-01-2004 02:20:01 0.6 C 3.99 g/m*3 0.6 C 0 km/h
1190 05-01-2004 02:32:00 0.6 C 3.99 g/m*3 0.6 C 0 km/h
1191 05-01-2004 02:44:00 0.8 C 3.99 g/m*3 0.8 C 0 km/h
1192 05-01-2004 02:56:00 0.9 C 4.02 g/m*3 0.9 C 0 km/h
1193 05-01-2004 03:09:01 1 C 4 g/m*3 1 C 0 km/h
1194 05-01-2004 03:21:01 1 C 4.05 g/m*3 1 C 0 km/h
1195 05-01-2004 03:33:00 1.1 C 4.08 g/m*3 1.1 C 0 km/h
1196 05-01-2004 03:45:00 1.3 C 4.13 g/m*3 1.3 C 0 km/h
1197 05-01-2004 03:57:00 1.3 C 4.13 g/m*3 1.3 C 0 km/h
1198 05-01-2004 04:09:01 1 C 4.1 g/m*3 1 C 0 km/h
1199 05-01-2004 04:21:01 0.9 C 4.18 g/m*3 0.9 C 0 km/h
1200 05-01-2004 04:33:00 0.8 C 4.2 g/m*3 0.8 C 0 km/h
Sensor: Nr:Datum:Temp:Abs-Feuchte:Windchill:Wind:
Aussen-T/F 1201 05-01-2004 04:45:00 0.8 C 4.25 g/m*3 0.8 C 0 km/h
1202 05-01-2004 04:57:01 0.7 C 4.22 g/m*3 0.7 C 0 km/h
1203 05-01-2004 05:09:01 0.7 C 4.27 g/m*3 0.7 C 0 km/h
1204 05-01-2004 05:21:01 0.9 C 4.33 g/m*3 0.9 C 0 km/h
1205 05-01-2004 05:33:00 0.8 C 4.3 g/m*3 0.8 C 0 km/h
1206 05-01-2004 05:45:00 0.9 C 4.33 g/m*3 0.9 C 0 km/h
1207 05-01-2004 05:57:00 0.8 C 4.3 g/m*3 0.8 C 0 km/h
1208 05-01-2004 06:09:01 0.8 C 4.35 g/m*3 0.8 C 0 km/h
1209 05-01-2004 06:21:01 0.8 C 4.35 g/m*3 0.8 C 0 km/h
1210 05-01-2004 06:33:00 0.8 C 4.4 g/m*3 0.8 C 0 km/h
1211 05-01-2004 06:45:00 0.8 C 4.4 g/m*3 0.8 C 0 km/h
1212 05-01-2004 06:57:00 0.9 C 4.43 g/m*3 0.9 C 0 km/h
1213 05-01-2004 07:09:00 0.9 C 4.43 g/m*3 0.9 C 0 km/h
1214 05-01-2004 07:21:00 1 C 4.41 g/m*3 1 C 0 km/h
1215 05-01-2004 07:33:00 0.9 C 4.43 g/m*3 0.9 C 0 km/h
1216 05-01-2004 07:45:01 0.9 C 4.43 g/m*3 0.9 C 0 km/h
1217 05-01-2004 07:57:01 0.9 C 4.48 g/m*3 0.9 C 0 km/h
1218 05-01-2004 08:09:00 0.9 C 4.48 g/m*3 0.9 C 0 km/h
1219 05-01-2004 08:21:00 1 C 4.46 g/m*3 1 C 0 km/h
1220 05-01-2004 08:33:01 1.1 C 4.49 g/m*3 1.1 C 0 km/h
1221 05-01-2004 08:45:01 1 C 4.46 g/m*3 1 C 0 km/h
1222 05-01-2004 08:57:01 1 C 4.41 g/m*3 1 C 0 km/h
1223 05-01-2004 09:09:00 0.9 C 4.43 g/m*3 0.9 C 0 km/h
1224 05-01-2004 09:21:00 0.9 C 4.48 g/m*3 0.9 C 0 km/h
1225 05-01-2004 09:33:01 0.9 C 4.48 g/m*3 0.9 C 0 km/h
Sensor: Nr:Datum:Temp:Abs-Feuchte:Windchill:Wind:
Aussen-T/F 1226 05-01-2004 09:45:01 0.8 C 4.45 g/m*3 0.8 C 0 km/h
1227 05-01-2004 09:57:01 0.9 C 4.48 g/m*3 0.9 C 0 km/h
1228 05-01-2004 10:09:00 1 C 4.52 g/m*3 1 C 0 km/h
1229 05-01-2004 10:21:00 1 C 4.52 g/m*3 1 C 0 km/h
1230 05-01-2004 10:33:01 1 C 4.52 g/m*3 1 C 0 km/h
1231 05-01-2004 10:45:01 1 C 4.52 g/m*3 1 C 0 km/h
1232 05-01-2004 10:57:01 1 C 4.52 g/m*3 1 C 0 km/h
1233 05-01-2004 11:09:00 1 C 4.46 g/m*3 1 C 0 km/h
1234 05-01-2004 11:21:00 1.1 C 4.49 g/m*3 1.1 C 0 km/h
1235 05-01-2004 11:33:00 1.3 C 4.56 g/m*3 1.3 C 0 km/h
1236 05-01-2004 11:45:00 1.2 C 4.47 g/m*3 1.2 C 0 km/h
1237 05-01-2004 11:57:00 1.3 C 4.5 g/m*3 1.3 C 0 km/h
1238 05-01-2004 12:09:01 1.4 C 4.48 g/m*3 1.4 C 0 km/h
1239 05-01-2004 12:21:01 1.5 C 4.51 g/m*3 1.5 C 0 km/h
1240 05-01-2004 12:33:00 1.5 C 4.46 g/m*3 1.5 C 0 km/h
1241 05-01-2004 12:45:00 1.6 C 4.43 g/m*3 1.6 C 0 km/h
1242 05-01-2004 12:57:00 1.8 C 4.44 g/m*3 1.8 C 0 km/h
1243 05-01-2004 13:09:01 2 C 4.39 g/m*3 2 C 0 km/h
1244 05-01-2004 13:21:01 2.1 C 4.42 g/m*3 2.1 C 0 km/h
1245 05-01-2004 13:33:00 2.1 C 4.36 g/m*3 2.1 C 0 km/h
1246 05-01-2004 13:45:00 2 C 4.39 g/m*3 2 C 0 km/h
1247 05-01-2004 13:57:00 2 C 4.39 g/m*3 2 C 0 km/h
1248 05-01-2004 14:09:01 2 C 4.33 g/m*3 2 C 0 km/h
1249 05-01-2004 14:21:01 1.9 C 4.36 g/m*3 1.9 C 0 km/h
1250 05-01-2004 14:33:00 1.9 C 4.36 g/m*3 1.9 C 0 km/h
Sensor: Nr:Datum:Temp:Abs-Feuchte:Windchill:Wind:
Aussen-T/F 1251 05-01-2004 14:45:00 1.9 C 4.36 g/m*3 1.9 C 0 km/h
1252 05-01-2004 14:57:00 1.9 C 4.42 g/m*3 1.9 C 0 km/h
1253 05-01-2004 15:09:00 1.8 C 4.39 g/m*3 1.8 C 0 km/h
1254 05-01-2004 15:21:00 1.8 C 4.44 g/m*3 1.8 C 0 km/h
1255 05-01-2004 15:33:00 1.8 C 4.39 g/m*3 1.8 C 0 km/h
1256 05-01-2004 15:45:00 1.7 C 4.41 g/m*3 1.7 C 0 km/h
1257 05-01-2004 15:57:01 1.7 C 4.41 g/m*3 1.7 C 0 km/h
1258 05-01-2004 16:09:00 1.7 C 4.41 g/m*3 1.7 C 0 km/h
1259 05-01-2004 16:21:00 1.7 C 4.41 g/m*3 1.7 C 0 km/h
1260 05-01-2004 16:33:01 1.7 C 4.41 g/m*3 1.7 C 0 km/h
1261 05-01-2004 16:45:01 1.6 C 4.38 g/m*3 1.6 C 0 km/h
1262 05-01-2004 16:57:01 1.5 C 4.4 g/m*3 1.5 C 0 km/h
1263 05-01-2004 17:09:00 1.5 C 4.4 g/m*3 1.5 C 0 km/h
1264 05-01-2004 17:21:00 1.5 C 4.4 g/m*3 1.5 C 0 km/h
1265 05-01-2004 17:33:01 1.4 C 4.43 g/m*3 1.4 C 0 km/h
1266 05-01-2004 17:45:01 1.4 C 4.43 g/m*3 1.4 C 0 km/h
1267 05-01-2004 17:57:01 1.4 C 4.43 g/m*3 1.4 C 0 km/h
1268 05-01-2004 18:09:00 1.4 C 4.48 g/m*3 1.4 C 0 km/h
1269 05-01-2004 18:21:00 1.4 C 4.48 g/m*3 1.4 C 0 km/h
1270 05-01-2004 18:33:01 1.4 C 4.48 g/m*3 1.4 C 0 km/h
1271 05-01-2004 18:45:01 1.3 C 4.45 g/m*3 1.3 C 0 km/h
1272 05-01-2004 18:57:01 1.3 C 4.45 g/m*3 1.3 C 0 km/h
1273 05-01-2004 19:09:00 1.3 C 4.45 g/m*3 1.3 C 0 km/h
1274 05-01-2004 19:21:00 1.1 C 4.44 g/m*3 1.1 C 0 km/h
1275 05-01-2004 19:34:01 1.1 C 4.44 g/m*3 1.1 C 0 km/h
Sensor: Nr:Datum:Temp:Abs-Feuchte:Windchill:Wind:
Aussen-T/F 1276 05-01-2004 19:46:01 1.1 C 4.44 g/m*3 1.1 C 0 km/h
1277 05-01-2004 19:58:01 1.1 C 4.44 g/m*3 1.1 C 0 km/h
1278 05-01-2004 20:10:00 1.1 C 4.44 g/m*3 1.1 C 0 km/h
1279 05-01-2004 20:22:00 1.1 C 4.49 g/m*3 1.1 C 0 km/h
1280 05-01-2004 20:34:00 1.1 C 4.49 g/m*3 1.1 C 0 km/h
1281 05-01-2004 20:46:00 1.1 C 4.49 g/m*3 1.1 C 0 km/h
1282 05-01-2004 20:58:00 1.1 C 4.49 g/m*3 1.1 C 0 km/h
1283 05-01-2004 21:07:01 1.1 C 4.49 g/m*3 1.1 C 0 km/h
1284 05-01-2004 21:19:01 1.2 C 4.58 g/m*3 1.2 C 0 km/h
1285 05-01-2004 21:31:01 1.2 C 4.58 g/m*3 1.2 C 0 km/h
1286 05-01-2004 21:43:00 1.2 C 4.58 g/m*3 1.2 C 0 km/h
1287 05-01-2004 21:55:00 1.2 C 4.58 g/m*3 1.2 C 0 km/h
1288 05-01-2004 22:07:01 1.2 C 4.58 g/m*3 1.2 C 0 km/h
1289 05-01-2004 22:19:01 1.3 C 4.61 g/m*3 1.3 C 0 km/h
1290 05-01-2004 22:31:01 1.3 C 4.61 g/m*3 1.3 C 0 km/h
1291 05-01-2004 22:43:00 1.3 C 4.61 g/m*3 1.3 C 0 km/h
1292 05-01-2004 22:55:00 1.3 C 4.61 g/m*3 1.3 C 0 km/h
1293 05-01-2004 23:07:01 1.3 C 4.61 g/m*3 1.3 C 0 km/h
1294 05-01-2004 23:19:01 1.4 C 4.64 g/m*3 1.4 C 0 km/h
1295 05-01-2004 23:31:01 1.4 C 4.64 g/m*3 1.4 C 0 km/h
1296 05-01-2004 23:43:00 1.4 C 4.64 g/m*3 1.4 C 0 km/h
1297 05-01-2004 23:55:00 1.4 C 4.64 g/m*3 1.4 C 0 km/h
1298 06-01-2004 00:07:01 1.4 C 4.64 g/m*3 1.4 C 0 km/h
1299 06-01-2004 00:19:01 1.5 C 4.73 g/m*3 1.5 C 0 km/h
1300 06-01-2004 00:31:01 1.5 C 4.73 g/m*3 1.5 C 0 km/h
Sensor: Nr:Datum:Temp:Abs-Feuchte:Windchill:Wind:
Aussen-T/F 1301 06-01-2004 00:43:00 1.6 C 4.76 g/m*3 1.6 C 0 km/h
1302 06-01-2004 00:55:00 1.6 C 4.7 g/m*3 1.6 C 0 km/h
1303 06-01-2004 01:07:00 1.5 C 4.67 g/m*3 1.5 C 0 km/h
1304 06-01-2004 01:19:00 1.5 C 4.67 g/m*3 1.5 C 0 km/h
1305 06-01-2004 01:31:00 1.5 C 4.73 g/m*3 1.5 C 0 km/h
1306 06-01-2004 01:43:00 1.5 C 4.73 g/m*3 1.5 C 0 km/h
1307 06-01-2004 01:55:01 1.4 C 4.69 g/m*3 1.4 C 0 km/h
1308 06-01-2004 02:07:00 1.4 C 4.69 g/m*3 1.4 C 0 km/h
1309 06-01-2004 02:19:00 1.4 C 4.69 g/m*3 1.4 C 0 km/h
1310 06-01-2004 02:31:00 1.5 C 4.73 g/m*3 1.5 C 0 km/h
1311 06-01-2004 02:43:01 1.5 C 4.73 g/m*3 1.5 C 0 km/h
1312 06-01-2004 02:55:01 1.5 C 4.73 g/m*3 1.5 C 0 km/h
1313 06-01-2004 03:07:00 1.5 C 4.73 g/m*3 1.5 C 0 km/h
1314 06-01-2004 03:19:00 1.5 C 4.73 g/m*3 1.5 C 0 km/h
1315 06-01-2004 03:31:00 1.6 C 4.76 g/m*3 1.6 C 0 km/h
1316 06-01-2004 03:43:01 1.6 C 4.76 g/m*3 1.6 C 0 km/h
1317 06-01-2004 03:55:01 1.6 C 4.76 g/m*3 1.6 C 0 km/h
1318 06-01-2004 04:07:00 1.6 C 4.76 g/m*3 1.6 C 0 km/h
1319 06-01-2004 04:19:00 1.5 C 4.73 g/m*3 1.5 C 0 km/h
1320 06-01-2004 04:31:00 1.6 C 4.76 g/m*3 1.6 C 0 km/h
1321 06-01-2004 04:43:01 1.5 C 4.73 g/m*3 1.5 C 0 km/h
1322 06-01-2004 04:55:01 1.6 C 4.76 g/m*3 1.6 C 0 km/h
1323 06-01-2004 05:07:00 1.6 C 4.76 g/m*3 1.6 C 0 km/h
1324 06-01-2004 05:19:00 1.6 C 4.76 g/m*3 1.6 C 0 km/h
1325 06-01-2004 05:31:00 1.6 C 4.76 g/m*3 1.6 C 0 km/h
Sensor: Nr:Datum:Temp:Abs-Feuchte:Windchill:Wind:
Aussen-T/F 1326 06-01-2004 05:43:00 1.6 C 4.76 g/m*3 1.6 C 0 km/h
1327 06-01-2004 05:55:00 1.6 C 4.76 g/m*3 1.6 C 0 km/h
1328 06-01-2004 06:07:00 1.6 C 4.76 g/m*3 1.6 C 0 km/h
1329 06-01-2004 06:19:00 1.6 C 4.76 g/m*3 1.6 C 0 km/h
1330 06-01-2004 06:31:01 1.6 C 4.76 g/m*3 1.6 C 0 km/h
1331 06-01-2004 06:43:00 1.6 C 4.76 g/m*3 1.6 C 0 km/h
1332 06-01-2004 06:55:00 1.6 C 4.76 g/m*3 1.6 C 0 km/h
1333 06-01-2004 07:07:01 1.7 C 4.79 g/m*3 1.7 C 0 km/h
1334 06-01-2004 07:19:01 1.6 C 4.76 g/m*3 1.6 C 0 km/h
1335 06-01-2004 07:31:01 1.6 C 4.76 g/m*3 1.6 C 0 km/h
1336 06-01-2004 07:43:00 1.6 C 4.76 g/m*3 1.6 C 0 km/h
1337 06-01-2004 07:55:00 1.6 C 4.76 g/m*3 1.6 C 0 km/h
1338 06-01-2004 08:07:01 1.7 C 4.85 g/m*3 1.7 C 0 km/h
1339 06-01-2004 08:19:01 1.7 C 4.85 g/m*3 1.7 C 0 km/h
1340 06-01-2004 08:31:01 1.8 C 4.88 g/m*3 1.8 C 0 km/h
1341 06-01-2004 08:43:00 1.8 C 4.88 g/m*3 1.8 C 0 km/h
1342 06-01-2004 08:55:00 1.8 C 4.88 g/m*3 1.8 C 0 km/h
1343 06-01-2004 09:07:01 1.9 C 4.91 g/m*3 1.9 C 0 km/h
1344 06-01-2004 09:19:01 2 C 4.95 g/m*3 2 C 0 km/h
1345 06-01-2004 09:31:01 2.1 C 4.98 g/m*3 2.1 C 0 km/h
1346 06-01-2004 09:43:00 2.1 C 4.98 g/m*3 2.1 C 0 km/h
1347 06-01-2004 09:55:00 2.2 C 5.01 g/m*3 2.2 C 0 km/h
1348 06-01-2004 10:07:01 2.3 C 5.05 g/m*3 2.3 C 0 km/h
1349 06-01-2004 10:19:01 2.3 C 5.05 g/m*3 2.3 C 0 km/h
1350 06-01-2004 10:31:01 2.5 C 5.12 g/m*3 2.5 C 0 km/h
Sensor: Nr:Datum:Temp:Abs-Feuchte:Windchill:Wind:
Aussen-T/F 1351 06-01-2004 10:43:00 2.6 C 5.15 g/m*3 2.6 C 0 km/h
1352 06-01-2004 10:55:00 2.7 C 5.19 g/m*3 2.7 C 0 km/h
1353 06-01-2004 11:07:00 2.9 C 5.26 g/m*3 2.9 C 0 km/h
1354 06-01-2004 11:19:00 3.2 C 5.36 g/m*3 3.2 C 0 km/h
1355 06-01-2004 11:31:00 3.3 C 5.4 g/m*3 3.3 C 0 km/h
1356 06-01-2004 11:43:00 3.4 C 5.37 g/m*3 3.4 C 0 km/h
1357 06-01-2004 11:55:01 3.4 C 5.37 g/m*3 3.4 C 0 km/h
1358 06-01-2004 12:08:00 3.6 C 5.39 g/m*3 3.6 C 0 km/h
1359 06-01-2004 12:20:00 3.8 C 5.46 g/m*3 3.8 C 0 km/h
1360 06-01-2004 12:32:01 3.9 C 5.43 g/m*3 3.9 C 0 km/h
1361 06-01-2004 12:44:01 3.9 C 5.43 g/m*3 3.9 C 0 km/h
1362 06-01-2004 12:56:01 4 C 5.4 g/m*3 4 C 0 km/h
1363 06-01-2004 13:08:00 4 C 5.4 g/m*3 4 C 0 km/h
1364 06-01-2004 13:20:00 4.1 C 5.44 g/m*3 4.1 C 0 km/h
1365 06-01-2004 13:32:01 4.2 C 5.48 g/m*3 4.2 C 0 km/h
1366 06-01-2004 13:44:01 4.2 C 5.41 g/m*3 4.2 C 0 km/h
1367 06-01-2004 13:56:01 4.2 C 5.41 g/m*3 4.2 C 0 km/h
1368 06-01-2004 14:08:00 4.1 C 5.44 g/m*3 4.1 C 0 km/h
1369 06-01-2004 14:20:00 4 C 5.4 g/m*3 4 C 0 km/h
1370 06-01-2004 14:32:00 3.7 C 5.42 g/m*3 3.7 C 0 km/h
1371 06-01-2004 14:44:00 3.6 C 5.39 g/m*3 3.6 C 0 km/h
1372 06-01-2004 14:56:00 3.4 C 5.31 g/m*3 3.4 C 0 km/h
1373 06-01-2004 15:08:00 3.4 C 5.37 g/m*3 3.4 C 0 km/h
1374 06-01-2004 15:20:00 3.5 C 5.41 g/m*3 3.5 C 0 km/h
1375 06-01-2004 15:32:00 3.6 C 5.51 g/m*3 3.6 C 0 km/h
Sensor: Nr:Datum:Temp:Abs-Feuchte:Windchill:Wind:
Aussen-T/F 1376 06-01-2004 15:44:00 3.7 C 5.55 g/m*3 3.7 C 0 km/h
1377 06-01-2004 15:56:00 3.6 C 5.51 g/m*3 3.6 C 0 km/h
1378 06-01-2004 16:08:01 3.5 C 5.47 g/m*3 3.5 C 0 km/h
1379 06-01-2004 16:20:01 3.4 C 5.44 g/m*3 3.4 C 0 km/h
1380 06-01-2004 16:32:00 3.4 C 5.44 g/m*3 3.4 C 0 km/h
1381 06-01-2004 16:44:00 3.6 C 5.51 g/m*3 3.6 C 0 km/h
1382 06-01-2004 16:56:00 3.6 C 5.51 g/m*3 3.6 C 0 km/h
1383 06-01-2004 17:08:01 3.6 C 5.51 g/m*3 3.6 C 0 km/h
1384 06-01-2004 17:20:01 3.5 C 5.47 g/m*3 3.5 C 0 km/h
1385 06-01-2004 17:32:01 3.7 C 5.61 g/m*3 3.7 C 0 km/h
1386 06-01-2004 17:44:01 4 C 5.66 g/m*3 4 C 0 km/h
1387 06-01-2004 17:56:01 4 C 5.59 g/m*3 4 C 0 km/h
1388 06-01-2004 18:08:01 4 C 5.59 g/m*3 4 C 0 km/h
1389 06-01-2004 18:20:00 4.1 C 5.57 g/m*3 4.1 C 0 km/h
1390 06-01-2004 18:32:00 4.2 C 5.61 g/m*3 4.2 C 0 km/h
1391 06-01-2004 18:44:00 4.4 C 5.62 g/m*3 4.4 C 0 km/h
1392 06-01-2004 18:56:00 4.3 C 5.58 g/m*3 4.3 C 0 km/h
1393 06-01-2004 19:08:01 4.3 C 5.58 g/m*3 4.3 C 0 km/h
1394 06-01-2004 19:20:01 4.4 C 5.62 g/m*3 4.4 C 0 km/h
1395 06-01-2004 19:32:00 4.4 C 5.55 g/m*3 4.4 C 0 km/h
1396 06-01-2004 19:44:00 4.4 C 5.55 g/m*3 4.4 C 0 km/h
1397 06-01-2004 19:56:00 4.4 C 5.55 g/m*3 4.4 C 0 km/h
1398 06-01-2004 20:08:01 4.4 C 5.48 g/m*3 4.4 C 0 km/h
1399 06-01-2004 20:20:01 4.4 C 5.48 g/m*3 4.4 C 0 km/h
1400 06-01-2004 20:32:01 4.5 C 5.52 g/m*3 4.5 C 0 km/h
Sensor: Nr:Datum:Temp:Abs-Feuchte:Windchill:Wind:
Aussen-T/F 1401 06-01-2004 20:44:01 4.5 C 5.52 g/m*3 4.5 C 0 km/h
1402 06-01-2004 20:56:01 4.5 C 5.52 g/m*3 4.5 C 0 km/h
1403 06-01-2004 21:08:00 4.5 C 5.46 g/m*3 4.5 C 0 km/h
1404 06-01-2004 21:20:00 4.7 C 5.53 g/m*3 4.7 C 0 km/h
1405 06-01-2004 21:32:01 4.7 C 5.53 g/m*3 4.7 C 0 km/h
1406 06-01-2004 21:44:01 4.8 C 5.57 g/m*3 4.8 C 0 km/h
1407 06-01-2004 21:56:01 5 C 5.57 g/m*3 5 C 0 km/h
1408 06-01-2004 22:08:00 4.9 C 5.6 g/m*3 4.9 C 0 km/h
1409 06-01-2004 22:20:00 4.8 C 5.57 g/m*3 4.8 C 0 km/h
1410 06-01-2004 22:32:01 4.8 C 5.57 g/m*3 4.8 C 0 km/h
1411 06-01-2004 22:44:01 4.8 C 5.57 g/m*3 4.8 C 0 km/h
1412 06-01-2004 22:56:01 4.8 C 5.57 g/m*3 4.8 C 0 km/h
1413 06-01-2004 23:08:00 4.8 C 5.57 g/m*3 4.8 C 0 km/h
1414 06-01-2004 23:20:00 4.8 C 5.57 g/m*3 4.8 C 0 km/h
1415 06-01-2004 23:32:01 4.8 C 5.57 g/m*3 4.8 C 0 km/h
1416 06-01-2004 23:44:01 4.6 C 5.49 g/m*3 4.6 C 0 km/h
1417 06-01-2004 23:56:01 4.6 C 5.56 g/m*3 4.6 C 0 km/h
1418 07-01-2004 00:08:00 4.5 C 5.52 g/m*3 4.5 C 0 km/h
1419 07-01-2004 00:20:00 4.5 C 5.52 g/m*3 4.5 C 0 km/h
1420 07-01-2004 00:32:01 4.5 C 5.59 g/m*3 4.5 C 0 km/h
1421 07-01-2004 00:44:01 4.6 C 5.56 g/m*3 4.6 C 0 km/h
1422 07-01-2004 00:56:01 4.7 C 5.6 g/m*3 4.7 C 0 km/h
1423 07-01-2004 01:06:17 4.8 C 5.63 g/m*3 4.8 C 0 km/h
1424 07-01-2004 01:18:17 4.9 C 5.67 g/m*3 4.9 C 0 km/h
1425 07-01-2004 01:30:47 4.9 C 5.67 g/m*3 4.9 C 0 km/h
Sensor: Nr:Datum:Temp:Abs-Feuchte:Windchill:Wind:
Aussen-T/F 1426 07-01-2004 01:42:47 4.8 C 5.63 g/m*3 4.8 C 0 km/h
1427 07-01-2004 01:54:47 4.6 C 5.56 g/m*3 4.6 C 0 km/h
1428 07-01-2004 02:06:00 4.6 C 5.56 g/m*3 4.6 C 0 km/h
1429 07-01-2004 02:18:00 4.6 C 5.56 g/m*3 4.6 C 0 km/h
1430 07-01-2004 02:30:00 4.7 C 5.6 g/m*3 4.7 C 0 km/h
1431 07-01-2004 02:42:01 4.6 C 5.56 g/m*3 4.6 C 0 km/h
1432 07-01-2004 02:54:01 4.5 C 5.52 g/m*3 4.5 C 0 km/h
1433 07-01-2004 03:06:00 4.4 C 5.48 g/m*3 4.4 C 0 km/h
1434 07-01-2004 03:18:00 4.2 C 5.41 g/m*3 4.2 C 0 km/h
1435 07-01-2004 03:30:00 4.1 C 5.44 g/m*3 4.1 C 0 km/h
1436 07-01-2004 03:42:00 4.3 C 5.51 g/m*3 4.3 C 0 km/h
1437 07-01-2004 03:54:00 4.3 C 5.51 g/m*3 4.3 C 0 km/h
1438 07-01-2004 04:06:00 4.2 C 5.48 g/m*3 4.2 C 0 km/h
1439 07-01-2004 04:18:00 4.1 C 5.44 g/m*3 4.1 C 0 km/h
1440 07-01-2004 04:30:00 4.1 C 5.5 g/m*3 4.1 C 0 km/h
1441 07-01-2004 04:42:01 4.2 C 5.54 g/m*3 4.2 C 0 km/h
1442 07-01-2004 04:54:01 4.4 C 5.62 g/m*3 4.4 C 0 km/h
1443 07-01-2004 05:06:00 4.5 C 5.59 g/m*3 4.5 C 0 km/h
1444 07-01-2004 05:18:00 4.6 C 5.62 g/m*3 4.6 C 0 km/h
1445 07-01-2004 05:30:01 4.7 C 5.66 g/m*3 4.7 C 0 km/h
1446 07-01-2004 05:42:00 4.9 C 5.67 g/m*3 4.9 C 0 km/h
1447 07-01-2004 05:54:00 5 C 5.64 g/m*3 5 C 0 km/h
1448 07-01-2004 06:06:00 5.1 C 5.61 g/m*3 5.1 C 0 km/h
1449 07-01-2004 06:18:00 5.2 C 5.58 g/m*3 5.2 C 0 km/h
1450 07-01-2004 06:30:00 5.1 C 5.54 g/m*3 5.1 C 0 km/h
Sensor: Nr:Datum:Temp:Abs-Feuchte:Windchill:Wind:
Aussen-T/F 1451 07-01-2004 06:42:01 5.1 C 5.54 g/m*3 5.1 C 0 km/h
1452 07-01-2004 06:54:01 5 C 5.5 g/m*3 5 C 0 km/h
1453 07-01-2004 07:06:01 5 C 5.5 g/m*3 5 C 0 km/h
1454 07-01-2004 07:18:01 4.9 C 5.6 g/m*3 4.9 C 0 km/h
1455 07-01-2004 07:30:01 4.8 C 5.57 g/m*3 4.8 C 0 km/h
1456 07-01-2004 07:42:00 4.9 C 5.6 g/m*3 4.9 C 0 km/h
1457 07-01-2004 07:54:00 5 C 5.57 g/m*3 5 C 0 km/h
1458 07-01-2004 08:06:00 5.1 C 5.54 g/m*3 5.1 C 0 km/h
1459 07-01-2004 08:18:00 5 C 5.5 g/m*3 5 C 0 km/h
1460 07-01-2004 08:30:00 5.2 C 5.58 g/m*3 5.2 C 0 km/h
1461 07-01-2004 08:42:00 5.2 C 5.58 g/m*3 5.2 C 0 km/h
1462 07-01-2004 08:54:00 5.2 C 5.58 g/m*3 5.2 C 0 km/h
1463 07-01-2004 09:06:01 5.1 C 5.54 g/m*3 5.1 C 0 km/h
1464 07-01-2004 09:18:01 5.1 C 5.54 g/m*3 5.1 C 0 km/h
1465 07-01-2004 09:30:01 5.1 C 5.54 g/m*3 5.1 C 0 km/h
1466 07-01-2004 09:42:01 5.1 C 5.61 g/m*3 5.1 C 0 km/h
1467 07-01-2004 09:54:01 5.3 C 5.68 g/m*3 5.3 C 0 km/h
1468 07-01-2004 10:06:00 5.6 C 5.8 g/m*3 5.6 C 0 km/h
1469 07-01-2004 10:18:00 5.9 C 5.84 g/m*3 5.9 C 0 km/h
1470 07-01-2004 10:30:00 5.7 C 5.69 g/m*3 5.7 C 0 km/h
1471 07-01-2004 10:42:00 5.6 C 5.73 g/m*3 5.6 C 0 km/h
1472 07-01-2004 10:54:00 5.6 C 5.73 g/m*3 5.6 C 0 km/h
1473 07-01-2004 11:06:00 5.4 C 5.65 g/m*3 5.4 C 0 km/h
1474 07-01-2004 11:18:00 5.5 C 5.76 g/m*3 5.5 C 0 km/h
1475 07-01-2004 11:30:00 6.1 C 5.92 g/m*3 6.1 C 0 km/h
Sensor: Nr:Datum:Temp:Abs-Feuchte:Windchill:Wind:
Aussen-T/F 1476 07-01-2004 11:42:01 6.6 C 5.89 g/m*3 6.6 C 0 km/h
1477 07-01-2004 11:54:01 6.6 C 5.89 g/m*3 6.6 C 0 km/h
1478 07-01-2004 12:06:01 6.7 C 5.85 g/m*3 6.7 C 0 km/h
1479 07-01-2004 12:18:01 6.7 C 5.85 g/m*3 6.7 C 0 km/h
1480 07-01-2004 12:30:01 6.7 C 5.85 g/m*3 6.7 C 0 km/h
1481 07-01-2004 12:42:00 6.7 C 5.85 g/m*3 6.7 C 0 km/h
1482 07-01-2004 12:54:00 6.6 C 5.89 g/m*3 6.6 C 0 km/h
1483 07-01-2004 13:06:00 6.8 C 5.97 g/m*3 6.8 C 0 km/h
1484 07-01-2004 13:18:00 7 C 5.89 g/m*3 7 C 0 km/h
1485 07-01-2004 13:30:00 6.9 C 6 g/m*3 6.9 C 0 km/h
1486 07-01-2004 13:42:00 6.9 C 6 g/m*3 6.9 C 0 km/h
1487 07-01-2004 13:54:00 7.2 C 6.04 g/m*3 7.2 C 0 km/h
1488 07-01-2004 14:06:01 7.4 C 6.04 g/m*3 7.4 C 0 km/h
1489 07-01-2004 14:18:01 7.4 C 5.96 g/m*3 7.4 C 0 km/h
1490 07-01-2004 14:30:01 7.5 C 6 g/m*3 7.5 C 0 km/h
1491 07-01-2004 14:42:00 7.6 C 6.04 g/m*3 7.6 C 0 km/h
1492 07-01-2004 14:54:00 7.6 C 6.04 g/m*3 7.6 C 0 km/h
1493 07-01-2004 15:06:00 7.6 C 5.96 g/m*3 7.6 C 0 km/h
1494 07-01-2004 15:18:00 7.5 C 6 g/m*3 7.5 C 0 km/h
1495 07-01-2004 15:30:00 7.3 C 6 g/m*3 7.3 C 0 km/h
1496 07-01-2004 15:42:00 7.2 C 5.97 g/m*3 7.2 C 0 km/h
1497 07-01-2004 15:54:00 7 C 5.89 g/m*3 7 C 0 km/h
1498 07-01-2004 16:06:01 7 C 5.89 g/m*3 7 C 0 km/h
1499 07-01-2004 16:18:01 7 C 5.97 g/m*3 7 C 0 km/h
1500 07-01-2004 16:30:01 6.9 C 6 g/m*3 6.9 C 0 km/h
Sensor: Nr:Datum:Temp:Abs-Feuchte:Windchill:Wind:
Aussen-T/F 1501 07-01-2004 16:42:01 6.8 C 6.04 g/m*3 6.8 C 0 km/h
1502 07-01-2004 16:54:01 6.8 C 6.04 g/m*3 6.8 C 0 km/h
1503 07-01-2004 17:06:00 6.7 C 6 g/m*3 6.7 C 0 km/h
1504 07-01-2004 17:18:00 6.5 C 5.92 g/m*3 6.5 C 0 km/h
1505 07-01-2004 17:30:00 6.5 C 6 g/m*3 6.5 C 0 km/h
1506 07-01-2004 17:42:46 6.3 C 5.92 g/m*3 6.3 C 0 km/h
1507 07-01-2004 17:57:00 6.3 C 5.92 g/m*3 6.3 C 0 km/h
1508 07-01-2004 18:09:00 6.3 C 5.92 g/m*3 6.3 C 0 km/h
1509 07-01-2004 18:21:57 6.2 C 5.88 g/m*3 6.2 C 0 km/h
1510 07-01-2004 18:33:57 6.2 C 5.96 g/m*3 6.2 C 0 km/h
1511 07-01-2004 18:45:01 6.2 C 5.96 g/m*3 6.2 C 0 km/h
1512 07-01-2004 18:57:01 6.1 C 5.92 g/m*3 6.1 C 0 km/h
1513 07-01-2004 19:09:01 6.1 C 5.92 g/m*3 6.1 C 0 km/h
1514 07-01-2004 19:21:01 6 C 5.88 g/m*3 6 C 0 km/h
1515 07-01-2004 19:33:00 6.1 C 5.92 g/m*3 6.1 C 0 km/h
1516 07-01-2004 19:45:00 6.1 C 5.92 g/m*3 6.1 C 0 km/h
1517 07-01-2004 19:57:00 6.2 C 5.88 g/m*3 6.2 C 0 km/h
1518 07-01-2004 20:09:59 6.2 C 5.81 g/m*3 6.2 C 0 km/h
1519 07-01-2004 20:21:59 6.2 C 5.81 g/m*3 6.2 C 0 km/h
1520 07-01-2004 20:33:01 6.2 C 5.81 g/m*3 6.2 C 0 km/h
1521 07-01-2004 20:45:01 6.2 C 5.81 g/m*3 6.2 C 0 km/h
1522 07-01-2004 20:57:01 6 C 5.73 g/m*3 6 C 0 km/h
1523 07-01-2004 21:09:00 5.8 C 5.73 g/m*3 5.8 C 0 km/h
1524 07-01-2004 21:21:00 5.6 C 5.66 g/m*3 5.6 C 0 km/h
1525 07-01-2004 21:33:01 5.6 C 5.66 g/m*3 5.6 C 0 km/h
Sensor: Nr:Datum:Temp:Abs-Feuchte:Windchill:Wind:
Aussen-T/F 1526 07-01-2004 21:45:01 5.6 C 5.73 g/m*3 5.6 C 0 km/h
1527 07-01-2004 21:57:01 5.6 C 5.73 g/m*3 5.6 C 0 km/h
1528 07-01-2004 22:09:01 5.6 C 5.73 g/m*3 5.6 C 0 km/h
1529 07-01-2004 22:21:01 5.5 C 5.69 g/m*3 5.5 C 0 km/h
1530 07-01-2004 22:33:00 5.4 C 5.58 g/m*3 5.4 C 0 km/h
1531 07-01-2004 22:45:00 5.4 C 5.65 g/m*3 5.4 C 0 km/h
1532 07-01-2004 22:57:00 5.4 C 5.58 g/m*3 5.4 C 0 km/h
1533 07-01-2004 23:09:59 5.4 C 5.58 g/m*3 5.4 C 0 km/h
1534 07-01-2004 23:21:59 5.4 C 5.58 g/m*3 5.4 C 0 km/h
1535 07-01-2004 23:33:01 5.4 C 5.58 g/m*3 5.4 C 0 km/h
1536 07-01-2004 23:45:01 5.4 C 5.51 g/m*3 5.4 C 0 km/h
1537 07-01-2004 23:57:01 5.4 C 5.51 g/m*3 5.4 C 0 km/h
1538 08-01-2004 00:09:01 5.3 C 5.48 g/m*3 5.3 C 0 km/h
1539 08-01-2004 00:21:01 5.2 C 5.44 g/m*3 5.2 C 0 km/h
1540 08-01-2004 00:33:00 5.1 C 5.4 g/m*3 5.1 C 0 km/h
1541 08-01-2004 00:45:00 4.9 C 5.33 g/m*3 4.9 C 0 km/h
1542 08-01-2004 00:57:00 4.8 C 5.3 g/m*3 4.8 C 0 km/h
1543 08-01-2004 01:09:58 4.9 C 5.33 g/m*3 4.9 C 0 km/h
1544 08-01-2004 01:21:58 4.9 C 5.33 g/m*3 4.9 C 0 km/h
1545 08-01-2004 01:33:01 4.8 C 5.3 g/m*3 4.8 C 0 km/h
1546 08-01-2004 01:45:01 4.8 C 5.3 g/m*3 4.8 C 0 km/h
1547 08-01-2004 01:57:01 4.7 C 5.26 g/m*3 4.7 C 0 km/h
1548 08-01-2004 02:09:01 4.6 C 5.23 g/m*3 4.6 C 0 km/h
1549 08-01-2004 02:21:01 4.6 C 5.23 g/m*3 4.6 C 0 km/h
1550 08-01-2004 02:34:00 4.7 C 5.26 g/m*3 4.7 C 0 km/h
Sensor: Nr:Datum:Temp:Abs-Feuchte:Windchill:Wind:
Aussen-T/F 1551 08-01-2004 02:45:00 4.7 C 5.26 g/m*3 4.7 C 0 km/h
1552 08-01-2004 02:57:00 4.6 C 5.23 g/m*3 4.6 C 0 km/h
1553 08-01-2004 03:10:00 4.6 C 5.23 g/m*3 4.6 C 0 km/h
1554 08-01-2004 03:22:01 4.6 C 5.23 g/m*3 4.6 C 0 km/h
1555 08-01-2004 03:34:00 4.6 C 5.23 g/m*3 4.6 C 0 km/h
1556 08-01-2004 03:46:00 4.5 C 5.19 g/m*3 4.5 C 0 km/h
1557 08-01-2004 03:58:00 4.6 C 5.23 g/m*3 4.6 C 0 km/h
1558 08-01-2004 04:10:01 4.6 C 5.23 g/m*3 4.6 C 0 km/h
1559 08-01-2004 04:22:01 4.7 C 5.26 g/m*3 4.7 C 0 km/h
1560 08-01-2004 04:34:00 4.6 C 5.29 g/m*3 4.6 C 0 km/h
1561 08-01-2004 04:46:00 4.6 C 5.29 g/m*3 4.6 C 0 km/h
1562 08-01-2004 04:58:00 4.6 C 5.29 g/m*3 4.6 C 0 km/h
1563 08-01-2004 05:10:00 4.6 C 5.29 g/m*3 4.6 C 0 km/h
1564 08-01-2004 05:22:00 4.6 C 5.29 g/m*3 4.6 C 0 km/h
1565 08-01-2004 05:34:00 4.6 C 5.29 g/m*3 4.6 C 0 km/h
1566 08-01-2004 05:46:01 4.6 C 5.29 g/m*3 4.6 C 0 km/h
1567 08-01-2004 05:58:01 4.6 C 5.29 g/m*3 4.6 C 0 km/h
1568 08-01-2004 06:10:00 4.7 C 5.33 g/m*3 4.7 C 0 km/h
1569 08-01-2004 06:22:00 4.7 C 5.26 g/m*3 4.7 C 0 km/h
1570 08-01-2004 06:33:23 4.7 C 5.26 g/m*3 4.7 C 0 km/h
1571 08-01-2004 06:45:23 4.8 C 5.23 g/m*3 4.8 C 0 km/h
1572 08-01-2004 07:07:45 4.7 C 5.13 g/m*3 4.7 C 0 km/h
1573 08-01-2004 07:19:44 4.6 C 5.16 g/m*3 4.6 C 0 km/h
1574 08-01-2004 07:31:44 4.7 C 5.2 g/m*3 4.7 C 0 km/h
1575 08-01-2004 07:43:01 4.7 C 5.26 g/m*3 4.7 C 0 km/h
Sensor: Nr:Datum:Temp:Abs-Feuchte:Windchill:Wind:
Aussen-T/F 1576 08-01-2004 07:55:01 4.7 C 5.26 g/m*3 4.7 C 0 km/h
1577 08-01-2004 08:07:01 4.7 C 5.26 g/m*3 4.7 C 0 km/h
1578 08-01-2004 08:19:01 4.7 C 5.26 g/m*3 4.7 C 0 km/h
1579 08-01-2004 08:31:01 4.7 C 5.26 g/m*3 4.7 C 0 km/h
1580 08-01-2004 08:43:00 4.6 C 5.23 g/m*3 4.6 C 0 km/h
1581 08-01-2004 08:55:00 4.7 C 5.26 g/m*3 4.7 C 0 km/h
1582 08-01-2004 09:07:59 4.6 C 5.16 g/m*3 4.6 C 0 km/h
1583 08-01-2004 09:19:59 4.6 C 5.16 g/m*3 4.6 C 0 km/h
1584 08-01-2004 09:31:01 4.6 C 5.16 g/m*3 4.6 C 0 km/h
1585 08-01-2004 09:43:01 4.6 C 5.1 g/m*3 4.6 C 0 km/h
1586 08-01-2004 09:55:01 4.8 C 5.16 g/m*3 4.8 C 0 km/h
1587 08-01-2004 10:07:01 5 C 5.1 g/m*3 5 C 0 km/h
1588 08-01-2004 10:19:01 5 C 4.96 g/m*3 5 C 0 km/h
1589 08-01-2004 10:31:01 5 C 4.89 g/m*3 5 C 0 km/h
1590 08-01-2004 10:43:00 5.2 C 4.89 g/m*3 5.2 C 0 km/h
1591 08-01-2004 10:55:00 5.4 C 4.95 g/m*3 5.4 C 0 km/h
1592 08-01-2004 11:07:58 5.3 C 4.85 g/m*3 5.3 C 0 km/h
1593 08-01-2004 11:19:58 5.3 C 4.85 g/m*3 5.3 C 0 km/h
1594 08-01-2004 11:31:00 5.3 C 4.85 g/m*3 5.3 C 0 km/h
1595 08-01-2004 11:43:00 5.6 C 4.95 g/m*3 5.6 C 0 km/h
1596 08-01-2004 11:55:00 5.6 C 5.02 g/m*3 5.6 C 0 km/h
1597 08-01-2004 12:07:00 5.5 C 5.06 g/m*3 5.5 C 0 km/h
1598 08-01-2004 12:19:00 5.2 C 5.03 g/m*3 5.2 C 0 km/h
1599 08-01-2004 12:31:00 5.1 C 4.99 g/m*3 5.1 C 0 km/h
1600 08-01-2004 12:43:01 5 C 5.03 g/m*3 5 C 0 km/h
Sensor: Nr:Datum:Temp:Abs-Feuchte:Windchill:Wind:
Aussen-T/F 1601 08-01-2004 12:55:01 5.1 C 5.06 g/m*3 5.1 C 0 km/h
1602 08-01-2004 13:07:01 5.2 C 5.1 g/m*3 5.2 C 0 km/h
1603 08-01-2004 13:19:01 5.2 C 5.1 g/m*3 5.2 C 0 km/h
1604 08-01-2004 13:31:01 5.3 C 5.13 g/m*3 5.3 C 0 km/h
1605 08-01-2004 13:43:01 5.6 C 5.16 g/m*3 5.6 C 0 km/h
1606 08-01-2004 13:55:01 5.4 C 5.02 g/m*3 5.4 C 0 km/h
1607 08-01-2004 14:07:02 5.3 C 5.06 g/m*3 5.3 C 0 km/h
1608 08-01-2004 14:19:02 5.4 C 5.09 g/m*3 5.4 C 0 km/h
1609 08-01-2004 14:31:02 5.3 C 5.06 g/m*3 5.3 C 0 km/h
1610 08-01-2004 14:43:01 5 C 4.96 g/m*3 5 C 0 km/h
1611 08-01-2004 14:55:01 4.9 C 5.06 g/m*3 4.9 C 0 km/h
1612 08-01-2004 15:07:59 4.9 C 5 g/m*3 4.9 C 0 km/h
1613 08-01-2004 15:19:59 4.7 C 4.93 g/m*3 4.7 C 0 km/h
1614 08-01-2004 15:31:01 4.7 C 5 g/m*3 4.7 C 0 km/h
1615 08-01-2004 15:43:01 4.5 C 4.93 g/m*3 4.5 C 0 km/h
1616 08-01-2004 15:55:01 4.5 C 4.93 g/m*3 4.5 C 0 km/h
1617 08-01-2004 16:07:00 4.4 C 4.9 g/m*3 4.4 C 0 km/h
1618 08-01-2004 16:19:00 4.4 C 4.9 g/m*3 4.4 C 0 km/h
1619 08-01-2004 16:31:00 3.9 C 5.05 g/m*3 3.9 C 0 km/h
1620 08-01-2004 16:43:01 3.7 C 5.11 g/m*3 3.7 C 0 km/h
1621 08-01-2004 16:55:01 3.5 C 5.1 g/m*3 3.5 C 0 km/h
1622 08-01-2004 17:07:01 3.4 C 5.13 g/m*3 3.4 C 0 km/h
1623 08-01-2004 17:19:01 3.4 C 5.13 g/m*3 3.4 C 0 km/h
1624 08-01-2004 17:31:01 3.4 C 5.13 g/m*3 3.4 C 0 km/h
1625 08-01-2004 17:43:00 3.4 C 5.19 g/m*3 3.4 C 0 km/h
Sensor: Nr:Datum:Temp:Abs-Feuchte:Windchill:Wind:
Aussen-T/F 1626 08-01-2004 17:55:00 3.5 C 5.16 g/m*3 3.5 C 0 km/h
1627 08-01-2004 18:07:59 3.5 C 5.16 g/m*3 3.5 C 0 km/h
1628 08-01-2004 18:19:59 3.5 C 5.1 g/m*3 3.5 C 0 km/h
1629 08-01-2004 18:31:01 3.6 C 5.14 g/m*3 3.6 C 0 km/h
1630 08-01-2004 18:43:01 3.6 C 5.08 g/m*3 3.6 C 0 km/h
1631 08-01-2004 18:55:01 3.6 C 5.08 g/m*3 3.6 C 0 km/h
1632 08-01-2004 19:07:01 3.5 C 5.04 g/m*3 3.5 C 0 km/h
1633 08-01-2004 19:19:01 3.5 C 5.04 g/m*3 3.5 C 0 km/h
1634 08-01-2004 19:31:01 3.6 C 5.08 g/m*3 3.6 C 0 km/h
1635 08-01-2004 19:43:01 3.5 C 5.04 g/m*3 3.5 C 0 km/h
1636 08-01-2004 19:55:01 3.5 C 5.1 g/m*3 3.5 C 0 km/h
1637 08-01-2004 20:07:59 3.4 C 5.13 g/m*3 3.4 C 0 km/h
1638 08-01-2004 20:19:59 3.4 C 5.13 g/m*3 3.4 C 0 km/h
1639 08-01-2004 20:31:01 3.4 C 5.13 g/m*3 3.4 C 0 km/h
1640 08-01-2004 20:43:01 3.4 C 5.07 g/m*3 3.4 C 0 km/h
1641 08-01-2004 20:55:01 3.4 C 5.07 g/m*3 3.4 C 0 km/h
1642 08-01-2004 21:07:02 3.5 C 5.1 g/m*3 3.5 C 0 km/h
1643 08-01-2004 21:19:02 3.5 C 5.16 g/m*3 3.5 C 0 km/h
1644 08-01-2004 21:31:02 3.5 C 5.23 g/m*3 3.5 C 0 km/h
1645 08-01-2004 21:43:02 3.5 C 5.23 g/m*3 3.5 C 0 km/h
1646 08-01-2004 21:55:02 3.5 C 5.23 g/m*3 3.5 C 0 km/h
1647 08-01-2004 22:07:02 3.6 C 5.32 g/m*3 3.6 C 0 km/h
1648 08-01-2004 22:19:02 3.7 C 5.36 g/m*3 3.7 C 0 km/h
1649 08-01-2004 22:31:02 3.7 C 5.36 g/m*3 3.7 C 0 km/h
1650 08-01-2004 22:43:02 3.7 C 5.36 g/m*3 3.7 C 0 km/h
Sensor: Nr:Datum:Temp:Abs-Feuchte:Windchill:Wind:
Aussen-T/F 1651 08-01-2004 22:55:02 3.7 C 5.36 g/m*3 3.7 C 0 km/h
1652 08-01-2004 23:07:03 3.7 C 5.36 g/m*3 3.7 C 0 km/h
1653 08-01-2004 23:19:03 3.7 C 5.36 g/m*3 3.7 C 0 km/h
1654 08-01-2004 23:31:03 3.7 C 5.36 g/m*3 3.7 C 0 km/h
1655 08-01-2004 23:43:00 3.7 C 5.36 g/m*3 3.7 C 0 km/h
1656 08-01-2004 23:55:00 3.7 C 5.36 g/m*3 3.7 C 0 km/h
1657 09-01-2004 00:07:58 3.7 C 5.36 g/m*3 3.7 C 0 km/h
1658 09-01-2004 00:19:58 3.7 C 5.36 g/m*3 3.7 C 0 km/h
1659 09-01-2004 00:31:01 3.7 C 5.36 g/m*3 3.7 C 0 km/h
1660 09-01-2004 00:43:01 3.7 C 5.36 g/m*3 3.7 C 0 km/h
1661 09-01-2004 00:55:01 3.7 C 5.36 g/m*3 3.7 C 0 km/h
1662 09-01-2004 01:07:01 3.7 C 5.36 g/m*3 3.7 C 0 km/h
1663 09-01-2004 01:19:01 3.7 C 5.36 g/m*3 3.7 C 0 km/h
1664 09-01-2004 01:31:01 3.7 C 5.36 g/m*3 3.7 C 0 km/h
1665 09-01-2004 01:43:01 3.7 C 5.36 g/m*3 3.7 C 0 km/h
1666 09-01-2004 01:55:01 3.7 C 5.36 g/m*3 3.7 C 0 km/h
1667 09-01-2004 02:07:01 3.7 C 5.36 g/m*3 3.7 C 0 km/h
1668 09-01-2004 02:19:01 3.7 C 5.36 g/m*3 3.7 C 0 km/h
1669 09-01-2004 02:31:01 3.7 C 5.36 g/m*3 3.7 C 0 km/h
1670 09-01-2004 02:43:00 3.7 C 5.36 g/m*3 3.7 C 0 km/h
1671 09-01-2004 02:55:00 3.7 C 5.36 g/m*3 3.7 C 0 km/h
1672 09-01-2004 03:08:01 3.7 C 5.36 g/m*3 3.7 C 0 km/h
1673 09-01-2004 03:20:01 3.7 C 5.36 g/m*3 3.7 C 0 km/h
1674 09-01-2004 03:32:00 3.7 C 5.36 g/m*3 3.7 C 0 km/h
1675 09-01-2004 03:44:00 3.7 C 5.36 g/m*3 3.7 C 0 km/h
Sensor: Nr:Datum:Temp:Abs-Feuchte:Windchill:Wind:
Aussen-T/F 1676 09-01-2004 03:56:00 3.7 C 5.36 g/m*3 3.7 C 0 km/h
1677 09-01-2004 04:08:01 3.7 C 5.36 g/m*3 3.7 C 0 km/h
1678 09-01-2004 04:20:01 3.7 C 5.36 g/m*3 3.7 C 0 km/h
1679 09-01-2004 04:32:00 3.7 C 5.36 g/m*3 3.7 C 0 km/h
1680 09-01-2004 04:44:00 3.7 C 5.36 g/m*3 3.7 C 0 km/h
1681 09-01-2004 04:56:00 4.9 C 5.87 g/m*3 4.9 C 0 km/h
1682 09-01-2004 05:08:01 5 C 5.91 g/m*3 5 C 0 km/h
1683 09-01-2004 05:20:01 5 C 5.91 g/m*3 5 C 0 km/h
1684 09-01-2004 05:32:00 4.9 C 5.94 g/m*3 4.9 C 0 km/h
1685 09-01-2004 05:44:00 4.9 C 5.94 g/m*3 4.9 C 0 km/h
1686 09-01-2004 05:56:01 5 C 5.91 g/m*3 5 C 0 km/h
1687 09-01-2004 06:08:00 5 C 5.98 g/m*3 5 C 0 km/h
1688 09-01-2004 06:20:00 5 C 5.98 g/m*3 5 C 0 km/h
1689 09-01-2004 06:32:00 5.2 C 6.13 g/m*3 5.2 C 0 km/h
1690 09-01-2004 06:44:00 5.2 C 6.13 g/m*3 5.2 C 0 km/h
1691 09-01-2004 06:56:00 5.1 C 6.09 g/m*3 5.1 C 0 km/h
1692 09-01-2004 07:26:45 5.3 C 6.24 g/m*3 5.3 C 0 km/h
1693 09-01-2004 07:38:01 5.1 C 6.09 g/m*3 5.1 C 0 km/h
1694 09-01-2004 07:50:01 5 C 6.05 g/m*3 5 C 0 km/h
1695 09-01-2004 08:02:01 5.2 C 6.13 g/m*3 5.2 C 0 km/h
1696 09-01-2004 08:14:01 5.3 C 6.17 g/m*3 5.3 C 0 km/h
1697 09-01-2004 08:26:01 5.2 C 6.13 g/m*3 5.2 C 0 km/h
1698 09-01-2004 08:38:00 5.2 C 6.13 g/m*3 5.2 C 0 km/h
1699 09-01-2004 08:50:00 5.3 C 6.17 g/m*3 5.3 C 0 km/h
1700 09-01-2004 09:02:59 5.4 C 6.21 g/m*3 5.4 C 0 km/h
Sensor: Nr:Datum:Temp:Abs-Feuchte:Windchill:Wind:
Aussen-T/F 1701 09-01-2004 09:14:59 5.4 C 6.21 g/m*3 5.4 C 0 km/h
1702 09-01-2004 09:26:59 5.6 C 6.29 g/m*3 5.6 C 0 km/h
1703 09-01-2004 09:38:01 5.8 C 6.38 g/m*3 5.8 C 0 km/h
1704 09-01-2004 09:50:01 5.8 C 6.3 g/m*3 5.8 C 0 km/h
1705 09-01-2004 10:02:01 6 C 6.31 g/m*3 6 C 0 km/h
1706 09-01-2004 10:14:01 5.9 C 6.27 g/m*3 5.9 C 0 km/h
1707 09-01-2004 10:26:01 5.9 C 6.13 g/m*3 5.9 C 0 km/h
1708 09-01-2004 10:38:00 6.1 C 5.92 g/m*3 6.1 C 0 km/h
1709 09-01-2004 10:50:00 6.6 C 5.89 g/m*3 6.6 C 0 km/h
1710 09-01-2004 11:02:59 6.9 C 6 g/m*3 6.9 C 0 km/h
1711 09-01-2004 11:14:59 7.2 C 5.97 g/m*3 7.2 C 0 km/h
1712 09-01-2004 11:26:59 7.1 C 5.85 g/m*3 7.1 C 0 km/h
1713 09-01-2004 11:38:01 7.2 C 5.89 g/m*3 7.2 C 0 km/h
1714 09-01-2004 11:50:01 7.4 C 6.04 g/m*3 7.4 C 0 km/h
1715 09-01-2004 12:02:01 7.5 C 6 g/m*3 7.5 C 0 km/h
1716 09-01-2004 12:14:01 7.7 C 6 g/m*3 7.7 C 0 km/h
1717 09-01-2004 12:26:01 7.7 C 5.92 g/m*3 7.7 C 0 km/h
1718 09-01-2004 12:38:00 7.6 C 6.04 g/m*3 7.6 C 0 km/h
1719 09-01-2004 12:50:00 7.6 C 5.96 g/m*3 7.6 C 0 km/h
1720 09-01-2004 13:02:59 7.6 C 5.96 g/m*3 7.6 C 0 km/h
1721 09-01-2004 13:14:59 7.5 C 5.92 g/m*3 7.5 C 0 km/h
1722 09-01-2004 13:26:59 7.4 C 5.88 g/m*3 7.4 C 0 km/h
1723 09-01-2004 13:38:01 7.6 C 5.88 g/m*3 7.6 C 0 km/h
1724 09-01-2004 13:50:01 7.7 C 5.76 g/m*3 7.7 C 0 km/h
1725 09-01-2004 14:02:00 7.5 C 5.84 g/m*3 7.5 C 0 km/h
Sensor: Nr:Datum:Temp:Abs-Feuchte:Windchill:Wind:
Aussen-T/F 1726 09-01-2004 14:14:00 7.1 C 5.93 g/m*3 7.1 C 0 km/h
1727 09-01-2004 14:26:00 6.8 C 6.04 g/m*3 6.8 C 0 km/h
1728 09-01-2004 14:38:01 6.7 C 6 g/m*3 6.7 C 0 km/h
1729 09-01-2004 14:50:01 7.1 C 6.01 g/m*3 7.1 C 0 km/h
1730 09-01-2004 15:02:01 7.4 C 5.88 g/m*3 7.4 C 0 km/h
1731 09-01-2004 15:14:01 7.3 C 5.61 g/m*3 7.3 C 0 km/h
1732 09-01-2004 15:26:01 7.2 C 5.57 g/m*3 7.2 C 0 km/h
1733 09-01-2004 15:38:00 7.4 C 5.49 g/m*3 7.4 C 0 km/h
1734 09-01-2004 15:50:00 7.4 C 5.41 g/m*3 7.4 C 0 km/h
1735 09-01-2004 16:02:58 7.3 C 5.37 g/m*3 7.3 C 0 km/h
1736 09-01-2004 16:14:58 7 C 5.35 g/m*3 7 C 0 km/h
1737 09-01-2004 16:26:58 6.8 C 5.51 g/m*3 6.8 C 0 km/h
1738 09-01-2004 16:38:01 6.7 C 5.55 g/m*3 6.7 C 0 km/h
1739 09-01-2004 16:50:01 7 C 5.42 g/m*3 7 C 0 km/h
1740 09-01-2004 17:02:01 7 C 5.42 g/m*3 7 C 0 km/h
1741 09-01-2004 17:14:01 6.5 C 5.62 g/m*3 6.5 C 0 km/h
1742 09-01-2004 17:26:01 5.9 C 5.77 g/m*3 5.9 C 0 km/h
1743 09-01-2004 17:38:00 5.6 C 5.59 g/m*3 5.6 C 0 km/h
1744 09-01-2004 17:50:00 5.4 C 5.65 g/m*3 5.4 C 0 km/h
1745 09-01-2004 18:02:59 5.1 C 5.61 g/m*3 5.1 C 0 km/h
1746 09-01-2004 18:14:59 4.8 C 5.57 g/m*3 4.8 C 0 km/h
1747 09-01-2004 18:26:59 4.6 C 5.56 g/m*3 4.6 C 0 km/h
1748 09-01-2004 18:38:01 5 C 5.71 g/m*3 5 C 0 km/h
1749 09-01-2004 18:50:01 5.4 C 5.72 g/m*3 5.4 C 0 km/h
1750 09-01-2004 19:02:01 5.6 C 5.73 g/m*3 5.6 C 0 km/h
Sensor: Nr:Datum:Temp:Abs-Feuchte:Windchill:Wind:
Aussen-T/F 1751 09-01-2004 19:14:01 5.6 C 5.59 g/m*3 5.6 C 0 km/h
1752 09-01-2004 19:26:01 5.3 C 5.41 g/m*3 5.3 C 0 km/h
1753 09-01-2004 19:38:01 5.1 C 5.13 g/m*3 5.1 C 0 km/h
1754 09-01-2004 19:50:01 4.7 C 5 g/m*3 4.7 C 0 km/h
1755 09-01-2004 20:02:59 4.4 C 4.96 g/m*3 4.4 C 0 km/h
1756 09-01-2004 20:14:59 4.4 C 4.83 g/m*3 4.4 C 0 km/h
1757 09-01-2004 20:26:59 4.3 C 4.8 g/m*3 4.3 C 0 km/h
1758 09-01-2004 20:38:01 4.5 C 4.8 g/m*3 4.5 C 0 km/h
1759 09-01-2004 20:50:01 4.5 C 4.8 g/m*3 4.5 C 0 km/h
1760 09-01-2004 21:02:00 4.7 C 4.8 g/m*3 4.7 C 0 km/h
1761 09-01-2004 21:14:00 4.6 C 4.9 g/m*3 4.6 C 0 km/h
1762 09-01-2004 21:26:00 4.8 C 4.9 g/m*3 4.8 C 0 km/h
1763 09-01-2004 21:38:01 4.7 C 4.86 g/m*3 4.7 C 0 km/h
1764 09-01-2004 21:50:01 4.7 C 4.93 g/m*3 4.7 C 0 km/h
1765 09-01-2004 22:02:01 4.5 C 4.93 g/m*3 4.5 C 0 km/h
1766 09-01-2004 22:14:01 4.5 C 5 g/m*3 4.5 C 0 km/h
1767 09-01-2004 22:26:01 4.6 C 5.03 g/m*3 4.6 C 0 km/h
1768 09-01-2004 22:38:00 4.6 C 5.03 g/m*3 4.6 C 0 km/h
1769 09-01-2004 22:50:00 4.2 C 5.03 g/m*3 4.2 C 0 km/h
1770 09-01-2004 23:02:59 3.8 C 4.96 g/m*3 3.8 C 0 km/h
1771 09-01-2004 23:14:59 3.5 C 4.86 g/m*3 3.5 C 0 km/h
1772 09-01-2004 23:26:59 3.4 C 4.83 g/m*3 3.4 C 0 km/h
1773 09-01-2004 23:38:01 3.6 C 4.89 g/m*3 3.6 C 0 km/h
1774 09-01-2004 23:50:01 3.6 C 4.89 g/m*3 3.6 C 0 km/h
1775 10-01-2004 00:02:01 3.8 C 4.96 g/m*3 3.8 C 0 km/h
Sensor: Nr:Datum:Temp:Abs-Feuchte:Windchill:Wind:
Aussen-T/F 1776 10-01-2004 00:14:01 3.8 C 4.89 g/m*3 3.8 C 0 km/h
1777 10-01-2004 00:26:01 3.9 C 4.99 g/m*3 3.9 C 0 km/h
1778 10-01-2004 00:38:01 4 C 4.96 g/m*3 4 C 0 km/h
1779 10-01-2004 00:50:01 3.9 C 4.99 g/m*3 3.9 C 0 km/h
1780 10-01-2004 01:02:01 3.7 C 4.99 g/m*3 3.7 C 0 km/h
1781 10-01-2004 01:14:01 3.6 C 4.95 g/m*3 3.6 C 0 km/h
1782 10-01-2004 01:26:01 3.8 C 5.02 g/m*3 3.8 C 0 km/h
1783 10-01-2004 01:38:00 3.7 C 4.99 g/m*3 3.7 C 0 km/h
1784 10-01-2004 01:50:00 3.7 C 5.05 g/m*3 3.7 C 0 km/h
1785 10-01-2004 02:02:58 3.7 C 5.11 g/m*3 3.7 C 0 km/h
1786 10-01-2004 02:14:58 3.8 C 5.08 g/m*3 3.8 C 0 km/h
1787 10-01-2004 02:26:58 3.9 C 5.05 g/m*3 3.9 C 0 km/h
1788 10-01-2004 02:39:02 4 C 5.02 g/m*3 4 C 0 km/h
1789 10-01-2004 02:51:02 4.2 C 4.96 g/m*3 4.2 C 0 km/h
1790 10-01-2004 03:03:02 4 C 4.96 g/m*3 4 C 0 km/h
1791 10-01-2004 03:15:02 4 C 4.96 g/m*3 4 C 0 km/h
1792 10-01-2004 03:27:02 4.2 C 5.03 g/m*3 4.2 C 0 km/h
1793 10-01-2004 03:39:00 4.2 C 4.96 g/m*3 4.2 C 0 km/h
1794 10-01-2004 03:51:00 4.3 C 4.99 g/m*3 4.3 C 0 km/h
1795 10-01-2004 04:03:59 4.4 C 4.96 g/m*3 4.4 C 0 km/h
1796 10-01-2004 04:15:59 4.4 C 4.96 g/m*3 4.4 C 0 km/h
1797 10-01-2004 04:27:59 4.4 C 4.96 g/m*3 4.4 C 0 km/h
1798 10-01-2004 04:39:01 4.3 C 4.99 g/m*3 4.3 C 0 km/h
1799 10-01-2004 04:51:01 4.2 C 4.96 g/m*3 4.2 C 0 km/h
1800 10-01-2004 05:03:00 4.2 C 4.96 g/m*3 4.2 C 0 km/h
Sensor: Nr:Datum:Temp:Abs-Feuchte:Windchill:Wind:
Aussen-T/F 1801 10-01-2004 05:15:00 4.2 C 4.96 g/m*3 4.2 C 0 km/h
1802 10-01-2004 05:27:00 4.3 C 4.99 g/m*3 4.3 C 0 km/h
1803 10-01-2004 05:39:01 4.3 C 4.99 g/m*3 4.3 C 0 km/h
1804 10-01-2004 05:51:01 4.3 C 4.99 g/m*3 4.3 C 0 km/h
1805 10-01-2004 06:03:01 4.4 C 5.03 g/m*3 4.4 C 0 km/h
1806 10-01-2004 06:15:01 4.3 C 4.99 g/m*3 4.3 C 0 km/h
1807 10-01-2004 06:27:01 4.4 C 4.96 g/m*3 4.4 C 0 km/h
1808 10-01-2004 06:39:01 4.4 C 5.03 g/m*3 4.4 C 0 km/h
1809 10-01-2004 06:51:01 4.4 C 4.96 g/m*3 4.4 C 0 km/h
1810 10-01-2004 07:03:01 4.5 C 5 g/m*3 4.5 C 0 km/h
1811 10-01-2004 07:15:01 4.5 C 4.93 g/m*3 4.5 C 0 km/h
1812 10-01-2004 07:27:01 4.6 C 4.96 g/m*3 4.6 C 0 km/h
1813 10-01-2004 07:39:00 4.6 C 4.9 g/m*3 4.6 C 0 km/h
1814 10-01-2004 07:51:00 4.5 C 4.93 g/m*3 4.5 C 0 km/h
1815 10-01-2004 08:03:59 4.6 C 4.9 g/m*3 4.6 C 0 km/h
1816 10-01-2004 08:15:59 4.6 C 4.9 g/m*3 4.6 C 0 km/h
1817 10-01-2004 08:27:59 4.6 C 4.9 g/m*3 4.6 C 0 km/h
1818 10-01-2004 08:39:02 4.6 C 4.9 g/m*3 4.6 C 0 km/h
1819 10-01-2004 08:51:02 4.7 C 4.86 g/m*3 4.7 C 0 km/h
1820 10-01-2004 09:03:02 4.6 C 4.9 g/m*3 4.6 C 0 km/h
1821 10-01-2004 09:15:02 4.4 C 4.83 g/m*3 4.4 C 0 km/h
1822 10-01-2004 09:27:02 4.2 C 4.83 g/m*3 4.2 C 0 km/h
1823 10-01-2004 09:39:00 4 C 4.83 g/m*3 4 C 0 km/h
1824 10-01-2004 09:51:00 3.9 C 4.86 g/m*3 3.9 C 0 km/h
1825 10-01-2004 10:03:58 3.8 C 4.83 g/m*3 3.8 C 0 km/h
Sensor: Nr:Datum:Temp:Abs-Feuchte:Windchill:Wind:
Aussen-T/F 1826 10-01-2004 10:15:58 3.8 C 4.83 g/m*3 3.8 C 0 km/h
1827 10-01-2004 10:27:58 3.7 C 4.86 g/m*3 3.7 C 0 km/h
1828 10-01-2004 10:39:01 4.3 C 5.06 g/m*3 4.3 C 0 km/h
1829 10-01-2004 10:51:01 4.9 C 5.06 g/m*3 4.9 C 0 km/h
1830 10-01-2004 11:03:01 5.1 C 4.86 g/m*3 5.1 C 0 km/h
1831 10-01-2004 11:15:01 4.9 C 5 g/m*3 4.9 C 0 km/h
1832 10-01-2004 11:27:01 5.1 C 4.86 g/m*3 5.1 C 0 km/h
1833 10-01-2004 11:39:02 5.1 C 4.86 g/m*3 5.1 C 0 km/h
1834 10-01-2004 11:51:02 5.1 C 4.86 g/m*3 5.1 C 0 km/h
1835 10-01-2004 12:03:01 5.1 C 4.79 g/m*3 5.1 C 0 km/h
1836 10-01-2004 12:15:01 5.1 C 4.72 g/m*3 5.1 C 0 km/h
1837 10-01-2004 12:27:01 5 C 4.62 g/m*3 5 C 0 km/h
1838 10-01-2004 12:39:01 5.2 C 4.68 g/m*3 5.2 C 0 km/h
1839 10-01-2004 12:51:01 5.1 C 4.65 g/m*3 5.1 C 0 km/h
1840 10-01-2004 13:03:59 5.2 C 4.68 g/m*3 5.2 C 0 km/h
1841 10-01-2004 13:15:59 5.3 C 4.64 g/m*3 5.3 C 0 km/h
1842 10-01-2004 13:27:59 5.4 C 4.67 g/m*3 5.4 C 0 km/h
1843 10-01-2004 13:39:01 5.3 C 4.64 g/m*3 5.3 C 0 km/h
1844 10-01-2004 13:51:01 5.4 C 4.67 g/m*3 5.4 C 0 km/h
1845 10-01-2004 14:03:00 5.3 C 4.64 g/m*3 5.3 C 0 km/h
1846 10-01-2004 14:15:00 5.2 C 4.61 g/m*3 5.2 C 0 km/h
1847 10-01-2004 14:27:00 5.2 C 4.61 g/m*3 5.2 C 0 km/h
1848 10-01-2004 14:39:59 5.2 C 4.61 g/m*3 5.2 C 0 km/h
1849 10-01-2004 14:51:59 5.1 C 4.51 g/m*3 5.1 C 0 km/h
1850 10-01-2004 15:03:58 4.9 C 4.52 g/m*3 4.9 C 0 km/h
Sensor: Nr:Datum:Temp:Abs-Feuchte:Windchill:Wind:
Aussen-T/F 1851 10-01-2004 15:15:58 4.9 C 4.52 g/m*3 4.9 C 0 km/h
1852 10-01-2004 15:27:58 4.8 C 4.49 g/m*3 4.8 C 0 km/h
1853 10-01-2004 15:39:01 4.8 C 4.49 g/m*3 4.8 C 0 km/h
1854 10-01-2004 15:51:01 4.8 C 4.56 g/m*3 4.8 C 0 km/h
1855 10-01-2004 16:03:01 4.9 C 4.59 g/m*3 4.9 C 0 km/h
1856 10-01-2004 16:15:01 5 C 4.55 g/m*3 5 C 0 km/h
1857 10-01-2004 16:27:01 4.9 C 4.59 g/m*3 4.9 C 0 km/h
1858 10-01-2004 16:39:01 4.7 C 4.66 g/m*3 4.7 C 0 km/h
1859 10-01-2004 16:51:01 4.6 C 4.63 g/m*3 4.6 C 0 km/h
1860 10-01-2004 17:03:01 4.6 C 4.76 g/m*3 4.6 C 0 km/h
1861 10-01-2004 17:15:01 4.6 C 4.83 g/m*3 4.6 C 0 km/h
1862 10-01-2004 17:27:01 4.6 C 4.83 g/m*3 4.6 C 0 km/h
1863 10-01-2004 17:39:00 4.6 C 4.83 g/m*3 4.6 C 0 km/h
1864 10-01-2004 17:51:00 4.5 C 4.8 g/m*3 4.5 C 0 km/h
1865 10-01-2004 18:03:59 4.5 C 4.8 g/m*3 4.5 C 0 km/h
1866 10-01-2004 18:15:59 4.4 C 4.77 g/m*3 4.4 C 0 km/h
1867 10-01-2004 18:27:59 4.5 C 4.86 g/m*3 4.5 C 0 km/h
1868 10-01-2004 18:39:01 4.5 C 4.93 g/m*3 4.5 C 0 km/h
1869 10-01-2004 18:51:01 4.4 C 4.96 g/m*3 4.4 C 0 km/h
1870 10-01-2004 19:03:01 4.4 C 5.03 g/m*3 4.4 C 0 km/h
1871 10-01-2004 19:15:01 4.3 C 4.99 g/m*3 4.3 C 0 km/h
1872 10-01-2004 19:27:01 4.4 C 4.96 g/m*3 4.4 C 0 km/h
1873 10-01-2004 19:39:00 4.5 C 5 g/m*3 4.5 C 0 km/h
1874 10-01-2004 19:51:00 4.6 C 5.1 g/m*3 4.6 C 0 km/h
1875 10-01-2004 20:03:58 4.8 C 5.23 g/m*3 4.8 C 0 km/h
Sensor: Nr:Datum:Temp:Abs-Feuchte:Windchill:Wind:
Aussen-T/F 1876 10-01-2004 20:15:58 4.8 C 5.23 g/m*3 4.8 C 0 km/h
1877 10-01-2004 20:27:58 4.8 C 5.16 g/m*3 4.8 C 0 km/h
1878 10-01-2004 20:39:01 4.9 C 5.13 g/m*3 4.9 C 0 km/h
1879 10-01-2004 20:51:01 5 C 5.1 g/m*3 5 C 0 km/h
1880 10-01-2004 21:03:01 5 C 5.16 g/m*3 5 C 0 km/h
1881 10-01-2004 21:15:01 5.1 C 5.2 g/m*3 5.1 C 0 km/h
1882 10-01-2004 21:27:01 5.1 C 5.2 g/m*3 5.1 C 0 km/h
1883 10-01-2004 21:39:02 5.3 C 5.34 g/m*3 5.3 C 0 km/h
1884 10-01-2004 21:51:02 5.4 C 5.44 g/m*3 5.4 C 0 km/h
1885 10-01-2004 22:03:01 5.5 C 5.55 g/m*3 5.5 C 0 km/h
1886 10-01-2004 22:15:01 5.6 C 5.66 g/m*3 5.6 C 0 km/h
1887 10-01-2004 22:27:01 5.6 C 5.66 g/m*3 5.6 C 0 km/h
1888 10-01-2004 22:39:01 5.5 C 5.62 g/m*3 5.5 C 0 km/h
1889 10-01-2004 22:51:01 5.5 C 5.62 g/m*3 5.5 C 0 km/h
1890 10-01-2004 23:03:01 5.4 C 5.58 g/m*3 5.4 C 0 km/h
1891 10-01-2004 23:15:01 5.5 C 5.55 g/m*3 5.5 C 0 km/h
1892 10-01-2004 23:27:01 5.6 C 5.66 g/m*3 5.6 C 0 km/h
1893 10-01-2004 23:39:00 5.6 C 5.66 g/m*3 5.6 C 0 km/h
1894 10-01-2004 23:51:00 5.6 C 5.66 g/m*3 5.6 C 0 km/h
1895 11-01-2004 00:03:59 5.7 C 5.76 g/m*3 5.7 C 0 km/h
1896 11-01-2004 00:15:59 5.8 C 5.8 g/m*3 5.8 C 0 km/h
1897 11-01-2004 00:27:59 6.3 C 6 g/m*3 6.3 C 0 km/h
1898 11-01-2004 00:39:01 6.6 C 6.04 g/m*3 6.6 C 0 km/h
1899 11-01-2004 00:51:01 6.6 C 5.96 g/m*3 6.6 C 0 km/h
1900 11-01-2004 01:03:01 6.9 C 6.08 g/m*3 6.9 C 0 km/h
Sensor: Nr:Datum:Temp:Abs-Feuchte:Windchill:Wind:
Aussen-T/F 1901 11-01-2004 01:15:01 7.2 C 6.12 g/m*3 7.2 C 0 km/h
1902 11-01-2004 01:27:01 7.3 C 6.16 g/m*3 7.3 C 0 km/h
1903 11-01-2004 01:39:00 7.3 C 6.24 g/m*3 7.3 C 0 km/h
1904 11-01-2004 01:51:00 7.6 C 6.36 g/m*3 7.6 C 0 km/h
1905 11-01-2004 02:03:58 7.8 C 6.45 g/m*3 7.8 C 0 km/h
1906 11-01-2004 02:15:58 8 C 6.37 g/m*3 8 C 0 km/h
1907 11-01-2004 02:27:58 8 C 6.37 g/m*3 8 C 0 km/h
1908 11-01-2004 02:40:02 8 C 6.37 g/m*3 8 C 0 km/h
1909 11-01-2004 02:52:02 8 C 6.37 g/m*3 8 C 0 km/h
1910 11-01-2004 03:04:02 8.1 C 6.41 g/m*3 8.1 C 0 km/h
1911 11-01-2004 03:16:02 7.9 C 6.41 g/m*3 7.9 C 0 km/h
1912 11-01-2004 03:28:02 7.9 C 6.49 g/m*3 7.9 C 0 km/h
1913 11-01-2004 03:40:00 7.8 C 6.45 g/m*3 7.8 C 0 km/h
1914 11-01-2004 03:52:00 7.6 C 6.36 g/m*3 7.6 C 0 km/h
1915 11-01-2004 04:04:59 7.7 C 6.49 g/m*3 7.7 C 0 km/h
1916 11-01-2004 04:16:59 7.9 C 6.57 g/m*3 7.9 C 0 km/h
1917 11-01-2004 04:28:59 8.1 C 6.49 g/m*3 8.1 C 0 km/h
1918 11-01-2004 04:40:01 8.2 C 6.53 g/m*3 8.2 C 0 km/h
1919 11-01-2004 04:52:01 8.3 C 6.57 g/m*3 8.3 C 0 km/h
1920 11-01-2004 05:04:01 8.8 C 6.7 g/m*3 8.8 C 0 km/h
1921 11-01-2004 05:16:01 8.8 C 6.7 g/m*3 8.8 C 0 km/h
1922 11-01-2004 05:28:01 8.7 C 6.66 g/m*3 8.7 C 0 km/h
1923 11-01-2004 05:40:00 8.6 C 6.62 g/m*3 8.6 C 0 km/h
1924 11-01-2004 05:52:00 8.6 C 6.7 g/m*3 8.6 C 0 km/h
1925 11-01-2004 06:04:58 8.5 C 6.74 g/m*3 8.5 C 0 km/h
Sensor: Nr:Datum:Temp:Abs-Feuchte:Windchill:Wind:
Aussen-T/F 1926 11-01-2004 06:16:58 8.5 C 6.74 g/m*3 8.5 C 0 km/h
1927 11-01-2004 06:28:58 8.2 C 6.78 g/m*3 8.2 C 0 km/h
1928 11-01-2004 06:40:01 8.4 C 6.87 g/m*3 8.4 C 0 km/h
1929 11-01-2004 06:52:01 8.7 C 6.92 g/m*3 8.7 C 0 km/h
1930 11-01-2004 07:04:01 8.6 C 6.87 g/m*3 8.6 C 0 km/h
1931 11-01-2004 07:16:01 8.6 C 6.87 g/m*3 8.6 C 0 km/h
1932 11-01-2004 07:28:01 8.6 C 6.87 g/m*3 8.6 C 0 km/h
1933 11-01-2004 07:40:01 8.7 C 6.92 g/m*3 8.7 C 0 km/h
1934 11-01-2004 07:52:01 8.6 C 6.87 g/m*3 8.6 C 0 km/h
1935 11-01-2004 08:04:01 8.6 C 6.87 g/m*3 8.6 C 0 km/h
1936 11-01-2004 08:16:01 9.1 C 6.92 g/m*3 9.1 C 0 km/h
1937 11-01-2004 08:28:01 9.3 C 7.01 g/m*3 9.3 C 0 km/h
1938 11-01-2004 08:40:00 9.4 C 6.96 g/m*3 9.4 C 0 km/h
1939 11-01-2004 08:52:00 9.3 C 7.01 g/m*3 9.3 C 0 km/h
1940 11-01-2004 09:04:59 9.3 C 7.01 g/m*3 9.3 C 0 km/h
1941 11-01-2004 09:16:59 9.2 C 6.97 g/m*3 9.2 C 0 km/h
1942 11-01-2004 09:28:59 9.3 C 7.01 g/m*3 9.3 C 0 km/h
1943 11-01-2004 09:40:01 9.4 C 7.05 g/m*3 9.4 C 0 km/h
1944 11-01-2004 09:52:01 9.3 C 7.01 g/m*3 9.3 C 0 km/h
1945 11-01-2004 10:04:01 9.5 C 7.1 g/m*3 9.5 C 0 km/h
1946 11-01-2004 10:16:01 9.5 C 7.1 g/m*3 9.5 C 0 km/h
1947 11-01-2004 10:28:01 9.6 C 7.15 g/m*3 9.6 C 0 km/h
1948 11-01-2004 10:40:00 10 C 7.14 g/m*3 10 C 0 km/h
1949 11-01-2004 10:52:00 10.2 C 7.23 g/m*3 10.2 C 0 km/h
1950 11-01-2004 11:04:59 10.7 C 7.27 g/m*3 10.7 C 0 km/h
Sensor: Nr:Datum:Temp:Abs-Feuchte:Windchill:Wind:
Aussen-T/F 1951 11-01-2004 11:16:59 11.3 C 7.34 g/m*3 11.3 C 0 km/h
1952 11-01-2004 11:28:59 11.5 C 7.33 g/m*3 11.5 C 0 km/h
1953 11-01-2004 11:40:01 11.4 C 7.29 g/m*3 11.4 C 0 km/h
1954 11-01-2004 11:52:01 11.4 C 7.39 g/m*3 11.4 C 0 km/h
1955 11-01-2004 12:04:01 11.1 C 7.35 g/m*3 11.1 C 0 km/h
1956 11-01-2004 12:16:01 11 C 7.41 g/m*3 11 C 0 km/h
1957 11-01-2004 12:28:01 11 C 7.41 g/m*3 11 C 0 km/h
1958 11-01-2004 12:40:59 10.9 C 7.56 g/m*3 10.9 C 0 km/h
1959 11-01-2004 12:51:59 10.8 C 7.61 g/m*3 10.8 C 0 km/h
1960 11-01-2004 13:04:58 10.9 C 7.66 g/m*3 10.9 C 0 km/h
1961 11-01-2004 13:16:58 11.1 C 7.76 g/m*3 11.1 C 0 km/h
1962 11-01-2004 13:28:58 10.7 C 7.76 g/m*3 10.7 C 0 km/h
1963 11-01-2004 13:40:01 10.8 C 8.01 g/m*3 10.8 C 0 km/h
1964 11-01-2004 13:52:01 11 C 8.01 g/m*3 11 C 0 km/h
1965 11-01-2004 14:04:01 11.2 C 8.11 g/m*3 11.2 C 0 km/h
1966 11-01-2004 14:16:01 11.2 C 8.11 g/m*3 11.2 C 0 km/h
1967 11-01-2004 14:28:01 11.3 C 8.16 g/m*3 11.3 C 0 km/h
1968 11-01-2004 14:40:01 11.6 C 8.32 g/m*3 11.6 C 0 km/h
1969 11-01-2004 14:52:01 11.5 C 8.26 g/m*3 11.5 C 0 km/h
1970 11-01-2004 15:04:59 11.3 C 8.36 g/m*3 11.3 C 0 km/h
1971 11-01-2004 15:16:59 11.2 C 8.41 g/m*3 11.2 C 0 km/h
1972 11-01-2004 15:28:59 11.1 C 8.06 g/m*3 11.1 C 0 km/h
1973 11-01-2004 15:40:01 11.1 C 8.06 g/m*3 11.1 C 0 km/h
1974 11-01-2004 15:52:01 11.4 C 8.01 g/m*3 11.4 C 0 km/h
1975 11-01-2004 16:04:01 11.8 C 7.89 g/m*3 11.8 C 0 km/h
Sensor: Nr:Datum:Temp:Abs-Feuchte:Windchill:Wind:
Aussen-T/F 1976 11-01-2004 16:16:01 11.8 C 7.89 g/m*3 11.8 C 0 km/h
1977 11-01-2004 16:28:01 11.6 C 7.8 g/m*3 11.6 C 0 km/h
1978 11-01-2004 16:40:01 11.4 C 7.7 g/m*3 11.4 C 0 km/h
1979 11-01-2004 16:52:01 11.4 C 7.39 g/m*3 11.4 C 0 km/h
1980 11-01-2004 17:04:01 11.1 C 7.25 g/m*3 11.1 C 0 km/h
1981 11-01-2004 17:16:01 11.1 C 6.95 g/m*3 11.1 C 0 km/h
1982 11-01-2004 17:28:01 11.1 C 6.85 g/m*3 11.1 C 0 km/h
1983 11-01-2004 17:40:00 11 C 6.71 g/m*3 11 C 0 km/h
1984 11-01-2004 17:52:00 11 C 6.51 g/m*3 11 C 0 km/h
1985 11-01-2004 18:04:59 10.8 C 6.42 g/m*3 10.8 C 0 km/h
1986 11-01-2004 18:16:59 10.3 C 6.42 g/m*3 10.3 C 0 km/h
1987 11-01-2004 18:28:59 10.2 C 6.38 g/m*3 10.2 C 0 km/h
1988 11-01-2004 18:40:01 10.1 C 6.34 g/m*3 10.1 C 0 km/h
1989 11-01-2004 18:52:01 10.1 C 6.43 g/m*3 10.1 C 0 km/h
1990 11-01-2004 19:04:01 10.1 C 5.67 g/m*3 10.1 C 0 km/h
1991 11-01-2004 19:16:01 10.1 C 5.2 g/m*3 10.1 C 0 km/h
1992 11-01-2004 19:28:01 9.9 C 5.04 g/m*3 9.9 C 0 km/h
1993 11-01-2004 19:40:01 9.6 C 5.13 g/m*3 9.6 C 0 km/h
1994 11-01-2004 19:52:01 9.4 C 5.16 g/m*3 9.4 C 0 km/h
1995 11-01-2004 20:04:59 9.2 C 5.09 g/m*3 9.2 C 0 km/h
1996 11-01-2004 20:16:59 8.8 C 5.05 g/m*3 8.8 C 0 km/h
1997 11-01-2004 20:28:59 8.5 C 5.04 g/m*3 8.5 C 0 km/h
1998 11-01-2004 20:40:01 8.2 C 5.11 g/m*3 8.2 C 0 km/h
1999 11-01-2004 20:52:01 7.8 C 5.22 g/m*3 7.8 C 0 km/h
2000 11-01-2004 21:04:01 7.5 C 5.28 g/m*3 7.5 C 0 km/h
Sensor: Nr:Datum:Temp:Abs-Feuchte:Windchill:Wind:
Aussen-T/F 2001 11-01-2004 21:16:01 7.3 C 5.37 g/m*3 7.3 C 0 km/h
2002 11-01-2004 21:28:01 7.3 C 5.29 g/m*3 7.3 C 0 km/h
2003 11-01-2004 21:40:02 7.3 C 5.29 g/m*3 7.3 C 0 km/h
2004 11-01-2004 21:52:02 7.4 C 5.33 g/m*3 7.4 C 0 km/h
2005 11-01-2004 22:04:02 7.4 C 5.33 g/m*3 7.4 C 0 km/h
2006 11-01-2004 22:16:02 7.4 C 5.33 g/m*3 7.4 C 0 km/h
2007 11-01-2004 22:28:02 7.4 C 5.33 g/m*3 7.4 C 0 km/h
2008 11-01-2004 22:40:00 7.3 C 5.37 g/m*3 7.3 C 0 km/h
2009 11-01-2004 22:52:00 7.4 C 5.41 g/m*3 7.4 C 0 km/h
2010 11-01-2004 23:04:58 7.6 C 5.4 g/m*3 7.6 C 0 km/h
2011 11-01-2004 23:16:58 7.7 C 5.43 g/m*3 7.7 C 0 km/h
2012 11-01-2004 23:28:58 7.7 C 5.51 g/m*3 7.7 C 0 km/h
2013 11-01-2004 23:40:01 7.8 C 5.63 g/m*3 7.8 C 0 km/h
2014 11-01-2004 23:52:01 7.8 C 5.55 g/m*3 7.8 C 0 km/h
2015 12-01-2004 00:04:01 7.6 C 5.56 g/m*3 7.6 C 0 km/h
2016 12-01-2004 00:16:01 7.5 C 5.6 g/m*3 7.5 C 0 km/h
2017 12-01-2004 00:28:01 7.5 C 5.68 g/m*3 7.5 C 0 km/h
2018 12-01-2004 00:40:01 7.3 C 5.77 g/m*3 7.3 C 0 km/h
2019 12-01-2004 00:52:01 7.1 C 5.77 g/m*3 7.1 C 0 km/h
2020 12-01-2004 01:04:00 7 C 5.73 g/m*3 7 C 0 km/h
2021 12-01-2004 01:16:00 7 C 5.58 g/m*3 7 C 0 km/h
2022 12-01-2004 01:28:00 7.3 C 5.21 g/m*3 7.3 C 0 km/h
2023 12-01-2004 01:40:01 7.4 C 5.01 g/m*3 7.4 C 0 km/h
2024 12-01-2004 01:52:01 7.2 C 5.02 g/m*3 7.2 C 0 km/h
2025 12-01-2004 02:04:01 7.1 C 4.84 g/m*3 7.1 C 0 km/h
Sensor: Nr:Datum:Temp:Abs-Feuchte:Windchill:Wind:
Aussen-T/F 2026 12-01-2004 02:16:01 7 C 4.8 g/m*3 7 C 0 km/h
2027 12-01-2004 02:28:01 6.9 C 4.77 g/m*3 6.9 C 0 km/h
2028 12-01-2004 02:41:02 6.8 C 4.74 g/m*3 6.8 C 0 km/h
2029 12-01-2004 02:53:02 6.7 C 4.79 g/m*3 6.7 C 0 km/h
2030 12-01-2004 03:05:02 6.4 C 4.55 g/m*3 6.4 C 0 km/h
2031 12-01-2004 03:17:02 6.1 C 4.46 g/m*3 6.1 C 0 km/h
2032 12-01-2004 03:29:02 5.9 C 4.54 g/m*3 5.9 C 0 km/h
2033 12-01-2004 03:41:00 6 C 4.5 g/m*3 6 C 0 km/h
2034 12-01-2004 03:53:00 6 C 4.43 g/m*3 6 C 0 km/h
2035 12-01-2004 04:05:58 5.8 C 4.3 g/m*3 5.8 C 0 km/h
2036 12-01-2004 04:17:58 5.8 C 4.3 g/m*3 5.8 C 0 km/h
2037 12-01-2004 04:29:58 5.6 C 4.31 g/m*3 5.6 C 0 km/h
2038 12-01-2004 04:41:01 5.2 C 4.27 g/m*3 5.2 C 0 km/h
2039 12-01-2004 04:53:01 4.7 C 4.4 g/m*3 4.7 C 0 km/h
2040 12-01-2004 05:05:01 5.6 C 4.52 g/m*3 5.6 C 0 km/h
2041 12-01-2004 05:17:01 5.5 C 4.49 g/m*3 5.5 C 0 km/h
2042 12-01-2004 05:29:01 5.8 C 4.58 g/m*3 5.8 C 0 km/h
2043 12-01-2004 05:41:00 5.6 C 4.6 g/m*3 5.6 C 0 km/h
2044 12-01-2004 05:53:00 5.8 C 4.66 g/m*3 5.8 C 0 km/h
2045 12-01-2004 06:05:58 5.7 C 4.7 g/m*3 5.7 C 0 km/h
2046 12-01-2004 06:17:58 5.5 C 4.71 g/m*3 5.5 C 0 km/h
2047 12-01-2004 06:29:58 5.6 C 4.74 g/m*3 5.6 C 0 km/h
2048 12-01-2004 06:41:01 5.9 C 4.76 g/m*3 5.9 C 0 km/h
2049 12-01-2004 06:53:01 5.6 C 4.74 g/m*3 5.6 C 0 km/h
2050 12-01-2004 07:05:01 5.7 C 4.77 g/m*3 5.7 C 0 km/h
Sensor: Nr:Datum:Temp:Abs-Feuchte:Windchill:Wind:
Aussen-T/F 2051 12-01-2004 07:17:01 5.8 C 4.8 g/m*3 5.8 C 0 km/h
2052 12-01-2004 07:29:01 5.6 C 4.74 g/m*3 5.6 C 0 km/h
2053 12-01-2004 07:41:01 5.4 C 4.74 g/m*3 5.4 C 0 km/h
2054 12-01-2004 07:53:01 5.3 C 4.78 g/m*3 5.3 C 0 km/h
2055 12-01-2004 08:05:01 5.1 C 4.79 g/m*3 5.1 C 0 km/h
2056 12-01-2004 08:17:01 5.1 C 4.86 g/m*3 5.1 C 0 km/h
2057 12-01-2004 08:29:01 5.2 C 4.82 g/m*3 5.2 C 0 km/h
2058 12-01-2004 08:41:00 5.1 C 4.79 g/m*3 5.1 C 0 km/h
2059 12-01-2004 08:53:00 5.5 C 4.92 g/m*3 5.5 C 0 km/h
2060 12-01-2004 09:05:59 5.5 C 4.85 g/m*3 5.5 C 0 km/h
2061 12-01-2004 09:17:59 5.6 C 4.88 g/m*3 5.6 C 0 km/h
2062 12-01-2004 09:29:59 5.9 C 4.9 g/m*3 5.9 C 0 km/h
2063 12-01-2004 09:41:00 5.9 C 4.9 g/m*3 5.9 C 0 km/h
2064 12-01-2004 09:53:00 6.2 C 4.85 g/m*3 6.2 C 0 km/h
2065 12-01-2004 10:05:00 6.4 C 4.84 g/m*3 6.4 C 0 km/h
2066 12-01-2004 10:17:00 6.5 C 4.8 g/m*3 6.5 C 0 km/h
2067 12-01-2004 10:29:00 6.5 C 4.8 g/m*3 6.5 C 0 km/h
2068 12-01-2004 10:41:01 6.7 C 4.86 g/m*3 6.7 C 0 km/h
2069 12-01-2004 10:53:01 6.7 C 4.86 g/m*3 6.7 C 0 km/h
2070 12-01-2004 11:05:01 6.8 C 4.97 g/m*3 6.8 C 0 km/h
2071 12-01-2004 11:17:01 6.8 C 4.89 g/m*3 6.8 C 0 km/h
2072 12-01-2004 11:29:01 6.9 C 5 g/m*3 6.9 C 0 km/h
2073 12-01-2004 11:41:00 7 C 4.96 g/m*3 7 C 0 km/h
2074 12-01-2004 11:53:00 7.2 C 4.95 g/m*3 7.2 C 0 km/h
2075 12-01-2004 12:05:59 7.2 C 4.95 g/m*3 7.2 C 0 km/h
Sensor: Nr:Datum:Temp:Abs-Feuchte:Windchill:Wind:
Aussen-T/F 2076 12-01-2004 12:17:59 7.1 C 4.99 g/m*3 7.1 C 0 km/h
2077 12-01-2004 12:29:59 7.1 C 5.15 g/m*3 7.1 C 0 km/h
2078 12-01-2004 12:41:00 7.1 C 5.07 g/m*3 7.1 C 0 km/h
2079 12-01-2004 12:53:00 6.9 C 5.23 g/m*3 6.9 C 0 km/h
2080 12-01-2004 13:05:00 6.8 C 5.28 g/m*3 6.8 C 0 km/h
2081 12-01-2004 13:17:00 6.8 C 5.28 g/m*3 6.8 C 0 km/h
2082 12-01-2004 13:29:00 6.8 C 5.28 g/m*3 6.8 C 0 km/h
2083 12-01-2004 13:41:01 6.6 C 5.36 g/m*3 6.6 C 0 km/h
2084 12-01-2004 13:53:01 6.3 C 5.33 g/m*3 6.3 C 0 km/h
2085 12-01-2004 14:05:01 6 C 5.3 g/m*3 6 C 0 km/h
2086 12-01-2004 14:17:01 5.7 C 5.48 g/m*3 5.7 C 0 km/h
2087 12-01-2004 14:29:01 5.5 C 5.55 g/m*3 5.5 C 0 km/h
2088 12-01-2004 14:41:01 5.4 C 5.58 g/m*3 5.4 C 0 km/h
2089 12-01-2004 14:53:01 5.4 C 5.65 g/m*3 5.4 C 0 km/h
2090 12-01-2004 15:05:00 5.3 C 5.68 g/m*3 5.3 C 0 km/h
2091 12-01-2004 15:17:00 5.3 C 5.75 g/m*3 5.3 C 0 km/h
2092 12-01-2004 15:29:00 5.2 C 5.78 g/m*3 5.2 C 0 km/h
2093 12-01-2004 15:41:01 5.1 C 5.75 g/m*3 5.1 C 0 km/h
2094 12-01-2004 15:53:01 5 C 5.78 g/m*3 5 C 0 km/h
2095 12-01-2004 16:05:01 4.9 C 5.81 g/m*3 4.9 C 0 km/h
2096 12-01-2004 16:17:01 4.9 C 5.81 g/m*3 4.9 C 0 km/h
2097 12-01-2004 16:29:01 4.7 C 5.73 g/m*3 4.7 C 0 km/h
2098 12-01-2004 16:41:01 4.6 C 5.69 g/m*3 4.6 C 0 km/h
2099 12-01-2004 16:53:01 4.5 C 5.65 g/m*3 4.5 C 0 km/h
2100 12-01-2004 17:05:01 4.4 C 5.62 g/m*3 4.4 C 0 km/h
Sensor: Nr:Datum:Temp:Abs-Feuchte:Windchill:Wind:
Aussen-T/F 2101 12-01-2004 17:17:01 4.5 C 5.65 g/m*3 4.5 C 0 km/h
2102 12-01-2004 17:29:01 4.4 C 5.68 g/m*3 4.4 C 0 km/h
2103 12-01-2004 17:41:01 4.5 C 5.72 g/m*3 4.5 C 0 km/h
2104 12-01-2004 17:53:01 4.4 C 5.75 g/m*3 4.4 C 0 km/h
2105 12-01-2004 18:05:01 4.6 C 5.82 g/m*3 4.6 C 0 km/h
2106 12-01-2004 18:17:01 4.6 C 5.82 g/m*3 4.6 C 0 km/h
2107 12-01-2004 18:29:01 4.6 C 5.82 g/m*3 4.6 C 0 km/h
2108 12-01-2004 18:41:00 4.7 C 5.93 g/m*3 4.7 C 0 km/h
2109 12-01-2004 18:53:00 4.7 C 5.93 g/m*3 4.7 C 0 km/h
2110 12-01-2004 19:05:01 4.7 C 5.93 g/m*3 4.7 C 0 km/h
2111 12-01-2004 19:17:01 5 C 6.05 g/m*3 5 C 0 km/h
2112 12-01-2004 19:29:01 5.6 C 6.29 g/m*3 5.6 C 0 km/h
2113 12-01-2004 19:41:59 5.5 C 6.25 g/m*3 5.5 C 0 km/h
2114 12-01-2004 19:52:59 5.3 C 5.89 g/m*3 5.3 C 0 km/h
2115 12-01-2004 20:05:58 4.8 C 5.63 g/m*3 4.8 C 0 km/h
2116 12-01-2004 20:17:58 4.4 C 5.35 g/m*3 4.4 C 0 km/h
2117 12-01-2004 20:29:58 4.4 C 5.29 g/m*3 4.4 C 0 km/h
2118 12-01-2004 20:41:01 4.4 C 5.29 g/m*3 4.4 C 0 km/h
2119 12-01-2004 20:53:01 4.4 C 5.29 g/m*3 4.4 C 0 km/h
2120 12-01-2004 21:05:01 4.4 C 5.29 g/m*3 4.4 C 0 km/h
2121 12-01-2004 21:17:01 4.5 C 5.32 g/m*3 4.5 C 0 km/h
2122 12-01-2004 21:29:01 4.8 C 5.43 g/m*3 4.8 C 0 km/h
2123 12-01-2004 21:41:01 5.1 C 5.34 g/m*3 5.1 C 0 km/h
2124 12-01-2004 21:53:01 5.1 C 5.34 g/m*3 5.1 C 0 km/h
2125 12-01-2004 22:05:01 5.1 C 5.34 g/m*3 5.1 C 0 km/h
Sensor: Nr:Datum:Temp:Abs-Feuchte:Windchill:Wind:
Aussen-T/F 2126 12-01-2004 22:17:01 5.1 C 5.4 g/m*3 5.1 C 0 km/h
2127 12-01-2004 22:29:01 5.1 C 5.4 g/m*3 5.1 C 0 km/h
2128 12-01-2004 22:41:01 5.4 C 5.51 g/m*3 5.4 C 0 km/h
2129 12-01-2004 22:53:01 5.7 C 5.48 g/m*3 5.7 C 0 km/h
2130 12-01-2004 23:05:00 5.7 C 5.48 g/m*3 5.7 C 0 km/h
2131 12-01-2004 23:17:00 6 C 5.44 g/m*3 6 C 0 km/h
2132 12-01-2004 23:29:00 6.2 C 5.44 g/m*3 6.2 C 0 km/h
2133 12-01-2004 23:41:01 6.3 C 5.4 g/m*3 6.3 C 0 km/h
2134 12-01-2004 23:53:01 6.5 C 5.47 g/m*3 6.5 C 0 km/h
2135 13-01-2004 00:05:01 6.4 C 5.44 g/m*3 6.4 C 0 km/h
2136 13-01-2004 00:17:01 6.4 C 5.51 g/m*3 6.4 C 0 km/h
2137 13-01-2004 00:29:01 6.4 C 5.51 g/m*3 6.4 C 0 km/h
2138 13-01-2004 00:41:01 6.5 C 5.55 g/m*3 6.5 C 0 km/h
2139 13-01-2004 00:53:01 6.6 C 5.59 g/m*3 6.6 C 0 km/h
2140 13-01-2004 01:05:01 6.7 C 5.55 g/m*3 6.7 C 0 km/h
2141 13-01-2004 01:17:01 6.7 C 5.55 g/m*3 6.7 C 0 km/h
2142 13-01-2004 01:29:01 6.7 C 5.55 g/m*3 6.7 C 0 km/h
2143 13-01-2004 01:41:00 6.7 C 5.47 g/m*3 6.7 C 0 km/h
2144 13-01-2004 01:53:00 6.7 C 5.47 g/m*3 6.7 C 0 km/h
2145 13-01-2004 02:05:59 6.6 C 5.51 g/m*3 6.6 C 0 km/h
2146 13-01-2004 02:17:59 6.4 C 5.44 g/m*3 6.4 C 0 km/h
2147 13-01-2004 02:29:59 6.1 C 5.41 g/m*3 6.1 C 0 km/h
2148 13-01-2004 02:42:02 6.1 C 5.41 g/m*3 6.1 C 0 km/h
2149 13-01-2004 02:54:02 6.4 C 5.44 g/m*3 6.4 C 0 km/h
2150 13-01-2004 03:06:02 6.5 C 5.4 g/m*3 6.5 C 0 km/h
Sensor: Nr:Datum:Temp:Abs-Feuchte:Windchill:Wind:
Aussen-T/F 2151 13-01-2004 03:18:02 6.4 C 5.36 g/m*3 6.4 C 0 km/h
2152 13-01-2004 03:30:02 6.5 C 5.47 g/m*3 6.5 C 0 km/h
2153 13-01-2004 03:42:00 6.4 C 5.44 g/m*3 6.4 C 0 km/h
2154 13-01-2004 03:54:00 6.3 C 5.48 g/m*3 6.3 C 0 km/h
2155 13-01-2004 04:06:59 6.2 C 5.44 g/m*3 6.2 C 0 km/h
2156 13-01-2004 04:18:59 6.3 C 5.48 g/m*3 6.3 C 0 km/h
2157 13-01-2004 04:30:59 6.4 C 5.51 g/m*3 6.4 C 0 km/h
2158 13-01-2004 04:42:01 6.5 C 5.47 g/m*3 6.5 C 0 km/h
2159 13-01-2004 04:54:01 6.7 C 5.55 g/m*3 6.7 C 0 km/h
2160 13-01-2004 05:06:00 6.6 C 5.51 g/m*3 6.6 C 0 km/h
2161 13-01-2004 05:18:00 6.7 C 5.62 g/m*3 6.7 C 0 km/h
2162 13-01-2004 05:30:00 6.6 C 5.59 g/m*3 6.6 C 0 km/h
2163 13-01-2004 05:42:01 6.5 C 5.55 g/m*3 6.5 C 0 km/h
2164 13-01-2004 05:54:01 6.2 C 5.74 g/m*3 6.2 C 0 km/h
2165 13-01-2004 06:06:01 6 C 5.88 g/m*3 6 C 0 km/h
2166 13-01-2004 06:18:01 6 C 5.95 g/m*3 6 C 0 km/h
2167 13-01-2004 06:30:01 6 C 5.95 g/m*3 6 C 0 km/h
2168 13-01-2004 06:42:01 5.9 C 6.06 g/m*3 5.9 C 0 km/h
2169 13-01-2004 06:54:01 5.9 C 6.13 g/m*3 5.9 C 0 km/h
2170 13-01-2004 07:06:01 5.8 C 6.09 g/m*3 5.8 C 0 km/h
2171 13-01-2004 07:18:01 5.8 C 6.16 g/m*3 5.8 C 0 km/h
2172 13-01-2004 07:30:01 5.8 C 6.16 g/m*3 5.8 C 0 km/h
2173 13-01-2004 07:42:00 5.9 C 6.27 g/m*3 5.9 C 0 km/h
2174 13-01-2004 07:54:00 6.1 C 6.28 g/m*3 6.1 C 0 km/h
2175 13-01-2004 08:06:58 6.3 C 6.37 g/m*3 6.3 C 0 km/h
Sensor: Nr:Datum:Temp:Abs-Feuchte:Windchill:Wind:
Aussen-T/F 2176 13-01-2004 08:18:58 6.4 C 6.41 g/m*3 6.4 C 0 km/h
2177 13-01-2004 08:30:58 6.4 C 6.41 g/m*3 6.4 C 0 km/h
2178 13-01-2004 08:42:01 6.5 C 6.45 g/m*3 6.5 C 0 km/h
2179 13-01-2004 08:54:01 6.7 C 6.53 g/m*3 6.7 C 0 km/h
2180 13-01-2004 09:06:01 6.7 C 6.53 g/m*3 6.7 C 0 km/h
2181 13-01-2004 09:18:01 6.7 C 6.53 g/m*3 6.7 C 0 km/h
2182 13-01-2004 09:30:01 6.7 C 6.61 g/m*3 6.7 C 0 km/h
2183 13-01-2004 09:42:00 6.9 C 6.7 g/m*3 6.9 C 0 km/h
2184 13-01-2004 09:54:00 6.9 C 6.77 g/m*3 6.9 C 0 km/h
2185 13-01-2004 10:06:59 7 C 6.74 g/m*3 7 C 0 km/h
2186 13-01-2004 10:18:59 7.3 C 6.95 g/m*3 7.3 C 0 km/h
2187 13-01-2004 10:30:59 7.4 C 7 g/m*3 7.4 C 0 km/h
2188 13-01-2004 10:42:01 7.5 C 7.04 g/m*3 7.5 C 0 km/h
2189 13-01-2004 10:54:01 7.7 C 7.05 g/m*3 7.7 C 0 km/h
2190 13-01-2004 11:06:01 8.2 C 7.2 g/m*3 8.2 C 0 km/h
2191 13-01-2004 11:18:01 9.1 C 7.45 g/m*3 9.1 C 0 km/h
2192 13-01-2004 11:30:01 10 C 7.33 g/m*3 10 C 0 km/h
2193 13-01-2004 11:42:00 10.2 C 7.14 g/m*3 10.2 C 0 km/h
2194 13-01-2004 11:54:00 10.3 C 7.18 g/m*3 10.3 C 0 km/h
2195 13-01-2004 12:06:59 10.2 C 7.04 g/m*3 10.2 C 0 km/h
2196 13-01-2004 12:18:59 10.5 C 6.98 g/m*3 10.5 C 0 km/h
2197 13-01-2004 12:30:59 10.4 C 6.84 g/m*3 10.4 C 0 km/h
2198 13-01-2004 12:42:01 10.8 C 6.62 g/m*3 10.8 C 0 km/h
2199 13-01-2004 12:54:01 11 C 6.41 g/m*3 11 C 0 km/h
2200 13-01-2004 13:06:01 11 C 6.21 g/m*3 11 C 0 km/h
Sensor: Nr:Datum:Temp:Abs-Feuchte:Windchill:Wind:
Aussen-T/F 2201 13-01-2004 13:18:01 11 C 6.21 g/m*3 11 C 0 km/h
2202 13-01-2004 13:30:01 11.2 C 5.78 g/m*3 11.2 C 0 km/h
2203 13-01-2004 13:42:00 11.1 C 5.74 g/m*3 11.1 C 0 km/h
2204 13-01-2004 13:54:00 11 C 5.81 g/m*3 11 C 0 km/h
2205 13-01-2004 14:06:59 11 C 5.71 g/m*3 11 C 0 km/h
2206 13-01-2004 14:18:59 10.4 C 5.98 g/m*3 10.4 C 0 km/h
2207 13-01-2004 14:30:59 10.6 C 5.86 g/m*3 10.6 C 0 km/h
2208 13-01-2004 14:42:01 10.6 C 5.56 g/m*3 10.6 C 0 km/h
2209 13-01-2004 14:54:01 10.6 C 5.47 g/m*3 10.6 C 0 km/h
2210 13-01-2004 15:06:01 10.4 C 5.3 g/m*3 10.4 C 0 km/h
2211 13-01-2004 15:18:01 10.4 C 5.3 g/m*3 10.4 C 0 km/h
2212 13-01-2004 15:30:01 10.1 C 5.3 g/m*3 10.1 C 0 km/h
2213 13-01-2004 15:42:00 10.2 C 5.23 g/m*3 10.2 C 0 km/h
2214 13-01-2004 15:54:00 10 C 5.26 g/m*3 10 C 0 km/h
2215 13-01-2004 16:06:59 9.6 C 5.4 g/m*3 9.6 C 0 km/h
2216 13-01-2004 16:18:59 9.4 C 5.25 g/m*3 9.4 C 0 km/h
2217 13-01-2004 16:30:59 9.2 C 5.27 g/m*3 9.2 C 0 km/h
2218 13-01-2004 16:42:01 9 C 5.03 g/m*3 9 C 0 km/h
2219 13-01-2004 16:54:01 8.9 C 4.99 g/m*3 8.9 C 0 km/h
2220 13-01-2004 17:06:01 8.8 C 5.05 g/m*3 8.8 C 0 km/h
2221 13-01-2004 17:18:01 8.6 C 5.07 g/m*3 8.6 C 0 km/h
2222 13-01-2004 17:30:01 8.6 C 5.07 g/m*3 8.6 C 0 km/h
2223 13-01-2004 17:42:00 8.5 C 5.21 g/m*3 8.5 C 0 km/h
2224 13-01-2004 17:54:00 8.4 C 5.17 g/m*3 8.4 C 0 km/h
2225 13-01-2004 18:06:59 8.3 C 5.23 g/m*3 8.3 C 0 km/h
Sensor: Nr:Datum:Temp:Abs-Feuchte:Windchill:Wind:
Aussen-T/F 2226 13-01-2004 18:18:59 8.2 C 5.19 g/m*3 8.2 C 0 km/h
2227 13-01-2004 18:30:59 8 C 5.29 g/m*3 8 C 0 km/h
2228 13-01-2004 18:42:01 8 C 5.29 g/m*3 8 C 0 km/h
2229 13-01-2004 18:54:01 8.1 C 5.24 g/m*3 8.1 C 0 km/h
2230 13-01-2004 19:06:01 8 C 5.29 g/m*3 8 C 0 km/h
2231 13-01-2004 19:18:01 8 C 5.21 g/m*3 8 C 0 km/h
2232 13-01-2004 19:30:01 8 C 5.21 g/m*3 8 C 0 km/h
2233 13-01-2004 19:42:01 7.9 C 5.34 g/m*3 7.9 C 0 km/h
2234 13-01-2004 19:54:01 7.6 C 5.24 g/m*3 7.6 C 0 km/h
2235 13-01-2004 20:06:02 7.6 C 5.16 g/m*3 7.6 C 0 km/h
2236 13-01-2004 20:18:02 7.7 C 5.11 g/m*3 7.7 C 0 km/h
2237 13-01-2004 20:30:02 7.8 C 5.14 g/m*3 7.8 C 0 km/h
2238 13-01-2004 20:42:00 7.7 C 5.11 g/m*3 7.7 C 0 km/h
2239 13-01-2004 20:54:00 7.8 C 5.06 g/m*3 7.8 C 0 km/h
2240 13-01-2004 21:06:59 7.8 C 4.9 g/m*3 7.8 C 0 km/h
2241 13-01-2004 21:18:59 7.9 C 4.93 g/m*3 7.9 C 0 km/h
2242 13-01-2004 21:30:59 7.8 C 4.98 g/m*3 7.8 C 0 km/h
2243 13-01-2004 21:42:01 7.7 C 4.95 g/m*3 7.7 C 0 km/h
2244 13-01-2004 21:54:01 7.6 C 4.91 g/m*3 7.6 C 0 km/h
2245 13-01-2004 22:06:01 7.6 C 4.83 g/m*3 7.6 C 0 km/h
2246 13-01-2004 22:18:01 7.7 C 4.62 g/m*3 7.7 C 0 km/h
2247 13-01-2004 22:30:01 7.7 C 4.54 g/m*3 7.7 C 0 km/h
2248 13-01-2004 22:42:01 7.6 C 4.51 g/m*3 7.6 C 0 km/h
2249 13-01-2004 22:54:01 7.5 C 4.48 g/m*3 7.5 C 0 km/h
2250 13-01-2004 23:06:01 7.2 C 4.4 g/m*3 7.2 C 0 km/h
Sensor: Nr:Datum:Temp:Abs-Feuchte:Windchill:Wind:
Aussen-T/F 2251 13-01-2004 23:18:01 7.1 C 4.29 g/m*3 7.1 C 0 km/h
2252 13-01-2004 23:30:01 6.9 C 4.23 g/m*3 6.9 C 0 km/h
2253 13-01-2004 23:42:00 6.8 C 4.21 g/m*3 6.8 C 0 km/h
2254 13-01-2004 23:54:00 6.7 C 4.33 g/m*3 6.7 C 0 km/h
2255 14-01-2004 00:06:59 6.8 C 4.44 g/m*3 6.8 C 0 km/h
2256 14-01-2004 00:18:59 6.5 C 4.27 g/m*3 6.5 C 0 km/h
2257 14-01-2004 00:30:59 6.8 C 4.28 g/m*3 6.8 C 0 km/h
2258 14-01-2004 00:42:01 6.5 C 4.12 g/m*3 6.5 C 0 km/h
2259 14-01-2004 00:54:01 6.5 C 4.2 g/m*3 6.5 C 0 km/h
2260 14-01-2004 01:06:01 6.3 C 4.15 g/m*3 6.3 C 0 km/h
2261 14-01-2004 01:18:01 6.2 C 4.27 g/m*3 6.2 C 0 km/h
2262 14-01-2004 01:30:01 6.2 C 4.34 g/m*3 6.2 C 0 km/h
2263 14-01-2004 01:42:00 6 C 4.28 g/m*3 6 C 0 km/h
2264 14-01-2004 01:54:00 5.9 C 4.4 g/m*3 5.9 C 0 km/h
2265 14-01-2004 02:06:58 6 C 4.35 g/m*3 6 C 0 km/h
2266 14-01-2004 02:18:58 5.9 C 4.47 g/m*3 5.9 C 0 km/h
2267 14-01-2004 02:30:58 5.9 C 4.47 g/m*3 5.9 C 0 km/h
2268 14-01-2004 02:43:02 6.1 C 4.46 g/m*3 6.1 C 0 km/h
2269 14-01-2004 02:55:02 6.7 C 4.41 g/m*3 6.7 C 0 km/h
2270 14-01-2004 03:07:02 6.4 C 4.4 g/m*3 6.4 C 0 km/h
2271 14-01-2004 03:19:02 6.2 C 4.41 g/m*3 6.2 C 0 km/h
2272 14-01-2004 03:31:02 6.5 C 4.35 g/m*3 6.5 C 0 km/h
2273 14-01-2004 03:43:00 6.4 C 4.47 g/m*3 6.4 C 0 km/h
2274 14-01-2004 03:55:00 6 C 4.57 g/m*3 6 C 0 km/h
2275 14-01-2004 04:07:59 5.8 C 4.66 g/m*3 5.8 C 0 km/h
Sensor: Nr:Datum:Temp:Abs-Feuchte:Windchill:Wind:
Aussen-T/F 2276 14-01-2004 04:19:59 5.5 C 4.71 g/m*3 5.5 C 0 km/h
2277 14-01-2004 04:31:01 5.1 C 4.72 g/m*3 5.1 C 0 km/h
2278 14-01-2004 04:43:01 5 C 4.62 g/m*3 5 C 0 km/h
2279 14-01-2004 04:55:01 5 C 4.55 g/m*3 5 C 0 km/h
2280 14-01-2004 05:07:01 5.1 C 4.51 g/m*3 5.1 C 0 km/h
2281 14-01-2004 05:19:01 5.3 C 4.51 g/m*3 5.3 C 0 km/h
2282 14-01-2004 05:31:01 5.7 C 4.41 g/m*3 5.7 C 0 km/h
2283 14-01-2004 05:43:00 5.7 C 4.2 g/m*3 5.7 C 0 km/h
2284 14-01-2004 05:55:00 5.4 C 4.26 g/m*3 5.4 C 0 km/h
2285 14-01-2004 06:07:58 5.3 C 4.23 g/m*3 5.3 C 0 km/h
2286 14-01-2004 06:19:58 5.4 C 4.26 g/m*3 5.4 C 0 km/h
2287 14-01-2004 06:31:01 5.1 C 4.24 g/m*3 5.1 C 0 km/h
2288 14-01-2004 06:43:01 5 C 4.21 g/m*3 5 C 0 km/h
2289 14-01-2004 06:55:01 4.8 C 4.22 g/m*3 4.8 C 0 km/h
2290 14-01-2004 07:07:01 4.8 C 4.16 g/m*3 4.8 C 0 km/h
2291 14-01-2004 07:19:01 4.7 C 4.13 g/m*3 4.7 C 0 km/h
2292 14-01-2004 07:31:01 4.7 C 4.06 g/m*3 4.7 C 0 km/h
2293 14-01-2004 07:43:01 4.8 C 4.09 g/m*3 4.8 C 0 km/h
2294 14-01-2004 07:55:01 4.7 C 4.06 g/m*3 4.7 C 0 km/h
2295 14-01-2004 08:07:01 4.7 C 4 g/m*3 4.7 C 0 km/h
2296 14-01-2004 08:19:01 4.6 C 3.97 g/m*3 4.6 C 0 km/h
2297 14-01-2004 08:31:01 4.5 C 3.94 g/m*3 4.5 C 0 km/h
2298 14-01-2004 08:43:00 4.4 C 3.98 g/m*3 4.4 C 0 km/h
2299 14-01-2004 08:55:00 4.3 C 3.96 g/m*3 4.3 C 0 km/h
2300 14-01-2004 09:07:59 4.3 C 3.96 g/m*3 4.3 C 0 km/h
Sensor: Nr:Datum:Temp:Abs-Feuchte:Windchill:Wind:
Aussen-T/F 2301 14-01-2004 09:19:59 4.3 C 4.02 g/m*3 4.3 C 0 km/h
2302 14-01-2004 09:31:01 4.8 C 4.16 g/m*3 4.8 C 0 km/h
2303 14-01-2004 09:43:01 5.2 C 4.13 g/m*3 5.2 C 0 km/h
2304 14-01-2004 09:55:01 5.5 C 4.21 g/m*3 5.5 C 0 km/h
2305 14-01-2004 10:07:01 5.4 C 4.33 g/m*3 5.4 C 0 km/h
2306 14-01-2004 10:19:01 5.7 C 4.41 g/m*3 5.7 C 0 km/h
2307 14-01-2004 10:31:01 5.9 C 4.47 g/m*3 5.9 C 0 km/h
2308 14-01-2004 10:43:00 6.1 C 4.38 g/m*3 6.1 C 0 km/h
2309 14-01-2004 10:55:00 6.4 C 4.47 g/m*3 6.4 C 0 km/h
2310 14-01-2004 11:07:59 6.8 C 4.51 g/m*3 6.8 C 0 km/h
2311 14-01-2004 11:19:59 6.9 C 4.46 g/m*3 6.9 C 0 km/h
2312 14-01-2004 11:31:01 6.9 C 4.39 g/m*3 6.9 C 0 km/h
2313 14-01-2004 11:43:01 6.8 C 4.28 g/m*3 6.8 C 0 km/h
2314 14-01-2004 11:55:01 6.6 C 4.23 g/m*3 6.6 C 0 km/h
2315 14-01-2004 12:07:01 6.8 C 4.21 g/m*3 6.8 C 0 km/h
2316 14-01-2004 12:19:01 7.2 C 4.24 g/m*3 7.2 C 0 km/h
2317 14-01-2004 12:31:01 7.4 C 4.29 g/m*3 7.4 C 0 km/h
2318 14-01-2004 12:43:00 7.5 C 4.24 g/m*3 7.5 C 0 km/h
2319 14-01-2004 12:55:00 7.7 C 4.22 g/m*3 7.7 C 0 km/h
2320 14-01-2004 13:07:59 7.9 C 4.19 g/m*3 7.9 C 0 km/h
2321 14-01-2004 13:19:59 8 C 4.13 g/m*3 8 C 0 km/h
2322 14-01-2004 13:31:01 7.8 C 4.16 g/m*3 7.8 C 0 km/h
2323 14-01-2004 13:43:01 7.8 C 4.16 g/m*3 7.8 C 0 km/h
2324 14-01-2004 13:55:01 7.6 C 4.19 g/m*3 7.6 C 0 km/h
2325 14-01-2004 14:07:01 7.6 C 4.27 g/m*3 7.6 C 0 km/h
Sensor: Nr:Datum:Temp:Abs-Feuchte:Windchill:Wind:
Aussen-T/F 2326 14-01-2004 14:19:01 7.5 C 4.32 g/m*3 7.5 C 0 km/h
2327 14-01-2004 14:31:01 7.4 C 4.37 g/m*3 7.4 C 0 km/h
2328 14-01-2004 14:43:00 7.6 C 4.51 g/m*3 7.6 C 0 km/h
2329 14-01-2004 14:55:00 8 C 4.46 g/m*3 8 C 0 km/h
2330 14-01-2004 15:07:58 8.3 C 4.47 g/m*3 8.3 C 0 km/h
2331 14-01-2004 15:19:58 8.2 C 4.35 g/m*3 8.2 C 0 km/h
2332 14-01-2004 15:31:01 8.1 C 4.33 g/m*3 8.1 C 0 km/h
2333 14-01-2004 15:43:01 8 C 4.3 g/m*3 8 C 0 km/h
2334 14-01-2004 15:55:01 8 C 4.3 g/m*3 8 C 0 km/h
2335 14-01-2004 16:07:01 8 C 4.3 g/m*3 8 C 0 km/h
2336 14-01-2004 16:19:01 7.7 C 4.38 g/m*3 7.7 C 0 km/h
2337 14-01-2004 16:31:01 7.7 C 4.38 g/m*3 7.7 C 0 km/h
2338 14-01-2004 16:43:00 7.4 C 4.45 g/m*3 7.4 C 0 km/h
2339 14-01-2004 16:55:00 7.2 C 4.55 g/m*3 7.2 C 0 km/h
2340 14-01-2004 17:07:59 6.5 C 4.87 g/m*3 6.5 C 0 km/h
2341 14-01-2004 17:19:59 6.7 C 5.01 g/m*3 6.7 C 0 km/h
2342 14-01-2004 17:31:01 6.3 C 4.96 g/m*3 6.3 C 0 km/h
2343 14-01-2004 17:43:01 6.4 C 5.07 g/m*3 6.4 C 0 km/h
2344 14-01-2004 17:55:01 6 C 5.08 g/m*3 6 C 0 km/h
2345 14-01-2004 18:07:01 6.1 C 5.11 g/m*3 6.1 C 0 km/h
2346 14-01-2004 18:19:01 6.3 C 5.03 g/m*3 6.3 C 0 km/h
2347 14-01-2004 18:31:01 6.3 C 5.03 g/m*3 6.3 C 0 km/h
2348 14-01-2004 18:43:00 6.3 C 4.96 g/m*3 6.3 C 0 km/h
2349 14-01-2004 18:55:00 5.7 C 5.12 g/m*3 5.7 C 0 km/h
2350 14-01-2004 19:07:58 5 C 5.23 g/m*3 5 C 0 km/h
Sensor: Nr:Datum:Temp:Abs-Feuchte:Windchill:Wind:
Aussen-T/F 2351 14-01-2004 19:19:58 4.7 C 5.4 g/m*3 4.7 C 0 km/h
2352 14-01-2004 19:31:01 4.7 C 5.46 g/m*3 4.7 C 0 km/h
2353 14-01-2004 19:43:01 4.7 C 5.46 g/m*3 4.7 C 0 km/h
2354 14-01-2004 19:55:01 4.7 C 5.46 g/m*3 4.7 C 0 km/h
2355 14-01-2004 20:07:01 4.6 C 5.49 g/m*3 4.6 C 0 km/h
2356 14-01-2004 20:19:01 4.5 C 5.46 g/m*3 4.5 C 0 km/h
2357 14-01-2004 20:31:01 4.5 C 5.46 g/m*3 4.5 C 0 km/h
2358 14-01-2004 20:43:01 4.4 C 5.42 g/m*3 4.4 C 0 km/h
2359 14-01-2004 20:55:01 4.3 C 5.32 g/m*3 4.3 C 0 km/h
2360 14-01-2004 21:07:02 4.3 C 5.25 g/m*3 4.3 C 0 km/h
2361 14-01-2004 21:19:02 4.3 C 5.25 g/m*3 4.3 C 0 km/h
2362 14-01-2004 21:31:02 4.2 C 5.09 g/m*3 4.2 C 0 km/h
2363 14-01-2004 21:43:00 4 C 5.02 g/m*3 4 C 0 km/h
2364 14-01-2004 21:55:00 3.8 C 5.02 g/m*3 3.8 C 0 km/h
2365 14-01-2004 22:07:59 3.8 C 5.08 g/m*3 3.8 C 0 km/h
2366 14-01-2004 22:19:59 4 C 5.02 g/m*3 4 C 0 km/h
2367 14-01-2004 22:31:01 4.1 C 4.99 g/m*3 4.1 C 0 km/h
2368 14-01-2004 22:43:01 4.2 C 5.09 g/m*3 4.2 C 0 km/h
2369 14-01-2004 22:55:01 4.4 C 5.09 g/m*3 4.4 C 0 km/h
2370 14-01-2004 23:07:02 4.5 C 5.06 g/m*3 4.5 C 0 km/h
2371 14-01-2004 23:19:02 4.6 C 5.1 g/m*3 4.6 C 0 km/h
2372 14-01-2004 23:31:02 4.6 C 5.03 g/m*3 4.6 C 0 km/h
2373 14-01-2004 23:43:00 4.7 C 4.93 g/m*3 4.7 C 0 km/h
2374 14-01-2004 23:55:00 4.6 C 4.96 g/m*3 4.6 C 0 km/h
2375 15-01-2004 00:07:59 4.8 C 4.96 g/m*3 4.8 C 0 km/h
Sensor: Nr:Datum:Temp:Abs-Feuchte:Windchill:Wind:
Aussen-T/F 2376 15-01-2004 00:19:59 4.7 C 5 g/m*3 4.7 C 0 km/h
2377 15-01-2004 00:31:01 4.5 C 5 g/m*3 4.5 C 0 km/h
2378 15-01-2004 00:43:01 4.4 C 5.09 g/m*3 4.4 C 0 km/h
2379 15-01-2004 00:55:01 4.3 C 5.12 g/m*3 4.3 C 0 km/h
2380 15-01-2004 01:07:00 4.2 C 5.15 g/m*3 4.2 C 0 km/h
2381 15-01-2004 01:19:00 4 C 5.02 g/m*3 4 C 0 km/h
2382 15-01-2004 01:31:00 4 C 4.9 g/m*3 4 C 0 km/h
2383 15-01-2004 01:43:01 4.2 C 4.83 g/m*3 4.2 C 0 km/h
2384 15-01-2004 01:55:01 4.4 C 4.83 g/m*3 4.4 C 0 km/h
2385 15-01-2004 02:07:01 4.2 C 4.83 g/m*3 4.2 C 0 km/h
2386 15-01-2004 02:19:01 4 C 4.9 g/m*3 4 C 0 km/h
2387 15-01-2004 02:31:01 3.8 C 5.02 g/m*3 3.8 C 0 km/h
2388 15-01-2004 02:44:59 3.6 C 5.01 g/m*3 3.6 C 0 km/h
2389 15-01-2004 02:56:59 3.6 C 5.08 g/m*3 3.6 C 0 km/h
2390 15-01-2004 03:08:59 3.7 C 5.05 g/m*3 3.7 C 0 km/h
2391 15-01-2004 03:20:59 3.5 C 4.8 g/m*3 3.5 C 0 km/h
2392 15-01-2004 03:32:01 3.5 C 4.8 g/m*3 3.5 C 0 km/h
2393 15-01-2004 03:44:01 3.2 C 4.7 g/m*3 3.2 C 0 km/h
2394 15-01-2004 03:56:01 3 C 4.7 g/m*3 3 C 0 km/h
2395 15-01-2004 04:08:01 3 C 4.76 g/m*3 3 C 0 km/h
2396 15-01-2004 04:20:01 2.8 C 4.81 g/m*3 2.8 C 0 km/h
2397 15-01-2004 04:32:01 2.6 C 4.86 g/m*3 2.6 C 0 km/h
2398 15-01-2004 04:44:01 2.6 C 4.86 g/m*3 2.6 C 0 km/h
2399 15-01-2004 04:56:01 2.5 C 4.89 g/m*3 2.5 C 0 km/h
2400 15-01-2004 05:08:01 2.7 C 4.89 g/m*3 2.7 C 0 km/h
Sensor: Nr:Datum:Temp:Abs-Feuchte:Windchill:Wind:
Aussen-T/F 2401 15-01-2004 05:20:01 2.9 C 4.84 g/m*3 2.9 C 0 km/h
2402 15-01-2004 05:32:00 2.8 C 4.87 g/m*3 2.8 C 0 km/h
2403 15-01-2004 05:44:00 2.9 C 4.96 g/m*3 2.9 C 0 km/h
2404 15-01-2004 05:56:00 3.4 C 5.07 g/m*3 3.4 C 0 km/h
2405 15-01-2004 06:08:59 3.7 C 5.05 g/m*3 3.7 C 0 km/h
2406 15-01-2004 06:20:59 4.1 C 5.06 g/m*3 4.1 C 0 km/h
2407 15-01-2004 06:32:01 4.3 C 5.06 g/m*3 4.3 C 0 km/h
2408 15-01-2004 06:44:01 4 C 4.83 g/m*3 4 C 0 km/h
2409 15-01-2004 06:56:01 2.7 C 4.72 g/m*3 2.7 C 0 km/h
2410 15-01-2004 07:08:01 2.9 C 4.9 g/m*3 2.9 C 0 km/h
2411 15-01-2004 07:20:01 4 C 4.96 g/m*3 4 C 0 km/h
2412 15-01-2004 07:32:00 4.1 C 4.8 g/m*3 4.1 C 0 km/h
2413 15-01-2004 07:44:00 4.3 C 4.67 g/m*3 4.3 C 0 km/h
2414 15-01-2004 07:56:00 4.1 C 4.61 g/m*3 4.1 C 0 km/h
2415 15-01-2004 08:08:59 4.2 C 4.57 g/m*3 4.2 C 0 km/h
2416 15-01-2004 08:20:59 4.2 C 4.51 g/m*3 4.2 C 0 km/h
2417 15-01-2004 08:32:01 4.2 C 4.45 g/m*3 4.2 C 0 km/h
2418 15-01-2004 08:44:01 4.1 C 4.35 g/m*3 4.1 C 0 km/h
2419 15-01-2004 08:56:01 4 C 4.39 g/m*3 4 C 0 km/h
2420 15-01-2004 09:08:01 3.9 C 4.42 g/m*3 3.9 C 0 km/h
2421 15-01-2004 09:20:01 3.9 C 4.42 g/m*3 3.9 C 0 km/h
2422 15-01-2004 09:32:00 4.1 C 4.35 g/m*3 4.1 C 0 km/h
2423 15-01-2004 09:44:00 4.2 C 4.32 g/m*3 4.2 C 0 km/h
2424 15-01-2004 09:56:00 4.3 C 4.28 g/m*3 4.3 C 0 km/h
2425 15-01-2004 10:08:58 4.7 C 4.2 g/m*3 4.7 C 0 km/h
Sensor: Nr:Datum:Temp:Abs-Feuchte:Windchill:Wind:
Aussen-T/F 2426 15-01-2004 10:20:58 4.8 C 4.29 g/m*3 4.8 C 0 km/h
2427 15-01-2004 10:32:01 4.8 C 4.29 g/m*3 4.8 C 0 km/h
2428 15-01-2004 10:44:01 5.1 C 4.17 g/m*3 5.1 C 0 km/h
2429 15-01-2004 10:56:01 5.2 C 4.27 g/m*3 5.2 C 0 km/h
2430 15-01-2004 11:08:01 5.3 C 4.3 g/m*3 5.3 C 0 km/h
2431 15-01-2004 11:20:01 5.3 C 4.3 g/m*3 5.3 C 0 km/h
2432 15-01-2004 11:32:00 5.4 C 4.12 g/m*3 5.4 C 0 km/h
2433 15-01-2004 11:44:00 5.5 C 4.21 g/m*3 5.5 C 0 km/h
2434 15-01-2004 11:56:00 5.4 C 4.19 g/m*3 5.4 C 0 km/h
2435 15-01-2004 12:08:58 5.3 C 4.09 g/m*3 5.3 C 0 km/h
2436 15-01-2004 12:20:58 5 C 4.01 g/m*3 5 C 0 km/h
2437 15-01-2004 12:32:01 5.2 C 3.92 g/m*3 5.2 C 0 km/h
2438 15-01-2004 12:44:01 5.1 C 3.83 g/m*3 5.1 C 0 km/h
2439 15-01-2004 12:56:01 5 C 3.81 g/m*3 5 C 0 km/h
2440 15-01-2004 13:08:00 4.9 C 3.78 g/m*3 4.9 C 0 km/h
2441 15-01-2004 13:20:00 4.7 C 3.8 g/m*3 4.7 C 0 km/h
2442 15-01-2004 13:32:01 4.8 C 3.89 g/m*3 4.8 C 0 km/h
2443 15-01-2004 13:44:01 5 C 3.81 g/m*3 5 C 0 km/h
2444 15-01-2004 13:56:01 5.1 C 3.83 g/m*3 5.1 C 0 km/h
2445 15-01-2004 14:08:01 5.1 C 3.9 g/m*3 5.1 C 0 km/h
2446 15-01-2004 14:20:01 5.3 C 3.95 g/m*3 5.3 C 0 km/h
2447 15-01-2004 14:32:01 5.3 C 3.95 g/m*3 5.3 C 0 km/h
2448 15-01-2004 14:44:01 5.3 C 4.02 g/m*3 5.3 C 0 km/h
2449 15-01-2004 14:56:01 5.2 C 4.13 g/m*3 5.2 C 0 km/h
2450 15-01-2004 15:08:00 5.3 C 4.16 g/m*3 5.3 C 0 km/h
Sensor: Nr:Datum:Temp:Abs-Feuchte:Windchill:Wind:
Aussen-T/F 2451 15-01-2004 15:20:00 5.3 C 4.16 g/m*3 5.3 C 0 km/h
2452 15-01-2004 15:32:01 5.3 C 4.23 g/m*3 5.3 C 0 km/h
2453 15-01-2004 15:44:01 5.2 C 4.2 g/m*3 5.2 C 0 km/h
2454 15-01-2004 15:56:01 4.8 C 4.29 g/m*3 4.8 C 0 km/h
2455 15-01-2004 16:08:01 4.6 C 4.3 g/m*3 4.6 C 0 km/h
2456 15-01-2004 16:20:01 4.5 C 4.34 g/m*3 4.5 C 0 km/h
2457 15-01-2004 16:32:00 4.4 C 4.37 g/m*3 4.4 C 0 km/h
2458 15-01-2004 16:44:00 4.4 C 4.37 g/m*3 4.4 C 0 km/h
2459 15-01-2004 16:56:00 4.3 C 4.35 g/m*3 4.3 C 0 km/h
2460 15-01-2004 17:08:58 4 C 4.32 g/m*3 4 C 0 km/h
2461 15-01-2004 17:20:58 4.1 C 4.42 g/m*3 4.1 C 0 km/h
2462 15-01-2004 17:32:01 4.1 C 4.35 g/m*3 4.1 C 0 km/h
2463 15-01-2004 17:44:01 3.9 C 4.42 g/m*3 3.9 C 0 km/h
2464 15-01-2004 17:56:01 3.6 C 4.33 g/m*3 3.6 C 0 km/h
2465 15-01-2004 18:08:01 3.4 C 4.34 g/m*3 3.4 C 0 km/h
2466 15-01-2004 18:20:01 3.1 C 4.31 g/m*3 3.1 C 0 km/h
2467 15-01-2004 18:32:01 3.4 C 4.34 g/m*3 3.4 C 0 km/h
2468 15-01-2004 18:44:01 3.4 C 4.34 g/m*3 3.4 C 0 km/h
2469 15-01-2004 18:56:01 3 C 4.28 g/m*3 3 C 0 km/h
2470 15-01-2004 19:08:01 3 C 4.34 g/m*3 3 C 0 km/h
2471 15-01-2004 19:20:01 2.4 C 4.28 g/m*3 2.4 C 0 km/h
2472 15-01-2004 19:32:01 2.4 C 4.4 g/m*3 2.4 C 0 km/h
2473 15-01-2004 19:44:01 2.5 C 4.43 g/m*3 2.5 C 0 km/h
2474 15-01-2004 19:56:01 3.1 C 4.55 g/m*3 3.1 C 0 km/h
2475 15-01-2004 20:08:01 3.3 C 4.43 g/m*3 3.3 C 0 km/h
Sensor: Nr:Datum:Temp:Abs-Feuchte:Windchill:Wind:
Aussen-T/F 2476 15-01-2004 20:20:01 2.9 C 4.43 g/m*3 2.9 C 0 km/h
2477 15-01-2004 20:32:00 3.4 C 4.58 g/m*3 3.4 C 0 km/h
2478 15-01-2004 20:44:00 3.7 C 4.55 g/m*3 3.7 C 0 km/h
2479 15-01-2004 20:56:00 4 C 4.45 g/m*3 4 C 0 km/h
2480 15-01-2004 21:08:58 4.1 C 4.48 g/m*3 4.1 C 0 km/h
2481 15-01-2004 21:20:58 3.9 C 4.48 g/m*3 3.9 C 0 km/h
2482 15-01-2004 21:32:01 3.6 C 4.46 g/m*3 3.6 C 0 km/h
2483 15-01-2004 21:44:01 3.4 C 4.4 g/m*3 3.4 C 0 km/h
2484 15-01-2004 21:56:01 4 C 4.45 g/m*3 4 C 0 km/h
2485 15-01-2004 22:08:01 4.3 C 4.41 g/m*3 4.3 C 0 km/h
2486 15-01-2004 22:20:01 4.6 C 4.37 g/m*3 4.6 C 0 km/h
2487 15-01-2004 22:32:00 4.6 C 4.3 g/m*3 4.6 C 0 km/h
2488 15-01-2004 22:44:00 4.7 C 4.33 g/m*3 4.7 C 0 km/h
2489 15-01-2004 22:56:00 4.7 C 4.4 g/m*3 4.7 C 0 km/h
2490 15-01-2004 23:08:58 4.5 C 4.47 g/m*3 4.5 C 0 km/h
2491 15-01-2004 23:20:58 4.5 C 4.67 g/m*3 4.5 C 0 km/h
2492 15-01-2004 23:32:01 4.5 C 4.67 g/m*3 4.5 C 0 km/h
2493 15-01-2004 23:44:01 4.8 C 4.69 g/m*3 4.8 C 0 km/h
2494 15-01-2004 23:56:01 4.6 C 4.63 g/m*3 4.6 C 0 km/h
2495 16-01-2004 00:08:01 4.7 C 4.6 g/m*3 4.7 C 0 km/h
2496 16-01-2004 00:20:01 4.8 C 4.63 g/m*3 4.8 C 0 km/h
2497 16-01-2004 00:32:01 5.1 C 4.51 g/m*3 5.1 C 0 km/h
2498 16-01-2004 00:44:01 5.1 C 4.45 g/m*3 5.1 C 0 km/h
2499 16-01-2004 00:56:01 5.1 C 4.38 g/m*3 5.1 C 0 km/h
2500 16-01-2004 01:08:01 5.1 C 4.38 g/m*3 5.1 C 0 km/h
Sensor: Nr:Datum:Temp:Abs-Feuchte:Windchill:Wind:
Aussen-T/F 2501 16-01-2004 01:20:01 5 C 4.35 g/m*3 5 C 0 km/h
2502 16-01-2004 01:32:00 4.9 C 4.46 g/m*3 4.9 C 0 km/h
2503 16-01-2004 01:44:00 4.9 C 4.46 g/m*3 4.9 C 0 km/h
2504 16-01-2004 01:56:00 5 C 4.35 g/m*3 5 C 0 km/h
2505 16-01-2004 02:08:58 5 C 4.35 g/m*3 5 C 0 km/h
2506 16-01-2004 02:20:58 5.1 C 4.31 g/m*3 5.1 C 0 km/h
2507 16-01-2004 02:33:02 5.1 C 4.31 g/m*3 5.1 C 0 km/h
2508 16-01-2004 02:45:02 5 C 4.28 g/m*3 5 C 0 km/h
2509 16-01-2004 02:57:02 5 C 4.28 g/m*3 5 C 0 km/h
2510 16-01-2004 03:09:02 5 C 4.28 g/m*3 5 C 0 km/h
2511 16-01-2004 03:21:02 5.1 C 4.24 g/m*3 5.1 C 0 km/h
2512 16-01-2004 03:33:00 5.2 C 4.2 g/m*3 5.2 C 0 km/h
2513 16-01-2004 03:45:00 5.2 C 4.27 g/m*3 5.2 C 0 km/h
2514 16-01-2004 03:57:00 5.2 C 4.34 g/m*3 5.2 C 0 km/h
2515 16-01-2004 04:09:59 5.2 C 4.34 g/m*3 5.2 C 0 km/h
2516 16-01-2004 04:21:59 5 C 4.42 g/m*3 5 C 0 km/h
2517 16-01-2004 04:33:01 4.8 C 4.63 g/m*3 4.8 C 0 km/h
2518 16-01-2004 04:45:01 4.6 C 4.7 g/m*3 4.6 C 0 km/h
2519 16-01-2004 04:57:01 4.3 C 4.8 g/m*3 4.3 C 0 km/h
2520 16-01-2004 05:09:01 4.3 C 4.86 g/m*3 4.3 C 0 km/h
2521 16-01-2004 05:21:01 4.3 C 4.93 g/m*3 4.3 C 0 km/h
2522 16-01-2004 05:33:00 4.3 C 4.93 g/m*3 4.3 C 0 km/h
2523 16-01-2004 05:45:00 4.4 C 4.83 g/m*3 4.4 C 0 km/h
2524 16-01-2004 05:57:00 4.6 C 4.9 g/m*3 4.6 C 0 km/h
2525 16-01-2004 06:09:58 4.8 C 4.83 g/m*3 4.8 C 0 km/h
Sensor: Nr:Datum:Temp:Abs-Feuchte:Windchill:Wind:
Aussen-T/F 2526 16-01-2004 06:21:58 5.1 C 4.72 g/m*3 5.1 C 0 km/h
2527 16-01-2004 06:33:01 5.1 C 4.65 g/m*3 5.1 C 0 km/h
2528 16-01-2004 06:45:01 5.1 C 4.65 g/m*3 5.1 C 0 km/h
2529 16-01-2004 06:57:01 5.1 C 4.65 g/m*3 5.1 C 0 km/h
2530 16-01-2004 07:09:01 5.3 C 4.57 g/m*3 5.3 C 0 km/h
2531 16-01-2004 07:21:01 5.3 C 4.57 g/m*3 5.3 C 0 km/h
2532 16-01-2004 07:33:00 5.4 C 4.67 g/m*3 5.4 C 0 km/h
2533 16-01-2004 07:45:00 5.1 C 4.79 g/m*3 5.1 C 0 km/h
2534 16-01-2004 07:57:00 5.2 C 4.82 g/m*3 5.2 C 0 km/h
2535 16-01-2004 08:09:59 4.7 C 5.06 g/m*3 4.7 C 0 km/h
2536 16-01-2004 08:21:59 4.6 C 5.1 g/m*3 4.6 C 0 km/h
2537 16-01-2004 08:33:01 4.6 C 5.16 g/m*3 4.6 C 0 km/h
2538 16-01-2004 08:45:01 4.8 C 5.23 g/m*3 4.8 C 0 km/h
2539 16-01-2004 08:57:01 4.8 C 5.3 g/m*3 4.8 C 0 km/h
2540 16-01-2004 09:09:00 4.8 C 5.3 g/m*3 4.8 C 0 km/h
2541 16-01-2004 09:21:00 4.9 C 5.27 g/m*3 4.9 C 0 km/h
2542 16-01-2004 09:33:01 5 C 5.3 g/m*3 5 C 0 km/h
2543 16-01-2004 09:45:01 5 C 5.23 g/m*3 5 C 0 km/h
2544 16-01-2004 09:57:01 5.4 C 5.09 g/m*3 5.4 C 0 km/h
2545 16-01-2004 10:09:01 5.4 C 5.02 g/m*3 5.4 C 0 km/h
2546 16-01-2004 10:21:01 5.6 C 4.95 g/m*3 5.6 C 0 km/h
2547 16-01-2004 10:33:00 5.6 C 4.95 g/m*3 5.6 C 0 km/h
2548 16-01-2004 10:45:00 5.4 C 4.95 g/m*3 5.4 C 0 km/h
2549 16-01-2004 10:57:00 5.2 C 4.89 g/m*3 5.2 C 0 km/h
2550 16-01-2004 11:09:58 5.3 C 4.92 g/m*3 5.3 C 0 km/h
Sensor: Nr:Datum:Temp:Abs-Feuchte:Windchill:Wind:
Aussen-T/F 2551 16-01-2004 11:21:58 5.4 C 4.95 g/m*3 5.4 C 0 km/h
2552 16-01-2004 11:33:01 6 C 4.94 g/m*3 6 C 0 km/h
2553 16-01-2004 11:45:01 6.4 C 4.99 g/m*3 6.4 C 0 km/h
2554 16-01-2004 11:57:01 6.7 C 5.09 g/m*3 6.7 C 0 km/h
2555 16-01-2004 12:09:01 6.9 C 5.08 g/m*3 6.9 C 0 km/h
2556 16-01-2004 12:21:01 7 C 4.96 g/m*3 7 C 0 km/h
2557 16-01-2004 12:33:02 7.5 C 5.04 g/m*3 7.5 C 0 km/h
2558 16-01-2004 12:45:02 7.5 C 4.96 g/m*3 7.5 C 0 km/h
2559 16-01-2004 12:57:02 7.9 C 5.01 g/m*3 7.9 C 0 km/h
2560 16-01-2004 13:09:01 7.8 C 4.98 g/m*3 7.8 C 0 km/h
2561 16-01-2004 13:21:01 8.1 C 4.83 g/m*3 8.1 C 0 km/h
2562 16-01-2004 13:33:00 8.9 C 4.99 g/m*3 8.9 C 0 km/h
2563 16-01-2004 13:45:00 9 C 4.85 g/m*3 9 C 0 km/h
2564 16-01-2004 13:57:00 8.8 C 4.7 g/m*3 8.8 C 0 km/h
2565 16-01-2004 14:09:59 8.7 C 4.67 g/m*3 8.7 C 0 km/h
2566 16-01-2004 14:21:59 8.6 C 4.73 g/m*3 8.6 C 0 km/h
2567 16-01-2004 14:33:01 8.2 C 4.69 g/m*3 8.2 C 0 km/h
2568 16-01-2004 14:45:01 8.3 C 4.64 g/m*3 8.3 C 0 km/h
2569 16-01-2004 14:57:01 8.1 C 4.58 g/m*3 8.1 C 0 km/h
2570 16-01-2004 15:09:01 8.2 C 4.52 g/m*3 8.2 C 0 km/h
2571 16-01-2004 15:21:01 8.2 C 4.44 g/m*3 8.2 C 0 km/h
2572 16-01-2004 15:33:01 8.2 C 4.52 g/m*3 8.2 C 0 km/h
2573 16-01-2004 15:45:01 7.6 C 4.83 g/m*3 7.6 C 0 km/h
2574 16-01-2004 15:57:01 7.9 C 4.68 g/m*3 7.9 C 0 km/h
2575 16-01-2004 16:09:01 8.1 C 4.58 g/m*3 8.1 C 0 km/h
Sensor: Nr:Datum:Temp:Abs-Feuchte:Windchill:Wind:
Aussen-T/F 2576 16-01-2004 16:21:01 8 C 4.46 g/m*3 8 C 0 km/h
2577 16-01-2004 16:33:02 8.2 C 4.44 g/m*3 8.2 C 0 km/h
2578 16-01-2004 16:45:02 7.9 C 4.44 g/m*3 7.9 C 0 km/h
2579 16-01-2004 16:57:02 8.1 C 4.41 g/m*3 8.1 C 0 km/h
2580 16-01-2004 17:09:02 8 C 4.38 g/m*3 8 C 0 km/h
2581 16-01-2004 17:21:02 7.7 C 4.54 g/m*3 7.7 C 0 km/h
2582 16-01-2004 17:33:00 7.5 C 4.4 g/m*3 7.5 C 0 km/h
2583 16-01-2004 17:45:00 7.3 C 4.5 g/m*3 7.3 C 0 km/h
2584 16-01-2004 17:57:00 6.9 C 4.77 g/m*3 6.9 C 0 km/h
2585 16-01-2004 18:09:59 6.4 C 4.69 g/m*3 6.4 C 0 km/h
2586 16-01-2004 18:21:59 6 C 4.79 g/m*3 6 C 0 km/h
2587 16-01-2004 18:33:01 6 C 4.79 g/m*3 6 C 0 km/h
2588 16-01-2004 18:45:01 5.7 C 4.77 g/m*3 5.7 C 0 km/h
2589 16-01-2004 18:57:01 5.8 C 4.66 g/m*3 5.8 C 0 km/h
2590 16-01-2004 19:09:00 5.9 C 4.69 g/m*3 5.9 C 0 km/h
2591 16-01-2004 19:21:00 5.9 C 4.54 g/m*3 5.9 C 0 km/h
2592 16-01-2004 19:33:01 5.8 C 4.58 g/m*3 5.8 C 0 km/h
2593 16-01-2004 19:45:01 5.7 C 4.63 g/m*3 5.7 C 0 km/h
2594 16-01-2004 19:57:01 6 C 4.43 g/m*3 6 C 0 km/h
2595 16-01-2004 20:09:01 6.2 C 4.41 g/m*3 6.2 C 0 km/h
2596 16-01-2004 20:21:01 6.3 C 4.37 g/m*3 6.3 C 0 km/h
2597 16-01-2004 20:33:01 6.1 C 4.31 g/m*3 6.1 C 0 km/h
2598 16-01-2004 20:45:01 6 C 4.35 g/m*3 6 C 0 km/h
2599 16-01-2004 20:57:01 6 C 4.5 g/m*3 6 C 0 km/h
2600 16-01-2004 21:09:59 5.8 C 4.58 g/m*3 5.8 C 0 km/h
Sensor: Nr:Datum:Temp:Abs-Feuchte:Windchill:Wind:
Aussen-T/F 2601 16-01-2004 21:21:59 5.8 C 4.51 g/m*3 5.8 C 0 km/h
2602 16-01-2004 21:33:01 5.8 C 4.51 g/m*3 5.8 C 0 km/h
2603 16-01-2004 21:45:01 5.8 C 4.58 g/m*3 5.8 C 0 km/h
2604 16-01-2004 21:57:01 5.7 C 4.55 g/m*3 5.7 C 0 km/h
2605 16-01-2004 22:09:01 5.7 C 4.55 g/m*3 5.7 C 0 km/h
2606 16-01-2004 22:21:01 5.6 C 4.6 g/m*3 5.6 C 0 km/h
2607 16-01-2004 22:33:00 5.4 C 4.6 g/m*3 5.4 C 0 km/h
2608 16-01-2004 22:45:00 5.4 C 4.6 g/m*3 5.4 C 0 km/h
2609 16-01-2004 22:57:00 5.4 C 4.74 g/m*3 5.4 C 0 km/h
2610 16-01-2004 23:09:58 5.2 C 4.89 g/m*3 5.2 C 0 km/h
2611 16-01-2004 23:21:58 5.3 C 4.85 g/m*3 5.3 C 0 km/h
2612 16-01-2004 23:33:01 5.1 C 4.86 g/m*3 5.1 C 0 km/h
2613 16-01-2004 23:45:01 5.2 C 4.82 g/m*3 5.2 C 0 km/h
2614 16-01-2004 23:57:01 5.3 C 4.78 g/m*3 5.3 C 0 km/h
2615 17-01-2004 00:09:01 5.1 C 4.72 g/m*3 5.1 C 0 km/h
2616 17-01-2004 00:21:01 5 C 4.69 g/m*3 5 C 0 km/h
2617 17-01-2004 00:32:59 5.4 C 4.67 g/m*3 5.4 C 0 km/h
2618 17-01-2004 00:44:59 5.3 C 4.71 g/m*3 5.3 C 0 km/h
2619 17-01-2004 00:56:59 5.2 C 4.82 g/m*3 5.2 C 0 km/h
2620 17-01-2004 01:09:58 4.9 C 4.86 g/m*3 4.9 C 0 km/h
2621 17-01-2004 01:21:58 4.9 C 4.86 g/m*3 4.9 C 0 km/h
2622 17-01-2004 01:33:01 4.9 C 4.79 g/m*3 4.9 C 0 km/h
2623 17-01-2004 01:45:01 5 C 4.69 g/m*3 5 C 0 km/h
2624 17-01-2004 01:57:01 4.9 C 4.66 g/m*3 4.9 C 0 km/h
2625 17-01-2004 02:09:01 4.7 C 4.66 g/m*3 4.7 C 0 km/h
Sensor: Nr:Datum:Temp:Abs-Feuchte:Windchill:Wind:
Aussen-T/F 2626 17-01-2004 02:21:01 4.5 C 4.67 g/m*3 4.5 C 0 km/h
2627 17-01-2004 02:34:02 4.1 C 4.61 g/m*3 4.1 C 0 km/h
2628 17-01-2004 02:46:02 4.2 C 4.77 g/m*3 4.2 C 0 km/h
2629 17-01-2004 02:58:02 4.4 C 4.77 g/m*3 4.4 C 0 km/h
2630 17-01-2004 03:10:02 4.5 C 4.8 g/m*3 4.5 C 0 km/h
2631 17-01-2004 03:22:02 4.4 C 4.77 g/m*3 4.4 C 0 km/h
2632 17-01-2004 03:34:00 4.3 C 4.67 g/m*3 4.3 C 0 km/h
2633 17-01-2004 03:46:00 4.3 C 4.67 g/m*3 4.3 C 0 km/h
2634 17-01-2004 03:58:00 4.1 C 4.67 g/m*3 4.1 C 0 km/h
2635 17-01-2004 04:10:58 3.8 C 4.71 g/m*3 3.8 C 0 km/h
2636 17-01-2004 04:22:58 4 C 4.64 g/m*3 4 C 0 km/h
2637 17-01-2004 04:34:01 3.9 C 4.74 g/m*3 3.9 C 0 km/h
2638 17-01-2004 04:46:01 4 C 4.64 g/m*3 4 C 0 km/h
2639 17-01-2004 04:58:01 4 C 4.7 g/m*3 4 C 0 km/h
2640 17-01-2004 05:10:01 4.1 C 4.67 g/m*3 4.1 C 0 km/h
2641 17-01-2004 05:22:01 4.2 C 4.7 g/m*3 4.2 C 0 km/h
2642 17-01-2004 05:34:01 4.4 C 4.64 g/m*3 4.4 C 0 km/h
2643 17-01-2004 05:46:01 4.4 C 4.64 g/m*3 4.4 C 0 km/h
2644 17-01-2004 05:58:01 4.7 C 4.66 g/m*3 4.7 C 0 km/h
2645 17-01-2004 06:10:01 4.7 C 4.66 g/m*3 4.7 C 0 km/h
2646 17-01-2004 06:22:01 4.7 C 4.6 g/m*3 4.7 C 0 km/h
2647 17-01-2004 06:34:00 4.7 C 4.6 g/m*3 4.7 C 0 km/h
2648 17-01-2004 06:46:00 4.6 C 4.5 g/m*3 4.6 C 0 km/h
2649 17-01-2004 06:58:00 4.7 C 4.53 g/m*3 4.7 C 0 km/h
2650 17-01-2004 07:10:58 4.5 C 4.54 g/m*3 4.5 C 0 km/h
Sensor: Nr:Datum:Temp:Abs-Feuchte:Windchill:Wind:
Aussen-T/F 2651 17-01-2004 07:22:58 4.5 C 4.54 g/m*3 4.5 C 0 km/h
2652 17-01-2004 07:34:01 4.5 C 4.54 g/m*3 4.5 C 0 km/h
2653 17-01-2004 07:46:01 4.5 C 4.54 g/m*3 4.5 C 0 km/h
2654 17-01-2004 07:58:01 4.6 C 4.5 g/m*3 4.6 C 0 km/h
2655 17-01-2004 08:10:01 4.6 C 4.5 g/m*3 4.6 C 0 km/h
2656 17-01-2004 08:22:01 4.7 C 4.46 g/m*3 4.7 C 0 km/h
2657 17-01-2004 08:34:00 4.9 C 4.39 g/m*3 4.9 C 0 km/h
2658 17-01-2004 08:46:00 4.9 C 4.46 g/m*3 4.9 C 0 km/h
2659 17-01-2004 08:58:00 4.9 C 4.52 g/m*3 4.9 C 0 km/h
2660 17-01-2004 09:10:58 4.5 C 4.73 g/m*3 4.5 C 0 km/h
2661 17-01-2004 09:22:58 4.1 C 4.86 g/m*3 4.1 C 0 km/h
2662 17-01-2004 09:34:01 4 C 4.9 g/m*3 4 C 0 km/h
2663 17-01-2004 09:46:01 4 C 4.96 g/m*3 4 C 0 km/h
2664 17-01-2004 09:58:01 4 C 4.96 g/m*3 4 C 0 km/h
2665 17-01-2004 10:10:01 4.2 C 4.96 g/m*3 4.2 C 0 km/h
2666 17-01-2004 10:22:01 4.3 C 4.93 g/m*3 4.3 C 0 km/h
2667 17-01-2004 10:34:00 4.5 C 4.86 g/m*3 4.5 C 0 km/h
2668 17-01-2004 10:46:00 4.5 C 4.8 g/m*3 4.5 C 0 km/h
2669 17-01-2004 10:58:00 4.8 C 4.76 g/m*3 4.8 C 0 km/h
2670 17-01-2004 11:10:58 4.8 C 4.76 g/m*3 4.8 C 0 km/h
2671 17-01-2004 11:22:58 4.8 C 4.76 g/m*3 4.8 C 0 km/h
2672 17-01-2004 11:34:01 4.9 C 4.73 g/m*3 4.9 C 0 km/h
2673 17-01-2004 11:46:01 5.1 C 4.65 g/m*3 5.1 C 0 km/h
2674 17-01-2004 11:58:01 5.3 C 4.64 g/m*3 5.3 C 0 km/h
2675 17-01-2004 12:10:01 5.2 C 4.68 g/m*3 5.2 C 0 km/h
Sensor: Nr:Datum:Temp:Abs-Feuchte:Windchill:Wind:
Aussen-T/F 2676 17-01-2004 12:22:01 5.5 C 4.57 g/m*3 5.5 C 0 km/h
2677 17-01-2004 12:34:00 5.7 C 4.55 g/m*3 5.7 C 0 km/h
2678 17-01-2004 12:46:00 5.7 C 4.63 g/m*3 5.7 C 0 km/h
2679 17-01-2004 12:58:00 6.1 C 4.6 g/m*3 6.1 C 0 km/h
2680 17-01-2004 13:10:59 6.2 C 4.56 g/m*3 6.2 C 0 km/h
2681 17-01-2004 13:22:59 6.4 C 4.47 g/m*3 6.4 C 0 km/h
2682 17-01-2004 13:34:01 6.4 C 4.47 g/m*3 6.4 C 0 km/h
2683 17-01-2004 13:46:01 6.1 C 4.46 g/m*3 6.1 C 0 km/h
2684 17-01-2004 13:58:01 6 C 4.43 g/m*3 6 C 0 km/h
2685 17-01-2004 14:10:01 5.9 C 4.54 g/m*3 5.9 C 0 km/h
2686 17-01-2004 14:22:01 5.8 C 4.51 g/m*3 5.8 C 0 km/h
2687 17-01-2004 14:34:00 5.9 C 4.54 g/m*3 5.9 C 0 km/h
2688 17-01-2004 14:46:00 6.2 C 4.49 g/m*3 6.2 C 0 km/h
2689 17-01-2004 14:58:00 6 C 4.43 g/m*3 6 C 0 km/h
2690 17-01-2004 15:10:59 5.8 C 4.44 g/m*3 5.8 C 0 km/h
2691 17-01-2004 15:22:59 5.7 C 4.41 g/m*3 5.7 C 0 km/h
2692 17-01-2004 15:34:01 5.4 C 4.33 g/m*3 5.4 C 0 km/h
2693 17-01-2004 15:46:01 5.6 C 4.38 g/m*3 5.6 C 0 km/h
2694 17-01-2004 15:58:01 5.6 C 4.17 g/m*3 5.6 C 0 km/h
2695 17-01-2004 16:10:00 5.6 C 4.03 g/m*3 5.6 C 0 km/h
2696 17-01-2004 16:22:00 5.6 C 4.17 g/m*3 5.6 C 0 km/h
2697 17-01-2004 16:34:01 5.6 C 4.17 g/m*3 5.6 C 0 km/h
2698 17-01-2004 16:46:01 5.5 C 4.14 g/m*3 5.5 C 0 km/h
2699 17-01-2004 16:58:01 5.1 C 4.04 g/m*3 5.1 C 0 km/h
2700 17-01-2004 17:10:01 5 C 4.08 g/m*3 5 C 0 km/h
Sensor: Nr:Datum:Temp:Abs-Feuchte:Windchill:Wind:
Aussen-T/F 2701 17-01-2004 17:22:01 4.8 C 4.09 g/m*3 4.8 C 0 km/h
2702 17-01-2004 17:34:59 4.6 C 4.1 g/m*3 4.6 C 0 km/h
2703 17-01-2004 17:46:59 4.5 C 4.21 g/m*3 4.5 C 0 km/h
2704 17-01-2004 17:58:59 4 C 4.2 g/m*3 4 C 0 km/h
2705 17-01-2004 18:10:58 3.4 C 4.21 g/m*3 3.4 C 0 km/h
2706 17-01-2004 18:22:58 3.2 C 4.28 g/m*3 3.2 C 0 km/h
2707 17-01-2004 18:34:01 3.2 C 4.34 g/m*3 3.2 C 0 km/h
2708 17-01-2004 18:46:01 3.5 C 4.43 g/m*3 3.5 C 0 km/h
2709 17-01-2004 18:58:01 3.8 C 4.45 g/m*3 3.8 C 0 km/h
2710 17-01-2004 19:10:01 3.6 C 4.33 g/m*3 3.6 C 0 km/h
2711 17-01-2004 19:22:01 3.3 C 4.37 g/m*3 3.3 C 0 km/h
2712 17-01-2004 19:34:01 2.8 C 4.34 g/m*3 2.8 C 0 km/h
2713 17-01-2004 19:46:01 2.7 C 4.37 g/m*3 2.7 C 0 km/h
2714 17-01-2004 19:58:01 2.6 C 4.4 g/m*3 2.6 C 0 km/h
2715 17-01-2004 20:10:01 2.5 C 4.37 g/m*3 2.5 C 0 km/h
2716 17-01-2004 20:22:01 2.7 C 4.43 g/m*3 2.7 C 0 km/h
2717 17-01-2004 20:34:00 3.2 C 4.46 g/m*3 3.2 C 0 km/h
2718 17-01-2004 20:46:00 3.4 C 4.46 g/m*3 3.4 C 0 km/h
2719 17-01-2004 20:58:00 3.7 C 4.42 g/m*3 3.7 C 0 km/h
2720 17-01-2004 21:10:59 3.7 C 4.42 g/m*3 3.7 C 0 km/h
2721 17-01-2004 21:22:59 3.9 C 4.42 g/m*3 3.9 C 0 km/h
2722 17-01-2004 21:34:01 4.1 C 4.29 g/m*3 4.1 C 0 km/h
2723 17-01-2004 21:46:01 3.8 C 4.33 g/m*3 3.8 C 0 km/h
2724 17-01-2004 21:58:01 3.8 C 4.39 g/m*3 3.8 C 0 km/h
2725 17-01-2004 22:10:00 3.8 C 4.33 g/m*3 3.8 C 0 km/h
Sensor: Nr:Datum:Temp:Abs-Feuchte:Windchill:Wind:
Aussen-T/F 2726 17-01-2004 22:22:00 3.8 C 4.33 g/m*3 3.8 C 0 km/h
2727 17-01-2004 22:34:01 3.8 C 4.33 g/m*3 3.8 C 0 km/h
2728 17-01-2004 22:46:01 3.8 C 4.33 g/m*3 3.8 C 0 km/h
2729 17-01-2004 22:58:01 3.7 C 4.3 g/m*3 3.7 C 0 km/h
2730 17-01-2004 23:10:01 3.7 C 4.36 g/m*3 3.7 C 0 km/h
2731 17-01-2004 23:22:01 3.7 C 4.36 g/m*3 3.7 C 0 km/h
2732 17-01-2004 23:34:00 3.7 C 4.36 g/m*3 3.7 C 0 km/h
2733 17-01-2004 23:46:00 3.7 C 4.36 g/m*3 3.7 C 0 km/h
2734 17-01-2004 23:58:00 3.7 C 4.36 g/m*3 3.7 C 0 km/h
2735 18-01-2004 00:10:58 3.7 C 4.42 g/m*3 3.7 C 0 km/h
2736 18-01-2004 00:22:58 3.7 C 4.42 g/m*3 3.7 C 0 km/h
2737 18-01-2004 00:34:01 3.7 C 4.42 g/m*3 3.7 C 0 km/h
2738 18-01-2004 00:46:01 3.6 C 4.46 g/m*3 3.6 C 0 km/h
2739 18-01-2004 00:58:01 3.3 C 4.61 g/m*3 3.3 C 0 km/h
2740 18-01-2004 01:10:01 3.3 C 4.67 g/m*3 3.3 C 0 km/h
2741 18-01-2004 01:22:01 3.3 C 4.61 g/m*3 3.3 C 0 km/h
2742 18-01-2004 01:34:01 3.3 C 4.61 g/m*3 3.3 C 0 km/h
2743 18-01-2004 01:46:01 3.3 C 4.67 g/m*3 3.3 C 0 km/h
2744 18-01-2004 01:58:01 3.4 C 4.58 g/m*3 3.4 C 0 km/h
2745 18-01-2004 02:10:01 3.4 C 4.58 g/m*3 3.4 C 0 km/h
2746 18-01-2004 02:22:01 3.3 C 4.61 g/m*3 3.3 C 0 km/h
2747 18-01-2004 02:35:01 3.3 C 4.61 g/m*3 3.3 C 0 km/h
2748 18-01-2004 02:47:01 3.2 C 4.7 g/m*3 3.2 C 0 km/h
2749 18-01-2004 02:59:01 3.1 C 4.67 g/m*3 3.1 C 0 km/h
2750 18-01-2004 03:11:00 3.2 C 4.7 g/m*3 3.2 C 0 km/h
Sensor: Nr:Datum:Temp:Abs-Feuchte:Windchill:Wind:
Aussen-T/F 2751 18-01-2004 03:23:00 3.2 C 4.7 g/m*3 3.2 C 0 km/h
2752 18-01-2004 03:35:01 3.3 C 4.73 g/m*3 3.3 C 0 km/h
2753 18-01-2004 03:47:01 3.3 C 4.67 g/m*3 3.3 C 0 km/h
2754 18-01-2004 03:59:01 3.3 C 4.67 g/m*3 3.3 C 0 km/h
2755 18-01-2004 04:11:00 3.3 C 4.67 g/m*3 3.3 C 0 km/h
2756 18-01-2004 04:23:00 3.3 C 4.67 g/m*3 3.3 C 0 km/h
2757 18-01-2004 04:35:01 3.2 C 4.7 g/m*3 3.2 C 0 km/h
2758 18-01-2004 04:47:01 3 C 4.76 g/m*3 3 C 0 km/h
2759 18-01-2004 04:59:01 3 C 4.82 g/m*3 3 C 0 km/h
2760 18-01-2004 05:11:01 3 C 4.88 g/m*3 3 C 0 km/h
2761 18-01-2004 05:23:01 3 C 4.93 g/m*3 3 C 0 km/h
2762 18-01-2004 05:35:01 3.1 C 5.03 g/m*3 3.1 C 0 km/h
2763 18-01-2004 05:47:01 3.2 C 5.06 g/m*3 3.2 C 0 km/h
2764 18-01-2004 05:59:01 3.2 C 5.06 g/m*3 3.2 C 0 km/h
2765 18-01-2004 06:11:01 3.2 C 5.06 g/m*3 3.2 C 0 km/h
2766 18-01-2004 06:23:01 3.3 C 5.1 g/m*3 3.3 C 0 km/h
2767 18-01-2004 06:35:00 3.3 C 5.04 g/m*3 3.3 C 0 km/h
2768 18-01-2004 06:47:00 3.4 C 5.07 g/m*3 3.4 C 0 km/h
2769 18-01-2004 06:59:00 3.5 C 5.1 g/m*3 3.5 C 0 km/h
2770 18-01-2004 07:11:58 3.5 C 5.1 g/m*3 3.5 C 0 km/h
2771 18-01-2004 07:23:58 3.5 C 5.1 g/m*3 3.5 C 0 km/h
2772 18-01-2004 07:35:01 3.5 C 5.04 g/m*3 3.5 C 0 km/h
2773 18-01-2004 07:47:01 3.6 C 5.08 g/m*3 3.6 C 0 km/h
2774 18-01-2004 07:59:01 3.5 C 4.98 g/m*3 3.5 C 0 km/h
2775 18-01-2004 08:11:01 3.4 C 4.95 g/m*3 3.4 C 0 km/h
Sensor: Nr:Datum:Temp:Abs-Feuchte:Windchill:Wind:
Aussen-T/F 2776 18-01-2004 08:23:01 3.5 C 4.98 g/m*3 3.5 C 0 km/h
2777 18-01-2004 08:35:00 3.6 C 5.01 g/m*3 3.6 C 0 km/h
2778 18-01-2004 08:47:00 3.7 C 4.99 g/m*3 3.7 C 0 km/h
2779 18-01-2004 08:59:00 3.8 C 4.96 g/m*3 3.8 C 0 km/h
2780 18-01-2004 09:11:59 3.8 C 4.96 g/m*3 3.8 C 0 km/h
2781 18-01-2004 09:23:59 3.9 C 4.93 g/m*3 3.9 C 0 km/h
2782 18-01-2004 09:35:01 3.9 C 4.86 g/m*3 3.9 C 0 km/h
2783 18-01-2004 09:47:01 4 C 4.64 g/m*3 4 C 0 km/h
2784 18-01-2004 09:59:01 4.1 C 4.54 g/m*3 4.1 C 0 km/h
2785 18-01-2004 10:11:01 3.9 C 4.55 g/m*3 3.9 C 0 km/h
2786 18-01-2004 10:23:01 3.5 C 4.61 g/m*3 3.5 C 0 km/h
2787 18-01-2004 10:35:00 3.3 C 4.73 g/m*3 3.3 C 0 km/h
2788 18-01-2004 10:47:00 3.3 C 4.85 g/m*3 3.3 C 0 km/h
2789 18-01-2004 10:59:00 3.3 C 4.73 g/m*3 3.3 C 0 km/h
2790 18-01-2004 11:11:58 3.7 C 4.8 g/m*3 3.7 C 0 km/h
2791 18-01-2004 11:23:58 3.8 C 4.45 g/m*3 3.8 C 0 km/h
2792 18-01-2004 11:35:01 4 C 4.13 g/m*3 4 C 0 km/h
2793 18-01-2004 11:47:01 4.3 C 3.7 g/m*3 4.3 C 0 km/h
2794 18-01-2004 11:59:01 4.4 C 3.46 g/m*3 4.4 C 0 km/h
2795 18-01-2004 12:11:01 4.5 C 3.35 g/m*3 4.5 C 0 km/h
2796 18-01-2004 12:23:01 4.4 C 3.33 g/m*3 4.4 C 0 km/h
2797 18-01-2004 12:35:01 5.2 C 3.37 g/m*3 5.2 C 0 km/h
2798 18-01-2004 12:47:01 5.4 C 3.21 g/m*3 5.4 C 0 km/h
2799 18-01-2004 12:59:01 5.6 C 3.46 g/m*3 5.6 C 0 km/h
2800 18-01-2004 13:11:01 5.7 C 3.34 g/m*3 5.7 C 0 km/h
Sensor: Nr:Datum:Temp:Abs-Feuchte:Windchill:Wind:
Aussen-T/F 2801 18-01-2004 13:23:01 5 C 3.19 g/m*3 5 C 0 km/h
2802 18-01-2004 13:35:00 4.8 C 3.29 g/m*3 4.8 C 0 km/h
2803 18-01-2004 13:47:00 4.6 C 3.11 g/m*3 4.6 C 0 km/h
2804 18-01-2004 13:59:00 4.7 C 3.13 g/m*3 4.7 C 0 km/h
2805 18-01-2004 14:11:59 5.4 C 3.14 g/m*3 5.4 C 0 km/h
2806 18-01-2004 14:23:59 5 C 3.06 g/m*3 5 C 0 km/h
2807 18-01-2004 14:35:01 4.5 C 2.96 g/m*3 4.5 C 0 km/h
2808 18-01-2004 14:47:01 4.1 C 2.88 g/m*3 4.1 C 0 km/h
2809 18-01-2004 14:59:01 3.8 C 3.07 g/m*3 3.8 C 0 km/h
2810 18-01-2004 15:11:01 3.5 C 3.01 g/m*3 3.5 C 0 km/h
2811 18-01-2004 15:23:01 3.4 C 2.99 g/m*3 3.4 C 0 km/h
2812 18-01-2004 15:35:01 3.3 C 2.97 g/m*3 3.3 C 0 km/h
2813 18-01-2004 15:47:01 3.4 C 2.93 g/m*3 3.4 C 0 km/h
2814 18-01-2004 15:59:01 3.4 C 2.99 g/m*3 3.4 C 0 km/h
2815 18-01-2004 16:11:01 3.1 C 2.99 g/m*3 3.1 C 0 km/h
2816 18-01-2004 16:23:01 2.9 C 3.07 g/m*3 2.9 C 0 km/h
2817 18-01-2004 16:35:00 2.6 C 3.07 g/m*3 2.6 C 0 km/h
2818 18-01-2004 16:47:00 2.2 C 3.1 g/m*3 2.2 C 0 km/h
2819 18-01-2004 16:59:00 2 C 3.06 g/m*3 2 C 0 km/h
2820 18-01-2004 17:11:58 1.8 C 3.18 g/m*3 1.8 C 0 km/h
2821 18-01-2004 17:23:58 1.7 C 3.16 g/m*3 1.7 C 0 km/h
2822 18-01-2004 17:35:01 1.2 C 3.21 g/m*3 1.2 C 0 km/h
2823 18-01-2004 17:47:01 0.8 C 3.33 g/m*3 0.8 C 0 km/h
2824 18-01-2004 17:59:01 0.4 C 3.29 g/m*3 0.4 C 0 km/h
2825 18-01-2004 18:11:01 0.3 C 3.26 g/m*3 0.3 C 0 km/h
Sensor: Nr:Datum:Temp:Abs-Feuchte:Windchill:Wind:
Aussen-T/F 2826 18-01-2004 18:23:01 0.3 C 3.26 g/m*3 0.3 C 0 km/h
2827 18-01-2004 18:35:02 0.1 C 3.27 g/m*3 0.1 C 0 km/h
2828 18-01-2004 18:47:02 0.1 C 3.27 g/m*3 0.1 C 0 km/h
2829 18-01-2004 18:59:02 -0.1 C 3.22 g/m*3 -0.1 C 0 km/h
2830 18-01-2004 19:11:01 -0.2 C 3.25 g/m*3 -0.2 C 0 km/h
2831 18-01-2004 19:23:01 -0.1 C 3.22 g/m*3 -0.1 C 0 km/h
2832 18-01-2004 19:35:01 -0.2 C 3.25 g/m*3 -0.2 C 0 km/h
2833 18-01-2004 19:47:01 -0.2 C 3.25 g/m*3 -0.2 C 0 km/h
2834 18-01-2004 19:59:01 -0.3 C 3.27 g/m*3 -0.3 C 0 km/h
2835 18-01-2004 20:11:00 -0.4 C 3.3 g/m*3 -0.4 C 0 km/h
2836 18-01-2004 20:23:00 -0.5 C 3.28 g/m*3 -0.5 C 0 km/h
2837 18-01-2004 20:35:01 -0.5 C 3.28 g/m*3 -0.5 C 0 km/h
2838 18-01-2004 20:47:01 -0.4 C 3.3 g/m*3 -0.4 C 0 km/h
2839 18-01-2004 20:59:01 -0.4 C 3.3 g/m*3 -0.4 C 0 km/h
2840 18-01-2004 21:11:01 -0.5 C 3.23 g/m*3 -0.5 C 0 km/h
2841 18-01-2004 21:23:01 -0.6 C 3.25 g/m*3 -0.6 C 0 km/h
2842 18-01-2004 21:35:02 -0.8 C 3.25 g/m*3 -0.8 C 0 km/h
2843 18-01-2004 21:47:02 -0.8 C 3.25 g/m*3 -0.8 C 0 km/h
2844 18-01-2004 21:59:02 -0.8 C 3.25 g/m*3 -0.8 C 0 km/h
2845 18-01-2004 22:11:01 -0.8 C 3.25 g/m*3 -0.8 C 0 km/h
2846 18-01-2004 22:23:01 -1 C 3.25 g/m*3 -1 C 0 km/h
2847 18-01-2004 22:35:00 -1 C 3.3 g/m*3 -1 C 0 km/h
2848 18-01-2004 22:47:00 -1.1 C 3.23 g/m*3 -1.1 C 0 km/h
2849 18-01-2004 22:59:00 -1.1 C 3.28 g/m*3 -1.1 C 0 km/h
2850 18-01-2004 23:11:59 -1.1 C 3.28 g/m*3 -1.1 C 0 km/h
Sensor: Nr:Datum:Temp:Abs-Feuchte:Windchill:Wind:
Aussen-T/F 2851 18-01-2004 23:23:59 -1.1 C 3.32 g/m*3 -1.1 C 0 km/h
2852 18-01-2004 23:35:01 -1.2 C 3.34 g/m*3 -1.2 C 0 km/h
2853 18-01-2004 23:47:01 -1.3 C 3.28 g/m*3 -1.3 C 0 km/h
2854 18-01-2004 23:59:01 -1.2 C 3.34 g/m*3 -1.2 C 0 km/h
2855 19-01-2004 00:11:01 -1.3 C 3.32 g/m*3 -1.3 C 0 km/h
2856 19-01-2004 00:23:01 -1.3 C 3.28 g/m*3 -1.3 C 0 km/h
2857 19-01-2004 00:35:00 -1.4 C 3.3 g/m*3 -1.4 C 0 km/h
2858 19-01-2004 00:47:00 -1.6 C 3.25 g/m*3 -1.6 C 0 km/h
2859 19-01-2004 00:59:00 -1.5 C 3.27 g/m*3 -1.5 C 0 km/h
2860 19-01-2004 01:11:58 -1.4 C 3.3 g/m*3 -1.4 C 0 km/h
2861 19-01-2004 01:23:58 -1.5 C 3.32 g/m*3 -1.5 C 0 km/h
2862 19-01-2004 01:35:01 -1.5 C 3.36 g/m*3 -1.5 C 0 km/h
2863 19-01-2004 01:47:01 -1.6 C 3.34 g/m*3 -1.6 C 0 km/h
2864 19-01-2004 01:59:01 -1.6 C 3.34 g/m*3 -1.6 C 0 km/h
2865 19-01-2004 02:11:01 -1.6 C 3.34 g/m*3 -1.6 C 0 km/h
2866 19-01-2004 02:23:01 -1.6 C 3.34 g/m*3 -1.6 C 0 km/h
2867 19-01-2004 02:36:03 -1.2 C 3.34 g/m*3 -1.2 C 0 km/h
2868 19-01-2004 02:48:03 -1.2 C 3.25 g/m*3 -1.2 C 0 km/h
2869 19-01-2004 03:00:03 -0.8 C 3.25 g/m*3 -0.8 C 0 km/h
2870 19-01-2004 03:12:03 -0.7 C 3.18 g/m*3 -0.7 C 0 km/h
2871 19-01-2004 03:24:03 -0.6 C 3.16 g/m*3 -0.6 C 0 km/h
2872 19-01-2004 03:35:59 -0.4 C 3.2 g/m*3 -0.4 C 0 km/h
2873 19-01-2004 03:47:59 -0.7 C 3.14 g/m*3 -0.7 C 0 km/h
2874 19-01-2004 03:59:59 -1 C 3.16 g/m*3 -1 C 0 km/h
2875 19-01-2004 04:12:58 -0.9 C 3.14 g/m*3 -0.9 C 0 km/h
Sensor: Nr:Datum:Temp:Abs-Feuchte:Windchill:Wind:
Aussen-T/F 2876 19-01-2004 04:24:58 -0.9 C 3.19 g/m*3 -0.9 C 0 km/h
2877 19-01-2004 04:36:01 -1.1 C 3.14 g/m*3 -1.1 C 0 km/h
2878 19-01-2004 04:48:01 -1.2 C 3.17 g/m*3 -1.2 C 0 km/h
2879 19-01-2004 05:00:01 -1.1 C 3.14 g/m*3 -1.1 C 0 km/h
2880 19-01-2004 05:12:01 -1 C 3.12 g/m*3 -1 C 0 km/h
2881 19-01-2004 05:24:01 -1.2 C 3.12 g/m*3 -1.2 C 0 km/h
2882 19-01-2004 05:36:01 -1.1 C 3.14 g/m*3 -1.1 C 0 km/h
2883 19-01-2004 05:48:01 -1.2 C 3.12 g/m*3 -1.2 C 0 km/h
2884 19-01-2004 06:00:01 -0.8 C 3.16 g/m*3 -0.8 C 0 km/h
2885 19-01-2004 06:12:01 -0.8 C 3.12 g/m*3 -0.8 C 0 km/h
2886 19-01-2004 06:24:01 -0.9 C 3.1 g/m*3 -0.9 C 0 km/h
2887 19-01-2004 06:36:00 -0.8 C 3.12 g/m*3 -0.8 C 0 km/h
2888 19-01-2004 06:48:00 -0.4 C 3.11 g/m*3 -0.4 C 0 km/h
2889 19-01-2004 07:00:00 -0.3 C 3.13 g/m*3 -0.3 C 0 km/h
2890 19-01-2004 07:12:58 -0.1 C 3.18 g/m*3 -0.1 C 0 km/h
2891 19-01-2004 07:24:58 -0.1 C 3.18 g/m*3 -0.1 C 0 km/h
2892 19-01-2004 07:36:01 0 C 3.2 g/m*3 0 C 0 km/h
2893 19-01-2004 07:48:01 0 C 3.25 g/m*3 0 C 0 km/h
2894 19-01-2004 08:00:01 0.1 C 3.27 g/m*3 0.1 C 0 km/h
2895 19-01-2004 08:12:01 0 C 3.34 g/m*3 0 C 0 km/h
2896 19-01-2004 08:24:01 -0.1 C 3.46 g/m*3 -0.1 C 0 km/h
2897 19-01-2004 08:36:01 -0.1 C 3.51 g/m*3 -0.1 C 0 km/h
2898 19-01-2004 08:48:01 0 C 3.54 g/m*3 0 C 0 km/h
2899 19-01-2004 09:00:01 0 C 3.59 g/m*3 0 C 0 km/h
2900 19-01-2004 09:12:01 0.1 C 3.61 g/m*3 0.1 C 0 km/h
Sensor: Nr:Datum:Temp:Abs-Feuchte:Windchill:Wind:
Aussen-T/F 2901 19-01-2004 09:24:01 0.1 C 3.61 g/m*3 0.1 C 0 km/h
2902 19-01-2004 09:36:00 0 C 3.68 g/m*3 0 C 0 km/h
2903 19-01-2004 09:48:00 0.2 C 3.73 g/m*3 0.2 C 0 km/h
2904 19-01-2004 10:00:00 0.4 C 3.79 g/m*3 0.4 C 0 km/h
2905 19-01-2004 10:12:59 0.3 C 3.76 g/m*3 0.3 C 0 km/h
2906 19-01-2004 10:24:59 0.2 C 3.83 g/m*3 0.2 C 0 km/h
2907 19-01-2004 10:36:01 0.1 C 3.95 g/m*3 0.1 C 0 km/h
2908 19-01-2004 10:48:01 0.1 C 4 g/m*3 0.1 C 0 km/h
2909 19-01-2004 11:00:01 0.2 C 4.03 g/m*3 0.2 C 0 km/h
2910 19-01-2004 11:12:00 0.3 C 4.11 g/m*3 0.3 C 0 km/h
2911 19-01-2004 11:24:00 0.3 C 4.06 g/m*3 0.3 C 0 km/h
2912 19-01-2004 11:36:01 0.4 C 4.03 g/m*3 0.4 C 0 km/h
2913 19-01-2004 11:48:01 0.4 C 4.03 g/m*3 0.4 C 0 km/h
2914 19-01-2004 12:00:01 0.5 C 4.01 g/m*3 0.5 C 0 km/h
2915 19-01-2004 12:12:01 0.4 C 4.03 g/m*3 0.4 C 0 km/h
2916 19-01-2004 12:24:01 0.5 C 4.06 g/m*3 0.5 C 0 km/h
2917 19-01-2004 12:36:01 0.5 C 4.06 g/m*3 0.5 C 0 km/h
2918 19-01-2004 12:48:01 0.5 C 4.06 g/m*3 0.5 C 0 km/h
2919 19-01-2004 13:00:01 0.5 C 4.06 g/m*3 0.5 C 0 km/h
2920 19-01-2004 13:12:59 0.5 C 4.11 g/m*3 0.5 C 0 km/h
2921 19-01-2004 13:24:59 0.5 C 4.11 g/m*3 0.5 C 0 km/h
2922 19-01-2004 13:36:01 0.5 C 4.11 g/m*3 0.5 C 0 km/h
2923 19-01-2004 13:48:01 0.6 C 4.19 g/m*3 0.6 C 0 km/h
2924 19-01-2004 14:00:01 0.8 C 4.2 g/m*3 0.8 C 0 km/h
2925 19-01-2004 14:12:00 0.9 C 4.18 g/m*3 0.9 C 0 km/h
Sensor: Nr:Datum:Temp:Abs-Feuchte:Windchill:Wind:
Aussen-T/F 2926 19-01-2004 14:24:00 1 C 4.1 g/m*3 1 C 0 km/h
2927 19-01-2004 14:36:01 1.1 C 4.08 g/m*3 1.1 C 0 km/h
2928 19-01-2004 14:48:01 1.3 C 4.13 g/m*3 1.3 C 0 km/h
2929 19-01-2004 15:00:01 1.3 C 4.08 g/m*3 1.3 C 0 km/h
2930 19-01-2004 15:12:01 1.4 C 4.11 g/m*3 1.4 C 0 km/h
2931 19-01-2004 15:24:01 1.4 C 4.11 g/m*3 1.4 C 0 km/h
2932 19-01-2004 15:36:01 1.5 C 4.08 g/m*3 1.5 C 0 km/h
2933 19-01-2004 15:48:01 1.6 C 4.11 g/m*3 1.6 C 0 km/h
2934 19-01-2004 16:00:01 1.6 C 4.11 g/m*3 1.6 C 0 km/h
2935 19-01-2004 16:12:01 1.7 C 4.14 g/m*3 1.7 C 0 km/h
2936 19-01-2004 16:24:01 1.8 C 4.22 g/m*3 1.8 C 0 km/h
2937 19-01-2004 16:36:00 1.6 C 4.16 g/m*3 1.6 C 0 km/h
2938 19-01-2004 16:48:00 1.6 C 4.22 g/m*3 1.6 C 0 km/h
2939 19-01-2004 17:00:00 1.6 C 4.27 g/m*3 1.6 C 0 km/h
2940 19-01-2004 17:12:59 1.5 C 4.24 g/m*3 1.5 C 0 km/h
2941 19-01-2004 17:24:59 1.4 C 4.32 g/m*3 1.4 C 0 km/h
2942 19-01-2004 17:36:01 1.5 C 4.4 g/m*3 1.5 C 0 km/h
2943 19-01-2004 17:48:01 1.4 C 4.37 g/m*3 1.4 C 0 km/h
2944 19-01-2004 18:00:01 1.4 C 4.43 g/m*3 1.4 C 0 km/h
2945 19-01-2004 18:12:00 1.6 C 4.49 g/m*3 1.6 C 0 km/h
2946 19-01-2004 18:24:00 1.6 C 4.49 g/m*3 1.6 C 0 km/h
2947 19-01-2004 18:36:01 1.6 C 4.49 g/m*3 1.6 C 0 km/h
2948 19-01-2004 18:48:01 1.8 C 4.55 g/m*3 1.8 C 0 km/h
2949 19-01-2004 19:00:01 1.8 C 4.55 g/m*3 1.8 C 0 km/h
2950 19-01-2004 19:12:01 1.8 C 4.55 g/m*3 1.8 C 0 km/h
Sensor: Nr:Datum:Temp:Abs-Feuchte:Windchill:Wind:
Aussen-T/F 2951 19-01-2004 19:24:01 1.9 C 4.64 g/m*3 1.9 C 0 km/h
2952 19-01-2004 19:36:00 2 C 4.67 g/m*3 2 C 0 km/h
2953 19-01-2004 19:48:00 2 C 4.67 g/m*3 2 C 0 km/h
2954 19-01-2004 20:00:00 2.1 C 4.7 g/m*3 2.1 C 0 km/h
2955 19-01-2004 20:12:58 2.1 C 4.7 g/m*3 2.1 C 0 km/h
2956 19-01-2004 20:24:58 2.2 C 4.79 g/m*3 2.2 C 0 km/h
2957 19-01-2004 20:36:01 2.2 C 4.79 g/m*3 2.2 C 0 km/h
2958 19-01-2004 20:48:01 2.3 C 4.82 g/m*3 2.3 C 0 km/h
2959 19-01-2004 21:00:01 2.4 C 4.85 g/m*3 2.4 C 0 km/h
2960 19-01-2004 21:12:01 2.5 C 4.89 g/m*3 2.5 C 0 km/h
2961 19-01-2004 21:24:01 2.5 C 4.89 g/m*3 2.5 C 0 km/h
2962 19-01-2004 21:36:01 2.5 C 4.89 g/m*3 2.5 C 0 km/h
2963 19-01-2004 21:48:01 2.6 C 4.98 g/m*3 2.6 C 0 km/h
2964 19-01-2004 22:00:01 2.6 C 4.98 g/m*3 2.6 C 0 km/h
2965 19-01-2004 22:12:01 2.7 C 5.07 g/m*3 2.7 C 0 km/h
2966 19-01-2004 22:24:01 2.7 C 5.07 g/m*3 2.7 C 0 km/h
2967 19-01-2004 22:36:02 2.8 C 5.1 g/m*3 2.8 C 0 km/h
2968 19-01-2004 22:48:02 2.8 C 5.1 g/m*3 2.8 C 0 km/h
2969 19-01-2004 23:00:02 2.9 C 5.14 g/m*3 2.9 C 0 km/h
2970 19-01-2004 23:12:59 3 C 5.17 g/m*3 3 C 0 km/h
2971 19-01-2004 23:24:59 3 C 5.17 g/m*3 3 C 0 km/h
2972 19-01-2004 23:36:01 3.1 C 5.21 g/m*3 3.1 C 0 km/h
2973 19-01-2004 23:48:01 3.1 C 5.21 g/m*3 3.1 C 0 km/h
2974 20-01-2004 00:00:01 3.2 C 5.24 g/m*3 3.2 C 0 km/h
2975 20-01-2004 00:12:01 3.3 C 5.28 g/m*3 3.3 C 0 km/h
Sensor: Nr:Datum:Temp:Abs-Feuchte:Windchill:Wind:
Aussen-T/F 2976 20-01-2004 00:24:01 3.3 C 5.28 g/m*3 3.3 C 0 km/h
2977 20-01-2004 00:36:01 3.4 C 5.31 g/m*3 3.4 C 0 km/h
2978 20-01-2004 00:48:01 3.5 C 5.35 g/m*3 3.5 C 0 km/h
2979 20-01-2004 01:00:01 3.7 C 5.42 g/m*3 3.7 C 0 km/h
2980 20-01-2004 01:12:01 3.7 C 5.42 g/m*3 3.7 C 0 km/h
2981 20-01-2004 01:24:01 3.8 C 5.46 g/m*3 3.8 C 0 km/h
2982 20-01-2004 01:36:00 4 C 5.47 g/m*3 4 C 0 km/h
2983 20-01-2004 01:48:00 4.1 C 5.57 g/m*3 4.1 C 0 km/h
2984 20-01-2004 02:00:00 4.2 C 5.54 g/m*3 4.2 C 0 km/h
2985 20-01-2004 02:12:58 4.3 C 5.58 g/m*3 4.3 C 0 km/h
2986 20-01-2004 02:24:58 4.4 C 5.62 g/m*3 4.4 C 0 km/h
2987 20-01-2004 02:37:02 4.4 C 5.68 g/m*3 4.4 C 0 km/h
2988 20-01-2004 02:49:02 4.5 C 5.72 g/m*3 4.5 C 0 km/h
2989 20-01-2004 03:01:02 4.4 C 5.68 g/m*3 4.4 C 0 km/h
2990 20-01-2004 03:13:02 4.5 C 5.72 g/m*3 4.5 C 0 km/h
2991 20-01-2004 03:25:02 4.5 C 5.72 g/m*3 4.5 C 0 km/h
2992 20-01-2004 03:37:00 4.6 C 5.76 g/m*3 4.6 C 0 km/h
2993 20-01-2004 03:49:00 4.7 C 5.86 g/m*3 4.7 C 0 km/h
2994 20-01-2004 04:01:00 4.6 C 5.82 g/m*3 4.6 C 0 km/h
2995 20-01-2004 04:13:59 4.7 C 5.86 g/m*3 4.7 C 0 km/h
2996 20-01-2004 04:25:59 4.7 C 5.93 g/m*3 4.7 C 0 km/h
2997 20-01-2004 04:37:01 4.7 C 5.93 g/m*3 4.7 C 0 km/h
2998 20-01-2004 04:49:01 4.8 C 5.97 g/m*3 4.8 C 0 km/h
2999 20-01-2004 05:01:01 5 C 6.05 g/m*3 5 C 0 km/h
3000 20-01-2004 05:13:00 4.9 C 6.08 g/m*3 4.9 C 0 km/h
Sensor: Nr:Datum:Temp:Abs-Feuchte:Windchill:Wind:
Aussen-T/F 3001 20-01-2004 05:25:00 5.2 C 6.2 g/m*3 5.2 C 0 km/h
3002 20-01-2004 05:37:01 5.8 C 6.45 g/m*3 5.8 C 0 km/h
3003 20-01-2004 05:49:01 6.1 C 6.58 g/m*3 6.1 C 0 km/h
3004 20-01-2004 06:01:01 6.4 C 6.71 g/m*3 6.4 C 0 km/h
3005 20-01-2004 06:13:01 6.8 C 6.96 g/m*3 6.8 C 0 km/h
3006 20-01-2004 06:25:01 6.7 C 6.91 g/m*3 6.7 C 0 km/h
3007 20-01-2004 06:48:59 6.2 C 6.69 g/m*3 6.2 C 0 km/h
3008 20-01-2004 07:00:59 5.9 C 6.56 g/m*3 5.9 C 0 km/h
3009 20-01-2004 07:01:59 5.6 C 6.43 g/m*3 5.6 C 0 km/h
3010 20-01-2004 07:13:59 5.4 C 6.28 g/m*3 5.4 C 0 km/h
3011 20-01-2004 07:25:59 5.4 C 6.28 g/m*3 5.4 C 0 km/h
3012 20-01-2004 07:37:01 5.3 C 6.17 g/m*3 5.3 C 0 km/h
3013 20-01-2004 07:49:01 5.2 C 6.13 g/m*3 5.2 C 0 km/h
3014 20-01-2004 08:01:01 5.2 C 5.99 g/m*3 5.2 C 0 km/h
3015 20-01-2004 08:13:01 5.2 C 5.85 g/m*3 5.2 C 0 km/h
3016 20-01-2004 08:25:01 5.2 C 5.71 g/m*3 5.2 C 0 km/h
3017 20-01-2004 08:37:00 5.1 C 5.54 g/m*3 5.1 C 0 km/h
3018 20-01-2004 08:49:00 5 C 5.44 g/m*3 5 C 0 km/h
3019 20-01-2004 09:01:00 4.9 C 5.47 g/m*3 4.9 C 0 km/h
3020 20-01-2004 09:13:59 4.8 C 5.43 g/m*3 4.8 C 0 km/h
3021 20-01-2004 09:25:59 4.8 C 5.43 g/m*3 4.8 C 0 km/h
3022 20-01-2004 09:37:01 5 C 5.3 g/m*3 5 C 0 km/h
3023 20-01-2004 09:49:01 5.1 C 5.4 g/m*3 5.1 C 0 km/h
3024 20-01-2004 10:01:01 5.1 C 5.4 g/m*3 5.1 C 0 km/h
3025 20-01-2004 10:13:01 5.2 C 5.51 g/m*3 5.2 C 0 km/h
Sensor: Nr:Datum:Temp:Abs-Feuchte:Windchill:Wind:
Aussen-T/F 3026 20-01-2004 10:25:01 5.2 C 5.51 g/m*3 5.2 C 0 km/h
3027 20-01-2004 10:37:02 5.3 C 5.48 g/m*3 5.3 C 0 km/h
3028 20-01-2004 10:49:02 5.3 C 5.48 g/m*3 5.3 C 0 km/h
3029 20-01-2004 11:01:02 5.4 C 5.51 g/m*3 5.4 C 0 km/h
3030 20-01-2004 11:13:01 5.6 C 5.51 g/m*3 5.6 C 0 km/h
3031 20-01-2004 11:25:01 5.8 C 5.59 g/m*3 5.8 C 0 km/h
3032 20-01-2004 11:37:00 6 C 5.44 g/m*3 6 C 0 km/h
3033 20-01-2004 11:49:00 6.1 C 5.41 g/m*3 6.1 C 0 km/h
3034 20-01-2004 12:01:00 6 C 5.01 g/m*3 6 C 0 km/h
3035 20-01-2004 12:13:59 6 C 5.01 g/m*3 6 C 0 km/h
3036 20-01-2004 12:25:59 5.8 C 5.01 g/m*3 5.8 C 0 km/h
3037 20-01-2004 12:37:01 5.8 C 5.09 g/m*3 5.8 C 0 km/h
3038 20-01-2004 12:49:01 6 C 4.94 g/m*3 6 C 0 km/h
3039 20-01-2004 13:01:01 5.9 C 5.05 g/m*3 5.9 C 0 km/h
3040 20-01-2004 13:13:00 5.8 C 5.16 g/m*3 5.8 C 0 km/h
3041 20-01-2004 13:25:00 6 C 5.15 g/m*3 6 C 0 km/h
3042 20-01-2004 13:37:01 5.8 C 5.09 g/m*3 5.8 C 0 km/h
3043 20-01-2004 13:49:01 6 C 4.86 g/m*3 6 C 0 km/h
3044 20-01-2004 14:01:01 7 C 4.8 g/m*3 7 C 0 km/h
3045 20-01-2004 14:13:01 6.8 C 4.59 g/m*3 6.8 C 0 km/h
3046 20-01-2004 14:25:01 6.3 C 4.44 g/m*3 6.3 C 0 km/h
3047 20-01-2004 14:37:00 5.7 C 4.63 g/m*3 5.7 C 0 km/h
3048 20-01-2004 14:49:00 5.2 C 4.48 g/m*3 5.2 C 0 km/h
3049 20-01-2004 15:01:00 5.1 C 4.45 g/m*3 5.1 C 0 km/h
3050 20-01-2004 15:13:59 5.2 C 4.27 g/m*3 5.2 C 0 km/h
Sensor: Nr:Datum:Temp:Abs-Feuchte:Windchill:Wind:
Aussen-T/F 3051 20-01-2004 15:25:59 4.9 C 4.25 g/m*3 4.9 C 0 km/h
3052 20-01-2004 15:37:01 4.7 C 4.06 g/m*3 4.7 C 0 km/h
3053 20-01-2004 15:49:01 4.4 C 4.05 g/m*3 4.4 C 0 km/h
3054 20-01-2004 16:01:01 4.2 C 3.93 g/m*3 4.2 C 0 km/h
3055 20-01-2004 16:13:00 4 C 3.81 g/m*3 4 C 0 km/h
3056 20-01-2004 16:25:00 3.7 C 3.68 g/m*3 3.7 C 0 km/h
3057 20-01-2004 16:37:01 3.5 C 3.63 g/m*3 3.5 C 0 km/h
3058 20-01-2004 16:49:01 3.2 C 3.62 g/m*3 3.2 C 0 km/h
3059 20-01-2004 17:01:01 3 C 3.57 g/m*3 3 C 0 km/h
3060 20-01-2004 17:13:01 3.1 C 3.59 g/m*3 3.1 C 0 km/h
3061 20-01-2004 17:25:01 3 C 3.69 g/m*3 3 C 0 km/h
3062 20-01-2004 17:37:01 3 C 3.51 g/m*3 3 C 0 km/h
3063 20-01-2004 17:49:01 3 C 3.63 g/m*3 3 C 0 km/h
3064 20-01-2004 18:01:01 2.9 C 3.48 g/m*3 2.9 C 0 km/h
3065 20-01-2004 18:13:58 2.9 C 3.66 g/m*3 2.9 C 0 km/h
3066 20-01-2004 18:25:58 2.8 C 3.52 g/m*3 2.8 C 0 km/h
3067 20-01-2004 18:37:01 2.7 C 3.38 g/m*3 2.7 C 0 km/h
3068 20-01-2004 18:49:01 2.6 C 3.47 g/m*3 2.6 C 0 km/h
3069 20-01-2004 19:01:01 2.5 C 3.45 g/m*3 2.5 C 0 km/h
3070 20-01-2004 19:13:01 2.5 C 3.51 g/m*3 2.5 C 0 km/h
3071 20-01-2004 19:25:01 2.4 C 3.48 g/m*3 2.4 C 0 km/h
3072 20-01-2004 19:37:00 2.4 C 3.48 g/m*3 2.4 C 0 km/h
3073 20-01-2004 19:49:00 2.3 C 3.57 g/m*3 2.3 C 0 km/h
3074 20-01-2004 20:01:00 2.2 C 3.55 g/m*3 2.2 C 0 km/h
3075 20-01-2004 20:13:59 2.2 C 3.49 g/m*3 2.2 C 0 km/h
Sensor: Nr:Datum:Temp:Abs-Feuchte:Windchill:Wind:
Aussen-T/F 3076 20-01-2004 20:25:59 2.2 C 3.44 g/m*3 2.2 C 0 km/h
3077 20-01-2004 20:37:01 2.1 C 3.58 g/m*3 2.1 C 0 km/h
3078 20-01-2004 20:49:01 2.1 C 3.64 g/m*3 2.1 C 0 km/h
3079 20-01-2004 21:01:01 2 C 3.45 g/m*3 2 C 0 km/h
3080 20-01-2004 21:13:00 2 C 3.39 g/m*3 2 C 0 km/h
3081 20-01-2004 21:25:00 2 C 3.45 g/m*3 2 C 0 km/h
3082 20-01-2004 21:37:01 1.9 C 3.53 g/m*3 1.9 C 0 km/h
3083 20-01-2004 21:49:01 1.8 C 3.45 g/m*3 1.8 C 0 km/h
3084 20-01-2004 22:01:01 1.9 C 3.64 g/m*3 1.9 C 0 km/h
3085 20-01-2004 22:13:01 1.6 C 3.62 g/m*3 1.6 C 0 km/h
3086 20-01-2004 22:25:01 1.5 C 3.71 g/m*3 1.5 C 0 km/h
3087 20-01-2004 22:48:59 1.4 C 3.57 g/m*3 1.4 C 0 km/h
3088 20-01-2004 23:00:59 1.3 C 3.55 g/m*3 1.3 C 0 km/h
3089 20-01-2004 23:01:58 1.3 C 3.55 g/m*3 1.3 C 0 km/h
3090 20-01-2004 23:13:58 1.2 C 3.42 g/m*3 1.2 C 0 km/h
3091 20-01-2004 23:25:58 1.3 C 3.5 g/m*3 1.3 C 0 km/h
3092 20-01-2004 23:37:01 1.3 C 3.5 g/m*3 1.3 C 0 km/h
3093 20-01-2004 23:49:01 1.2 C 3.47 g/m*3 1.2 C 0 km/h
3094 21-01-2004 00:01:01 1.2 C 3.53 g/m*3 1.2 C 0 km/h
3095 21-01-2004 00:13:01 1.2 C 3.53 g/m*3 1.2 C 0 km/h
3096 21-01-2004 00:25:01 1.1 C 3.45 g/m*3 1.1 C 0 km/h
3097 21-01-2004 00:37:01 1 C 3.37 g/m*3 1 C 0 km/h
3098 21-01-2004 00:49:01 1 C 3.43 g/m*3 1 C 0 km/h
3099 21-01-2004 01:01:01 1 C 3.43 g/m*3 1 C 0 km/h
3100 21-01-2004 01:13:01 0.9 C 3.45 g/m*3 0.9 C 0 km/h
Sensor: Nr:Datum:Temp:Abs-Feuchte:Windchill:Wind:
Aussen-T/F 3101 21-01-2004 01:25:01 0.7 C 3.41 g/m*3 0.7 C 0 km/h
3102 21-01-2004 01:37:00 0.8 C 3.43 g/m*3 0.8 C 0 km/h
3103 21-01-2004 01:49:00 0.7 C 3.36 g/m*3 0.7 C 0 km/h
3104 21-01-2004 02:01:00 0.7 C 3.41 g/m*3 0.7 C 0 km/h
3105 21-01-2004 02:13:58 0.7 C 3.46 g/m*3 0.7 C 0 km/h
3106 21-01-2004 02:25:58 0.7 C 3.41 g/m*3 0.7 C 0 km/h
3107 21-01-2004 02:38:03 0.6 C 3.33 g/m*3 0.6 C 0 km/h
3108 21-01-2004 02:50:03 0.5 C 3.36 g/m*3 0.5 C 0 km/h
3109 21-01-2004 03:02:03 0.5 C 3.26 g/m*3 0.5 C 0 km/h
3110 21-01-2004 03:14:02 0.6 C 3.28 g/m*3 0.6 C 0 km/h
3111 21-01-2004 03:26:02 0.7 C 3.15 g/m*3 0.7 C 0 km/h
3112 21-01-2004 03:38:00 0.7 C 3.3 g/m*3 0.7 C 0 km/h
3113 21-01-2004 03:50:00 0.5 C 3.26 g/m*3 0.5 C 0 km/h
3114 21-01-2004 04:02:59 0.4 C 3.19 g/m*3 0.4 C 0 km/h
3115 21-01-2004 04:14:59 0.4 C 3.19 g/m*3 0.4 C 0 km/h
3116 21-01-2004 04:26:59 0.2 C 3.14 g/m*3 0.2 C 0 km/h
3117 21-01-2004 04:38:01 0.2 C 3.09 g/m*3 0.2 C 0 km/h
3118 21-01-2004 04:50:01 0.2 C 3.14 g/m*3 0.2 C 0 km/h
3119 21-01-2004 05:02:01 0.3 C 3.12 g/m*3 0.3 C 0 km/h
3120 21-01-2004 05:14:01 0.3 C 3.22 g/m*3 0.3 C 0 km/h
3121 21-01-2004 05:26:01 0.3 C 3.07 g/m*3 0.3 C 0 km/h
3122 21-01-2004 05:38:00 0.3 C 3.07 g/m*3 0.3 C 0 km/h
3123 21-01-2004 05:50:00 0.3 C 3.22 g/m*3 0.3 C 0 km/h
3124 21-01-2004 06:02:58 0.3 C 3.07 g/m*3 0.3 C 0 km/h
3125 21-01-2004 06:14:58 0.3 C 3.07 g/m*3 0.3 C 0 km/h
Sensor: Nr:Datum:Temp:Abs-Feuchte:Windchill:Wind:
Aussen-T/F 3126 21-01-2004 06:26:58 0.3 C 3.17 g/m*3 0.3 C 0 km/h
3127 21-01-2004 06:38:01 0.2 C 3 g/m*3 0.2 C 0 km/h
3128 21-01-2004 06:50:01 0.2 C 3.09 g/m*3 0.2 C 0 km/h
3129 21-01-2004 07:02:01 0.3 C 3.17 g/m*3 0.3 C 0 km/h
3130 21-01-2004 07:14:01 0.3 C 3.12 g/m*3 0.3 C 0 km/h
3131 21-01-2004 07:26:01 0.3 C 3.12 g/m*3 0.3 C 0 km/h
3132 21-01-2004 07:38:00 0.3 C 3.12 g/m*3 0.3 C 0 km/h
3133 21-01-2004 07:50:00 0.3 C 3.17 g/m*3 0.3 C 0 km/h
3134 21-01-2004 08:02:59 0.3 C 3.12 g/m*3 0.3 C 0 km/h
3135 21-01-2004 08:14:59 0.3 C 3.17 g/m*3 0.3 C 0 km/h
3136 21-01-2004 08:26:59 0.3 C 3.17 g/m*3 0.3 C 0 km/h
3137 21-01-2004 08:38:01 0.3 C 3.26 g/m*3 0.3 C 0 km/h
3138 21-01-2004 08:50:01 0.4 C 3.29 g/m*3 0.4 C 0 km/h
3139 21-01-2004 09:02:01 0.5 C 3.21 g/m*3 0.5 C 0 km/h
3140 21-01-2004 09:14:01 0.7 C 3.2 g/m*3 0.7 C 0 km/h
3141 21-01-2004 09:26:01 0.7 C 3.2 g/m*3 0.7 C 0 km/h
3142 21-01-2004 09:38:00 0.8 C 3.28 g/m*3 0.8 C 0 km/h
3143 21-01-2004 09:50:00 0.9 C 3.3 g/m*3 0.9 C 0 km/h
3144 21-01-2004 10:02:58 1 C 3.22 g/m*3 1 C 0 km/h
3145 21-01-2004 10:14:58 1.1 C 3.14 g/m*3 1.1 C 0 km/h
3146 21-01-2004 10:26:58 1.2 C 3.21 g/m*3 1.2 C 0 km/h
3147 21-01-2004 10:38:01 1.4 C 3.15 g/m*3 1.4 C 0 km/h
3148 21-01-2004 10:50:01 1.5 C 3.01 g/m*3 1.5 C 0 km/h
3149 21-01-2004 11:02:01 1.6 C 2.97 g/m*3 1.6 C 0 km/h
3150 21-01-2004 11:14:01 1.9 C 3.09 g/m*3 1.9 C 0 km/h
Sensor: Nr:Datum:Temp:Abs-Feuchte:Windchill:Wind:
Aussen-T/F 3151 21-01-2004 11:26:01 2 C 2.89 g/m*3 2 C 0 km/h
3152 21-01-2004 11:38:00 2.2 C 2.87 g/m*3 2.2 C 0 km/h
3153 21-01-2004 11:50:00 2.2 C 2.87 g/m*3 2.2 C 0 km/h
3154 21-01-2004 12:02:59 2.3 C 2.72 g/m*3 2.3 C 0 km/h
3155 21-01-2004 12:14:59 2.5 C 2.82 g/m*3 2.5 C 0 km/h
3156 21-01-2004 12:26:59 2.4 C 2.74 g/m*3 2.4 C 0 km/h
3157 21-01-2004 12:38:00 2.5 C 2.87 g/m*3 2.5 C 0 km/h
3158 21-01-2004 12:50:00 2.6 C 2.89 g/m*3 2.6 C 0 km/h
3159 21-01-2004 13:02:00 2.6 C 2.78 g/m*3 2.6 C 0 km/h
3160 21-01-2004 13:14:00 2.7 C 2.8 g/m*3 2.7 C 0 km/h
3161 21-01-2004 13:26:00 2.3 C 2.95 g/m*3 2.3 C 0 km/h
3162 21-01-2004 13:38:01 2.7 C 3.03 g/m*3 2.7 C 0 km/h
3163 21-01-2004 13:50:01 2.8 C 3.05 g/m*3 2.8 C 0 km/h
3164 21-01-2004 14:02:01 2.5 C 3.1 g/m*3 2.5 C 0 km/h
3165 21-01-2004 14:14:01 2.2 C 3.32 g/m*3 2.2 C 0 km/h
3166 21-01-2004 14:26:01 2.5 C 3.33 g/m*3 2.5 C 0 km/h
3167 21-01-2004 14:38:00 2.7 C 3.44 g/m*3 2.7 C 0 km/h
3168 21-01-2004 14:50:00 2.7 C 3.5 g/m*3 2.7 C 0 km/h
3169 21-01-2004 15:02:59 2.6 C 3.47 g/m*3 2.6 C 0 km/h
3170 21-01-2004 15:14:59 2.7 C 3.5 g/m*3 2.7 C 0 km/h
3171 21-01-2004 15:26:59 2.6 C 3.47 g/m*3 2.6 C 0 km/h
3172 21-01-2004 15:38:01 1.9 C 3.59 g/m*3 1.9 C 0 km/h
3173 21-01-2004 15:50:01 1.8 C 3.62 g/m*3 1.8 C 0 km/h
3174 21-01-2004 16:02:00 1.8 C 3.73 g/m*3 1.8 C 0 km/h
3175 21-01-2004 16:14:00 1.3 C 3.71 g/m*3 1.3 C 0 km/h
Sensor: Nr:Datum:Temp:Abs-Feuchte:Windchill:Wind:
Aussen-T/F 3176 21-01-2004 16:26:00 1.2 C 3.68 g/m*3 1.2 C 0 km/h
3177 21-01-2004 16:38:01 1.2 C 3.68 g/m*3 1.2 C 0 km/h
3178 21-01-2004 16:50:01 1.1 C 3.66 g/m*3 1.1 C 0 km/h
3179 21-01-2004 17:02:01 1 C 3.69 g/m*3 1 C 0 km/h
3180 21-01-2004 17:14:01 0.9 C 3.61 g/m*3 0.9 C 0 km/h
3181 21-01-2004 17:26:01 0.8 C 3.48 g/m*3 0.8 C 0 km/h
3182 21-01-2004 17:38:00 0.9 C 3.56 g/m*3 0.9 C 0 km/h
3183 21-01-2004 17:50:00 0.9 C 3.45 g/m*3 0.9 C 0 km/h
3184 21-01-2004 18:02:59 0.9 C 3.25 g/m*3 0.9 C 0 km/h
3185 21-01-2004 18:14:59 0.9 C 3.09 g/m*3 0.9 C 0 km/h
3186 21-01-2004 18:26:59 0.8 C 2.97 g/m*3 0.8 C 0 km/h
3187 21-01-2004 18:38:01 0.7 C 3 g/m*3 0.7 C 0 km/h
3188 21-01-2004 18:50:01 0.7 C 2.95 g/m*3 0.7 C 0 km/h
3189 21-01-2004 19:02:01 0.5 C 2.91 g/m*3 0.5 C 0 km/h
3190 21-01-2004 19:14:01 0.4 C 3.04 g/m*3 0.4 C 0 km/h
3191 21-01-2004 19:26:01 0.3 C 3.12 g/m*3 0.3 C 0 km/h
3192 21-01-2004 19:38:00 0.1 C 3.07 g/m*3 0.1 C 0 km/h
3193 21-01-2004 19:50:00 0 C 2.76 g/m*3 0 C 0 km/h
3194 21-01-2004 20:02:58 -0.5 C 2.67 g/m*3 -0.5 C 0 km/h
3195 21-01-2004 20:14:58 -0.9 C 2.82 g/m*3 -0.9 C 0 km/h
3196 21-01-2004 20:26:58 -1 C 2.76 g/m*3 -1 C 0 km/h
3197 21-01-2004 20:38:01 -1.1 C 2.78 g/m*3 -1.1 C 0 km/h
3198 21-01-2004 20:50:01 -1.1 C 2.83 g/m*3 -1.1 C 0 km/h
3199 21-01-2004 21:02:01 -1 C 2.89 g/m*3 -1 C 0 km/h
3200 21-01-2004 21:14:01 -1.2 C 2.9 g/m*3 -1.2 C 0 km/h
Sensor: Nr:Datum:Temp:Abs-Feuchte:Windchill:Wind:
Aussen-T/F 3201 21-01-2004 21:26:01 -1.4 C 2.81 g/m*3 -1.4 C 0 km/h
3202 21-01-2004 21:38:01 -1.7 C 2.8 g/m*3 -1.7 C 0 km/h
3203 21-01-2004 21:50:01 -1.9 C 2.76 g/m*3 -1.9 C 0 km/h
3204 21-01-2004 22:02:01 -2.1 C 2.76 g/m*3 -2.1 C 0 km/h
3205 21-01-2004 22:14:01 -2.3 C 2.77 g/m*3 -2.3 C 0 km/h
3206 21-01-2004 22:26:01 -2.3 C 2.72 g/m*3 -2.3 C 0 km/h
3207 21-01-2004 22:38:00 -2.4 C 2.66 g/m*3 -2.4 C 0 km/h
3208 21-01-2004 22:50:00 -2.4 C 2.7 g/m*3 -2.4 C 0 km/h
3209 21-01-2004 23:02:59 -2.4 C 2.7 g/m*3 -2.4 C 0 km/h
3210 21-01-2004 23:14:59 -2.4 C 2.7 g/m*3 -2.4 C 0 km/h
3211 21-01-2004 23:26:59 -2.4 C 2.7 g/m*3 -2.4 C 0 km/h
3212 21-01-2004 23:38:01 -2.4 C 2.7 g/m*3 -2.4 C 0 km/h
3213 21-01-2004 23:50:01 -2.4 C 2.7 g/m*3 -2.4 C 0 km/h
3214 22-01-2004 00:02:01 -2.4 C 2.7 g/m*3 -2.4 C 0 km/h
3215 22-01-2004 00:14:01 -2.4 C 2.7 g/m*3 -2.4 C 0 km/h
3216 22-01-2004 00:26:01 -2.4 C 2.7 g/m*3 -2.4 C 0 km/h
3217 22-01-2004 00:38:00 -2.4 C 2.7 g/m*3 -2.4 C 0 km/h
3218 22-01-2004 00:50:00 -2.4 C 2.7 g/m*3 -2.4 C 0 km/h
3219 22-01-2004 01:02:58 -2.4 C 2.7 g/m*3 -2.4 C 0 km/h
3220 22-01-2004 01:14:58 -3.7 C 2.69 g/m*3 -3.7 C 0 km/h
3221 22-01-2004 01:26:58 -3.7 C 2.69 g/m*3 -3.7 C 0 km/h
3222 22-01-2004 01:38:01 -3.7 C 2.73 g/m*3 -3.7 C 0 km/h
3223 22-01-2004 01:50:01 -3.7 C 2.8 g/m*3 -3.7 C 0 km/h
3224 22-01-2004 02:02:01 -3.8 C 2.78 g/m*3 -3.8 C 0 km/h
3225 22-01-2004 02:14:01 -3.7 C 2.84 g/m*3 -3.7 C 0 km/h
Sensor: Nr:Datum:Temp:Abs-Feuchte:Windchill:Wind:
Aussen-T/F 3226 22-01-2004 02:26:01 -3.7 C 2.88 g/m*3 -3.7 C 0 km/h
3227 22-01-2004 02:39:01 -3.9 C 2.8 g/m*3 -3.9 C 0 km/h
3228 22-01-2004 02:51:01 -4.1 C 2.76 g/m*3 -4.1 C 0 km/h
3229 22-01-2004 03:03:01 -4.2 C 2.78 g/m*3 -4.2 C 0 km/h
3230 22-01-2004 03:15:00 -4.4 C 2.74 g/m*3 -4.4 C 0 km/h
3231 22-01-2004 03:27:00 -4.4 C 2.74 g/m*3 -4.4 C 0 km/h
3232 22-01-2004 03:39:01 -4.4 C 2.74 g/m*3 -4.4 C 0 km/h
3233 22-01-2004 03:51:01 -4.2 C 2.81 g/m*3 -4.2 C 0 km/h
3234 22-01-2004 04:03:01 -4.1 C 2.87 g/m*3 -4.1 C 0 km/h
3235 22-01-2004 04:15:01 -4.1 C 2.87 g/m*3 -4.1 C 0 km/h
3236 22-01-2004 04:27:01 -4.2 C 2.81 g/m*3 -4.2 C 0 km/h
3237 22-01-2004 04:39:00 -4.6 C 2.73 g/m*3 -4.6 C 0 km/h
3238 22-01-2004 04:51:00 -4.7 C 2.71 g/m*3 -4.7 C 0 km/h
3239 22-01-2004 05:03:59 -4.5 C 2.79 g/m*3 -4.5 C 0 km/h
3240 22-01-2004 05:15:59 -4.5 C 2.79 g/m*3 -4.5 C 0 km/h
3241 22-01-2004 05:27:59 -4.6 C 2.77 g/m*3 -4.6 C 0 km/h
3242 22-01-2004 05:39:01 -4.6 C 2.77 g/m*3 -4.6 C 0 km/h
3243 22-01-2004 05:51:01 -4.6 C 2.77 g/m*3 -4.6 C 0 km/h
3244 22-01-2004 06:03:01 -4.5 C 2.82 g/m*3 -4.5 C 0 km/h
3245 22-01-2004 06:15:01 -4.5 C 2.82 g/m*3 -4.5 C 0 km/h
3246 22-01-2004 06:27:01 -4.5 C 2.82 g/m*3 -4.5 C 0 km/h
3247 22-01-2004 06:39:00 -4.2 C 2.92 g/m*3 -4.2 C 0 km/h
3248 22-01-2004 06:51:00 -3.9 C 2.98 g/m*3 -3.9 C 0 km/h
3249 22-01-2004 07:03:59 -3.8 C 3.01 g/m*3 -3.8 C 0 km/h
3250 2